<?xml version="1.0" encoding="UTF-8" standalone="no" ?>
<gpx xmlns="http://www.topografix.com/GPX/1/1" xmlns:xsi="http://www.w3.org/2001/XMLSchema-instance" xsi:schemaLocation="http://www.topografix.com/GPX/1/1 http://www.topografix.com/GPX/1/1/gpx.xsd" version="1.1" creator="VisuGPX - https://www.visugpx.com">
  <metadata>
    <name>Haute Savoie Pic Boré</name>
  </metadata>
  <trk>
    <name><![CDATA[Haute Savoie Pic Boré_1]]></name>
    <trkseg>
      <trkpt lat="48.96734" lon="5.00665">
        <ele>158.6</ele>
      </trkpt>
    </trkseg>
  </trk>
  <trk>
    <name><![CDATA[Randonnée]]></name>
    <extensions>
      <line xmlns="http://www.topografix.com/GPX/gpx_style/0/2">
        <color>0000FF</color>
        <width>4</width>
      </line>
    </extensions>
    <trkseg>
      <trkpt lat="46.357" lon="6.68112">
        <ele>1012.722159</ele>
        <time>2022-08-01T09:07:32.038Z</time>
      </trkpt>
      <trkpt lat="46.35696" lon="6.68124">
        <ele>1012.722159</ele>
        <time>2022-08-01T09:07:36.684Z</time>
      </trkpt>
      <trkpt lat="46.35695" lon="6.68138">
        <ele>1012.722159</ele>
        <time>2022-08-01T09:07:43.680Z</time>
      </trkpt>
      <trkpt lat="46.35697" lon="6.68151">
        <ele>1012.722159</ele>
        <time>2022-08-01T09:07:50.686Z</time>
      </trkpt>
      <trkpt lat="46.35699" lon="6.68164">
        <ele>1012.722159</ele>
        <time>2022-08-01T09:07:57.723Z</time>
      </trkpt>
      <trkpt lat="46.35699" lon="6.68178">
        <ele>1012.722159</ele>
        <time>2022-08-01T09:08:04.745Z</time>
      </trkpt>
      <trkpt lat="46.357" lon="6.68192">
        <ele>1012.722159</ele>
        <time>2022-08-01T09:08:11.736Z</time>
      </trkpt>
      <trkpt lat="46.35702" lon="6.68205">
        <ele>1012.722159</ele>
        <time>2022-08-01T09:08:19.723Z</time>
      </trkpt>
      <trkpt lat="46.35703" lon="6.68219">
        <ele>1012.722159</ele>
        <time>2022-08-01T09:08:27.748Z</time>
      </trkpt>
      <trkpt lat="46.35704" lon="6.68233">
        <ele>1012.722159</ele>
        <time>2022-08-01T09:08:34.762Z</time>
      </trkpt>
      <trkpt lat="46.35706" lon="6.68246">
        <ele>1012.863454</ele>
        <time>2022-08-01T09:08:40.758Z</time>
      </trkpt>
      <trkpt lat="46.3571" lon="6.6826">
        <ele>1013.188847</ele>
        <time>2022-08-01T09:08:48.756Z</time>
      </trkpt>
      <trkpt lat="46.35711" lon="6.68274">
        <ele>1013.486806</ele>
        <time>2022-08-01T09:08:55.754Z</time>
      </trkpt>
      <trkpt lat="46.35713" lon="6.68288">
        <ele>1013.785776</ele>
        <time>2022-08-01T09:09:02.724Z</time>
      </trkpt>
      <trkpt lat="46.35713" lon="6.68301">
        <ele>1014.076605</ele>
        <time>2022-08-01T09:09:09.725Z</time>
      </trkpt>
      <trkpt lat="46.35713" lon="6.68314">
        <ele>1014.356505</ele>
        <time>2022-08-01T09:09:16.726Z</time>
      </trkpt>
      <trkpt lat="46.35714" lon="6.68327">
        <ele>1014.635646</ele>
        <time>2022-08-01T09:09:23.748Z</time>
      </trkpt>
      <trkpt lat="46.35716" lon="6.68341">
        <ele>1014.925825</ele>
        <time>2022-08-01T09:09:30.761Z</time>
      </trkpt>
      <trkpt lat="46.35717" lon="6.68355">
        <ele>1015.233985</ele>
        <time>2022-08-01T09:09:38.764Z</time>
      </trkpt>
      <trkpt lat="46.35718" lon="6.68369">
        <ele>1015.545029</ele>
        <time>2022-08-01T09:09:46.749Z</time>
      </trkpt>
      <trkpt lat="46.35721" lon="6.68382">
        <ele>1015.831756</ele>
        <time>2022-08-01T09:09:55.725Z</time>
      </trkpt>
      <trkpt lat="46.35722" lon="6.68396">
        <ele>1016.133991</ele>
        <time>2022-08-01T09:10:02.760Z</time>
      </trkpt>
      <trkpt lat="46.35723" lon="6.6841">
        <ele>1016.416621</ele>
        <time>2022-08-01T09:10:08.738Z</time>
      </trkpt>
      <trkpt lat="46.3572" lon="6.68423">
        <ele>1016.714864</ele>
        <time>2022-08-01T09:10:17.729Z</time>
      </trkpt>
      <trkpt lat="46.35716" lon="6.68435">
        <ele>1017.00192</ele>
        <time>2022-08-01T09:10:24.736Z</time>
      </trkpt>
      <trkpt lat="46.35717" lon="6.6845">
        <ele>1017.308209</ele>
        <time>2022-08-01T09:10:31.758Z</time>
      </trkpt>
      <trkpt lat="46.35712" lon="6.68463">
        <ele>1017.630795</ele>
        <time>2022-08-01T09:10:39.754Z</time>
      </trkpt>
      <trkpt lat="46.3571" lon="6.68476">
        <ele>1017.923706</ele>
        <time>2022-08-01T09:10:46.742Z</time>
      </trkpt>
      <trkpt lat="46.35709" lon="6.6849">
        <ele>1018.23023</ele>
        <time>2022-08-01T09:10:54.741Z</time>
      </trkpt>
      <trkpt lat="46.35705" lon="6.68503">
        <ele>1018.940986</ele>
        <time>2022-08-01T09:11:01.731Z</time>
      </trkpt>
      <trkpt lat="46.35699" lon="6.68514">
        <ele>1019.748412</ele>
        <time>2022-08-01T09:11:08.728Z</time>
      </trkpt>
      <trkpt lat="46.35694" lon="6.68526">
        <ele>1020.536865</ele>
        <time>2022-08-01T09:11:21.745Z</time>
      </trkpt>
      <trkpt lat="46.35692" lon="6.68539">
        <ele>1021.318065</ele>
        <time>2022-08-01T09:11:30.750Z</time>
      </trkpt>
      <trkpt lat="46.35689" lon="6.68552">
        <ele>1022.13478</ele>
        <time>2022-08-01T09:11:37.751Z</time>
      </trkpt>
      <trkpt lat="46.35684" lon="6.68564">
        <ele>1022.946746</ele>
        <time>2022-08-01T09:11:45.745Z</time>
      </trkpt>
      <trkpt lat="46.35682" lon="6.68579">
        <ele>1023.828543</ele>
        <time>2022-08-01T09:11:52.746Z</time>
      </trkpt>
      <trkpt lat="46.3568" lon="6.68593">
        <ele>1024.662782</ele>
        <time>2022-08-01T09:12:00.744Z</time>
      </trkpt>
      <trkpt lat="46.3568" lon="6.68606">
        <ele>1025.42211</ele>
        <time>2022-08-01T09:12:07.750Z</time>
      </trkpt>
      <trkpt lat="46.3568" lon="6.6862">
        <ele>1026.254069</ele>
        <time>2022-08-01T09:12:15.759Z</time>
      </trkpt>
      <trkpt lat="46.35678" lon="6.68633">
        <ele>1027.017131</ele>
        <time>2022-08-01T09:12:24.749Z</time>
      </trkpt>
      <trkpt lat="46.35678" lon="6.68647">
        <ele>1027.82937</ele>
        <time>2022-08-01T09:12:31.749Z</time>
      </trkpt>
      <trkpt lat="46.35677" lon="6.68661">
        <ele>1028.655899</ele>
        <time>2022-08-01T09:12:38.754Z</time>
      </trkpt>
      <trkpt lat="46.35675" lon="6.68675">
        <ele>1029.455691</ele>
        <time>2022-08-01T09:12:46.739Z</time>
      </trkpt>
      <trkpt lat="46.35673" lon="6.68688">
        <ele>1030.226796</ele>
        <time>2022-08-01T09:12:54.741Z</time>
      </trkpt>
      <trkpt lat="46.3567" lon="6.687">
        <ele>1030.997492</ele>
        <time>2022-08-01T09:13:02.739Z</time>
      </trkpt>
      <trkpt lat="46.35667" lon="6.68714">
        <ele>1031.823182</ele>
        <time>2022-08-01T09:13:10.745Z</time>
      </trkpt>
      <trkpt lat="46.35665" lon="6.68728">
        <ele>1032.654789</ele>
        <time>2022-08-01T09:13:18.736Z</time>
      </trkpt>
      <trkpt lat="46.35664" lon="6.68741">
        <ele>1033.438836</ele>
        <time>2022-08-01T09:13:26.731Z</time>
      </trkpt>
      <trkpt lat="46.35663" lon="6.68754">
        <ele>1033.921819</ele>
        <time>2022-08-01T09:13:35.741Z</time>
      </trkpt>
      <trkpt lat="46.35665" lon="6.68768">
        <ele>1034.42643</ele>
        <time>2022-08-01T09:13:44.755Z</time>
      </trkpt>
      <trkpt lat="46.35667" lon="6.68781">
        <ele>1034.92679</ele>
        <time>2022-08-01T09:13:52.734Z</time>
      </trkpt>
      <trkpt lat="46.35669" lon="6.68794">
        <ele>1035.427072</ele>
        <time>2022-08-01T09:14:00.735Z</time>
      </trkpt>
      <trkpt lat="46.3567" lon="6.68807">
        <ele>1035.910914</ele>
        <time>2022-08-01T09:14:09.733Z</time>
      </trkpt>
      <trkpt lat="46.35672" lon="6.68821">
        <ele>1036.421971</ele>
        <time>2022-08-01T09:14:17.747Z</time>
      </trkpt>
      <trkpt lat="46.35672" lon="6.68835">
        <ele>1036.940214</ele>
        <time>2022-08-01T09:14:25.726Z</time>
      </trkpt>
      <trkpt lat="46.35671" lon="6.68848">
        <ele>1037.431047</ele>
        <time>2022-08-01T09:14:33.732Z</time>
      </trkpt>
      <trkpt lat="46.35673" lon="6.68861">
        <ele>1037.93412</ele>
        <time>2022-08-01T09:14:40.752Z</time>
      </trkpt>
      <trkpt lat="46.35675" lon="6.68875">
        <ele>1038.466612</ele>
        <time>2022-08-01T09:14:48.769Z</time>
      </trkpt>
      <trkpt lat="46.35678" lon="6.68889">
        <ele>1038.990738</ele>
        <time>2022-08-01T09:14:56.730Z</time>
      </trkpt>
      <trkpt lat="46.35679" lon="6.68902">
        <ele>1039.473513</ele>
        <time>2022-08-01T09:15:04.732Z</time>
      </trkpt>
      <trkpt lat="46.35679" lon="6.68916">
        <ele>1039.988053</ele>
        <time>2022-08-01T09:15:11.745Z</time>
      </trkpt>
      <trkpt lat="46.3568" lon="6.68931">
        <ele>1040.518158</ele>
        <time>2022-08-01T09:15:21.741Z</time>
      </trkpt>
      <trkpt lat="46.35684" lon="6.68943">
        <ele>1041.009386</ele>
        <time>2022-08-01T09:15:28.741Z</time>
      </trkpt>
      <trkpt lat="46.35688" lon="6.68955">
        <ele>1041.503532</ele>
        <time>2022-08-01T09:15:36.739Z</time>
      </trkpt>
      <trkpt lat="46.35693" lon="6.68967">
        <ele>1042.026055</ele>
        <time>2022-08-01T09:15:45.737Z</time>
      </trkpt>
      <trkpt lat="46.35699" lon="6.68978">
        <ele>1042.543621</ele>
        <time>2022-08-01T09:15:53.752Z</time>
      </trkpt>
      <trkpt lat="46.35706" lon="6.68987">
        <ele>1043.045663</ele>
        <time>2022-08-01T09:16:01.763Z</time>
      </trkpt>
      <trkpt lat="46.35712" lon="6.69001">
        <ele>1043.32013</ele>
        <time>2022-08-01T09:16:09.743Z</time>
      </trkpt>
      <trkpt lat="46.35719" lon="6.69009">
        <ele>1043.559084</ele>
        <time>2022-08-01T09:16:16.753Z</time>
      </trkpt>
      <trkpt lat="46.35726" lon="6.69017">
        <ele>1043.804273</ele>
        <time>2022-08-01T09:16:23.751Z</time>
      </trkpt>
      <trkpt lat="46.35734" lon="6.69027">
        <ele>1044.073496</ele>
        <time>2022-08-01T09:16:32.741Z</time>
      </trkpt>
      <trkpt lat="46.35739" lon="6.69038">
        <ele>1044.308243</ele>
        <time>2022-08-01T09:16:40.742Z</time>
      </trkpt>
      <trkpt lat="46.35741" lon="6.69051">
        <ele>1044.547878</ele>
        <time>2022-08-01T09:16:48.750Z</time>
      </trkpt>
      <trkpt lat="46.35745" lon="6.69063">
        <ele>1044.789161</ele>
        <time>2022-08-01T09:16:55.753Z</time>
      </trkpt>
      <trkpt lat="46.35749" lon="6.69076">
        <ele>1045.043406</ele>
        <time>2022-08-01T09:17:02.750Z</time>
      </trkpt>
      <trkpt lat="46.3575" lon="6.69091">
        <ele>1045.306384</ele>
        <time>2022-08-01T09:17:10.752Z</time>
      </trkpt>
      <trkpt lat="46.35752" lon="6.69104">
        <ele>1045.547313</ele>
        <time>2022-08-01T09:17:18.761Z</time>
      </trkpt>
      <trkpt lat="46.35753" lon="6.69118">
        <ele>1045.792912</ele>
        <time>2022-08-01T09:17:25.733Z</time>
      </trkpt>
      <trkpt lat="46.35752" lon="6.69132">
        <ele>1046.054034</ele>
        <time>2022-08-01T09:17:33.753Z</time>
      </trkpt>
      <trkpt lat="46.35751" lon="6.69147">
        <ele>1046.316531</ele>
        <time>2022-08-01T09:17:41.756Z</time>
      </trkpt>
      <trkpt lat="46.3575" lon="6.6916">
        <ele>1046.555985</ele>
        <time>2022-08-01T09:17:49.737Z</time>
      </trkpt>
      <trkpt lat="46.35753" lon="6.69173">
        <ele>1046.797024</ele>
        <time>2022-08-01T09:17:56.762Z</time>
      </trkpt>
      <trkpt lat="46.35759" lon="6.69183">
        <ele>1047.042159</ele>
        <time>2022-08-01T09:18:10.749Z</time>
      </trkpt>
      <trkpt lat="46.35769" lon="6.69183">
        <ele>1047.294475</ele>
        <time>2022-08-01T09:18:20.745Z</time>
      </trkpt>
      <trkpt lat="46.35779" lon="6.69182">
        <ele>1047.55735</ele>
        <time>2022-08-01T09:18:29.751Z</time>
      </trkpt>
      <trkpt lat="46.35788" lon="6.69187">
        <ele>1047.826228</ele>
        <time>2022-08-01T09:18:36.760Z</time>
      </trkpt>
      <trkpt lat="46.35796" lon="6.69196">
        <ele>1048.1537</ele>
        <time>2022-08-01T09:18:44.745Z</time>
      </trkpt>
      <trkpt lat="46.35799" lon="6.69208">
        <ele>1048.448091</ele>
        <time>2022-08-01T09:19:08.740Z</time>
      </trkpt>
      <trkpt lat="46.35794" lon="6.6922">
        <ele>1048.758651</ele>
        <time>2022-08-01T09:19:23.750Z</time>
      </trkpt>
      <trkpt lat="46.35784" lon="6.69222">
        <ele>1049.060632</ele>
        <time>2022-08-01T09:19:29.735Z</time>
      </trkpt>
      <trkpt lat="46.35775" lon="6.69223">
        <ele>1049.359853</ele>
        <time>2022-08-01T09:19:35.753Z</time>
      </trkpt>
      <trkpt lat="46.35766" lon="6.69225">
        <ele>1049.663967</ele>
        <time>2022-08-01T09:19:44.738Z</time>
      </trkpt>
      <trkpt lat="46.35757" lon="6.69232">
        <ele>1049.974122</ele>
        <time>2022-08-01T09:19:52.741Z</time>
      </trkpt>
      <trkpt lat="46.3575" lon="6.69241">
        <ele>1050.281283</ele>
        <time>2022-08-01T09:20:01.749Z</time>
      </trkpt>
      <trkpt lat="46.35748" lon="6.69254">
        <ele>1050.575088</ele>
        <time>2022-08-01T09:20:09.734Z</time>
      </trkpt>
      <trkpt lat="46.35748" lon="6.69267">
        <ele>1050.869781</ele>
        <time>2022-08-01T09:20:17.775Z</time>
      </trkpt>
      <trkpt lat="46.35743" lon="6.69278">
        <ele>1051.17663</ele>
        <time>2022-08-01T09:20:29.761Z</time>
      </trkpt>
      <trkpt lat="46.35734" lon="6.69283">
        <ele>1051.489217</ele>
        <time>2022-08-01T09:20:38.742Z</time>
      </trkpt>
      <trkpt lat="46.35729" lon="6.69296">
        <ele>1051.807633</ele>
        <time>2022-08-01T09:20:47.746Z</time>
      </trkpt>
      <trkpt lat="46.35723" lon="6.69305">
        <ele>1052.100143</ele>
        <time>2022-08-01T09:20:55.756Z</time>
      </trkpt>
      <trkpt lat="46.35717" lon="6.69316">
        <ele>1052.408891</ele>
        <time>2022-08-01T09:21:00.753Z</time>
      </trkpt>
      <trkpt lat="46.35715" lon="6.69329">
        <ele>1052.71065</ele>
        <time>2022-08-01T09:21:08.749Z</time>
      </trkpt>
      <trkpt lat="46.35716" lon="6.69342">
        <ele>1053.001684</ele>
        <time>2022-08-01T09:21:20.757Z</time>
      </trkpt>
      <trkpt lat="46.35713" lon="6.69356">
        <ele>1053.328344</ele>
        <time>2022-08-01T09:21:38.735Z</time>
      </trkpt>
      <trkpt lat="46.35709" lon="6.6937">
        <ele>1053.813966</ele>
        <time>2022-08-01T09:21:46.755Z</time>
      </trkpt>
      <trkpt lat="46.35708" lon="6.69384">
        <ele>1054.477258</ele>
        <time>2022-08-01T09:21:54.766Z</time>
      </trkpt>
      <trkpt lat="46.35706" lon="6.69397">
        <ele>1055.108167</ele>
        <time>2022-08-01T09:22:02.761Z</time>
      </trkpt>
      <trkpt lat="46.35703" lon="6.69412">
        <ele>1055.805943</ele>
        <time>2022-08-01T09:22:11.738Z</time>
      </trkpt>
      <trkpt lat="46.35704" lon="6.69425">
        <ele>1056.448332</ele>
        <time>2022-08-01T09:22:18.770Z</time>
      </trkpt>
      <trkpt lat="46.35706" lon="6.69438">
        <ele>1057.072719</ele>
        <time>2022-08-01T09:22:25.757Z</time>
      </trkpt>
      <trkpt lat="46.35708" lon="6.69452">
        <ele>1057.734528</ele>
        <time>2022-08-01T09:22:33.747Z</time>
      </trkpt>
      <trkpt lat="46.35709" lon="6.69465">
        <ele>1058.347887</ele>
        <time>2022-08-01T09:22:40.746Z</time>
      </trkpt>
      <trkpt lat="46.35708" lon="6.69479">
        <ele>1058.979663</ele>
        <time>2022-08-01T09:22:48.755Z</time>
      </trkpt>
      <trkpt lat="46.35707" lon="6.69492">
        <ele>1059.631429</ele>
        <time>2022-08-01T09:22:55.743Z</time>
      </trkpt>
      <trkpt lat="46.3571" lon="6.69505">
        <ele>1060.261861</ele>
        <time>2022-08-01T09:23:03.752Z</time>
      </trkpt>
      <trkpt lat="46.35714" lon="6.69518">
        <ele>1060.891375</ele>
        <time>2022-08-01T09:23:11.751Z</time>
      </trkpt>
      <trkpt lat="46.3572" lon="6.6953">
        <ele>1061.588595</ele>
        <time>2022-08-01T09:23:19.754Z</time>
      </trkpt>
      <trkpt lat="46.35727" lon="6.6954">
        <ele>1062.286571</ele>
        <time>2022-08-01T09:23:26.784Z</time>
      </trkpt>
      <trkpt lat="46.35735" lon="6.69547">
        <ele>1062.920236</ele>
        <time>2022-08-01T09:23:34.798Z</time>
      </trkpt>
      <trkpt lat="46.35739" lon="6.6956">
        <ele>1063.584125</ele>
        <time>2022-08-01T09:23:42.801Z</time>
      </trkpt>
      <trkpt lat="46.35743" lon="6.69573">
        <ele>1064.255819</ele>
        <time>2022-08-01T09:23:51.751Z</time>
      </trkpt>
      <trkpt lat="46.35749" lon="6.69584">
        <ele>1064.896187</ele>
        <time>2022-08-01T09:24:00.840Z</time>
      </trkpt>
      <trkpt lat="46.35754" lon="6.69597">
        <ele>1065.573766</ele>
        <time>2022-08-01T09:24:09.818Z</time>
      </trkpt>
      <trkpt lat="46.35761" lon="6.69606">
        <ele>1066.181053</ele>
        <time>2022-08-01T09:24:18.811Z</time>
      </trkpt>
      <trkpt lat="46.35767" lon="6.69614">
        <ele>1066.782461</ele>
        <time>2022-08-01T09:24:28.804Z</time>
      </trkpt>
      <trkpt lat="46.35773" lon="6.69625">
        <ele>1067.414726</ele>
        <time>2022-08-01T09:24:36.761Z</time>
      </trkpt>
      <trkpt lat="46.35776" lon="6.69639">
        <ele>1068.075888</ele>
        <time>2022-08-01T09:24:45.755Z</time>
      </trkpt>
      <trkpt lat="46.35777" lon="6.69654">
        <ele>1068.734206</ele>
        <time>2022-08-01T09:24:54.822Z</time>
      </trkpt>
      <trkpt lat="46.35779" lon="6.69667">
        <ele>1069.344662</ele>
        <time>2022-08-01T09:25:02.824Z</time>
      </trkpt>
      <trkpt lat="46.3578" lon="6.6968">
        <ele>1069.940484</ele>
        <time>2022-08-01T09:25:11.814Z</time>
      </trkpt>
      <trkpt lat="46.35781" lon="6.69694">
        <ele>1070.573272</ele>
        <time>2022-08-01T09:25:20.805Z</time>
      </trkpt>
      <trkpt lat="46.3578" lon="6.69707">
        <ele>1071.175819</ele>
        <time>2022-08-01T09:25:27.814Z</time>
      </trkpt>
      <trkpt lat="46.35781" lon="6.69721">
        <ele>1071.838105</ele>
        <time>2022-08-01T09:25:36.797Z</time>
      </trkpt>
      <trkpt lat="46.35782" lon="6.69734">
        <ele>1072.437845</ele>
        <time>2022-08-01T09:25:43.775Z</time>
      </trkpt>
      <trkpt lat="46.35783" lon="6.69748">
        <ele>1073.049533</ele>
        <time>2022-08-01T09:25:52.814Z</time>
      </trkpt>
      <trkpt lat="46.35782" lon="6.69761">
        <ele>1073.664928</ele>
        <time>2022-08-01T09:26:01.833Z</time>
      </trkpt>
      <trkpt lat="46.35784" lon="6.69775">
        <ele>1074.299232</ele>
        <time>2022-08-01T09:26:09.792Z</time>
      </trkpt>
      <trkpt lat="46.35783" lon="6.6979">
        <ele>1074.996998</ele>
        <time>2022-08-01T09:26:19.802Z</time>
      </trkpt>
      <trkpt lat="46.35784" lon="6.69804">
        <ele>1075.616181</ele>
        <time>2022-08-01T09:26:26.809Z</time>
      </trkpt>
      <trkpt lat="46.35786" lon="6.69817">
        <ele>1076.226253</ele>
        <time>2022-08-01T09:26:34.795Z</time>
      </trkpt>
      <trkpt lat="46.35787" lon="6.69831">
        <ele>1076.866886</ele>
        <time>2022-08-01T09:26:43.803Z</time>
      </trkpt>
      <trkpt lat="46.35791" lon="6.69844">
        <ele>1077.542379</ele>
        <time>2022-08-01T09:26:52.796Z</time>
      </trkpt>
      <trkpt lat="46.35793" lon="6.69859">
        <ele>1078.55918</ele>
        <time>2022-08-01T09:26:59.799Z</time>
      </trkpt>
      <trkpt lat="46.35795" lon="6.69873">
        <ele>1079.598923</ele>
        <time>2022-08-01T09:27:09.807Z</time>
      </trkpt>
      <trkpt lat="46.35799" lon="6.69887">
        <ele>1080.60989</ele>
        <time>2022-08-01T09:27:17.766Z</time>
      </trkpt>
      <trkpt lat="46.35802" lon="6.699">
        <ele>1081.58188</ele>
        <time>2022-08-01T09:27:26.799Z</time>
      </trkpt>
      <trkpt lat="46.35801" lon="6.69914">
        <ele>1082.56734</ele>
        <time>2022-08-01T09:27:33.793Z</time>
      </trkpt>
      <trkpt lat="46.35801" lon="6.69928">
        <ele>1083.545757</ele>
        <time>2022-08-01T09:27:40.811Z</time>
      </trkpt>
      <trkpt lat="46.358" lon="6.69942">
        <ele>1084.567141</ele>
        <time>2022-08-01T09:27:49.827Z</time>
      </trkpt>
      <trkpt lat="46.35797" lon="6.69955">
        <ele>1085.502095</ele>
        <time>2022-08-01T09:27:57.832Z</time>
      </trkpt>
      <trkpt lat="46.35797" lon="6.69969">
        <ele>1086.466071</ele>
        <time>2022-08-01T09:28:06.822Z</time>
      </trkpt>
      <trkpt lat="46.358" lon="6.69983">
        <ele>1087.473677</ele>
        <time>2022-08-01T09:28:12.841Z</time>
      </trkpt>
      <trkpt lat="46.358" lon="6.69997">
        <ele>1088.461154</ele>
        <time>2022-08-01T09:28:18.811Z</time>
      </trkpt>
      <trkpt lat="46.35801" lon="6.70011">
        <ele>1089.466242</ele>
        <time>2022-08-01T09:28:30.800Z</time>
      </trkpt>
      <trkpt lat="46.35803" lon="6.70025">
        <ele>1090.442363</ele>
        <time>2022-08-01T09:28:41.825Z</time>
      </trkpt>
      <trkpt lat="46.35805" lon="6.7004">
        <ele>1091.51965</ele>
        <time>2022-08-01T09:28:47.816Z</time>
      </trkpt>
      <trkpt lat="46.35811" lon="6.70051">
        <ele>1092.468497</ele>
        <time>2022-08-01T09:28:59.787Z</time>
      </trkpt>
      <trkpt lat="46.35812" lon="6.70065">
        <ele>1093.42408</ele>
        <time>2022-08-01T09:29:09.795Z</time>
      </trkpt>
      <trkpt lat="46.35818" lon="6.70077">
        <ele>1094.413396</ele>
        <time>2022-08-01T09:29:17.794Z</time>
      </trkpt>
      <trkpt lat="46.35822" lon="6.70089">
        <ele>1095.371641</ele>
        <time>2022-08-01T09:29:27.822Z</time>
      </trkpt>
      <trkpt lat="46.35824" lon="6.70102">
        <ele>1096.349654</ele>
        <time>2022-08-01T09:29:37.794Z</time>
      </trkpt>
      <trkpt lat="46.35826" lon="6.70115">
        <ele>1097.376433</ele>
        <time>2022-08-01T09:29:44.816Z</time>
      </trkpt>
      <trkpt lat="46.35829" lon="6.70128">
        <ele>1098.440203</ele>
        <time>2022-08-01T09:29:52.806Z</time>
      </trkpt>
      <trkpt lat="46.35832" lon="6.7014">
        <ele>1099.472659</ele>
        <time>2022-08-01T09:30:01.768Z</time>
      </trkpt>
      <trkpt lat="46.35834" lon="6.70155">
        <ele>1100.623586</ele>
        <time>2022-08-01T09:30:12.806Z</time>
      </trkpt>
      <trkpt lat="46.35836" lon="6.70168">
        <ele>1101.649603</ele>
        <time>2022-08-01T09:30:22.826Z</time>
      </trkpt>
      <trkpt lat="46.35839" lon="6.7018">
        <ele>1102.69128</ele>
        <time>2022-08-01T09:30:31.827Z</time>
      </trkpt>
      <trkpt lat="46.35845" lon="6.70191">
        <ele>1103.765136</ele>
        <time>2022-08-01T09:30:41.809Z</time>
      </trkpt>
      <trkpt lat="46.35851" lon="6.70203">
        <ele>1104.921164</ele>
        <time>2022-08-01T09:30:50.796Z</time>
      </trkpt>
      <trkpt lat="46.35856" lon="6.70215">
        <ele>1105.955154</ele>
        <time>2022-08-01T09:30:59.807Z</time>
      </trkpt>
      <trkpt lat="46.35862" lon="6.70225">
        <ele>1107.026181</ele>
        <time>2022-08-01T09:31:08.801Z</time>
      </trkpt>
      <trkpt lat="46.35864" lon="6.7024">
        <ele>1108.221079</ele>
        <time>2022-08-01T09:31:18.810Z</time>
      </trkpt>
      <trkpt lat="46.3587" lon="6.70251">
        <ele>1109.238613</ele>
        <time>2022-08-01T09:31:26.817Z</time>
      </trkpt>
      <trkpt lat="46.35878" lon="6.70257">
        <ele>1110.258198</ele>
        <time>2022-08-01T09:31:34.775Z</time>
      </trkpt>
      <trkpt lat="46.35874" lon="6.7027">
        <ele>1111.311277</ele>
        <time>2022-08-01T09:31:47.733Z</time>
      </trkpt>
      <trkpt lat="46.35875" lon="6.70283">
        <ele>1112.344466</ele>
        <time>2022-08-01T09:31:55.807Z</time>
      </trkpt>
      <trkpt lat="46.35876" lon="6.70298">
        <ele>1113.503405</ele>
        <time>2022-08-01T09:32:03.811Z</time>
      </trkpt>
      <trkpt lat="46.35877" lon="6.70311">
        <ele>1114.54624</ele>
        <time>2022-08-01T09:32:11.809Z</time>
      </trkpt>
      <trkpt lat="46.35881" lon="6.70324">
        <ele>1115.62494</ele>
        <time>2022-08-01T09:32:20.798Z</time>
      </trkpt>
      <trkpt lat="46.35883" lon="6.70337">
        <ele>1116.559611</ele>
        <time>2022-08-01T09:32:33.804Z</time>
      </trkpt>
      <trkpt lat="46.35887" lon="6.70349">
        <ele>1117.474722</ele>
        <time>2022-08-01T09:32:42.758Z</time>
      </trkpt>
      <trkpt lat="46.35891" lon="6.70361">
        <ele>1118.370271</ele>
        <time>2022-08-01T09:32:50.806Z</time>
      </trkpt>
      <trkpt lat="46.35898" lon="6.70371">
        <ele>1119.361045</ele>
        <time>2022-08-01T09:33:00.785Z</time>
      </trkpt>
      <trkpt lat="46.35905" lon="6.70379">
        <ele>1120.251019</ele>
        <time>2022-08-01T09:33:08.795Z</time>
      </trkpt>
      <trkpt lat="46.35913" lon="6.70389">
        <ele>1121.267768</ele>
        <time>2022-08-01T09:33:17.798Z</time>
      </trkpt>
      <trkpt lat="46.3592" lon="6.70398">
        <ele>1122.157741</ele>
        <time>2022-08-01T09:33:24.809Z</time>
      </trkpt>
      <trkpt lat="46.35926" lon="6.70408">
        <ele>1123.093936</ele>
        <time>2022-08-01T09:33:32.799Z</time>
      </trkpt>
      <trkpt lat="46.35931" lon="6.7042">
        <ele>1124.061383</ele>
        <time>2022-08-01T09:33:39.818Z</time>
      </trkpt>
      <trkpt lat="46.35937" lon="6.70432">
        <ele>1125.022821</ele>
        <time>2022-08-01T09:33:48.832Z</time>
      </trkpt>
      <trkpt lat="46.35943" lon="6.70444">
        <ele>1126.030527</ele>
        <time>2022-08-01T09:33:56.788Z</time>
      </trkpt>
      <trkpt lat="46.3595" lon="6.70452">
        <ele>1126.922991</ele>
        <time>2022-08-01T09:34:04.834Z</time>
      </trkpt>
      <trkpt lat="46.35954" lon="6.70465">
        <ele>1127.918444</ele>
        <time>2022-08-01T09:34:12.796Z</time>
      </trkpt>
      <trkpt lat="46.35959" lon="6.70476">
        <ele>1128.8128</ele>
        <time>2022-08-01T09:34:20.804Z</time>
      </trkpt>
      <trkpt lat="46.35963" lon="6.70489">
        <ele>1129.747016</ele>
        <time>2022-08-01T09:34:29.795Z</time>
      </trkpt>
      <trkpt lat="46.35967" lon="6.70502">
        <ele>1130.705255</ele>
        <time>2022-08-01T09:34:38.805Z</time>
      </trkpt>
      <trkpt lat="46.35967" lon="6.70516">
        <ele>1131.655922</ele>
        <time>2022-08-01T09:34:46.831Z</time>
      </trkpt>
      <trkpt lat="46.35971" lon="6.70528">
        <ele>1132.601859</ele>
        <time>2022-08-01T09:34:56.771Z</time>
      </trkpt>
      <trkpt lat="46.35979" lon="6.70537">
        <ele>1133.558088</ele>
        <time>2022-08-01T09:35:04.810Z</time>
      </trkpt>
      <trkpt lat="46.35983" lon="6.70548">
        <ele>1134.608971</ele>
        <time>2022-08-01T09:35:13.819Z</time>
      </trkpt>
      <trkpt lat="46.35987" lon="6.70561">
        <ele>1135.68569</ele>
        <time>2022-08-01T09:35:22.797Z</time>
      </trkpt>
      <trkpt lat="46.3599" lon="6.70575">
        <ele>1136.790983</ele>
        <time>2022-08-01T09:35:31.807Z</time>
      </trkpt>
      <trkpt lat="46.35993" lon="6.70588">
        <ele>1137.914673</ele>
        <time>2022-08-01T09:35:41.798Z</time>
      </trkpt>
      <trkpt lat="46.36" lon="6.70598">
        <ele>1138.967799</ele>
        <time>2022-08-01T09:35:48.793Z</time>
      </trkpt>
      <trkpt lat="46.36006" lon="6.70609">
        <ele>1140.083587</ele>
        <time>2022-08-01T09:35:55.821Z</time>
      </trkpt>
      <trkpt lat="46.36009" lon="6.70621">
        <ele>1141.104258</ele>
        <time>2022-08-01T09:36:03.808Z</time>
      </trkpt>
      <trkpt lat="46.36009" lon="6.70636">
        <ele>1142.215674</ele>
        <time>2022-08-01T09:36:13.791Z</time>
      </trkpt>
      <trkpt lat="46.36013" lon="6.70649">
        <ele>1143.390315</ele>
        <time>2022-08-01T09:36:22.832Z</time>
      </trkpt>
      <trkpt lat="46.36018" lon="6.70662">
        <ele>1144.500978</ele>
        <time>2022-08-01T09:36:32.827Z</time>
      </trkpt>
      <trkpt lat="46.36024" lon="6.70673">
        <ele>1145.589784</ele>
        <time>2022-08-01T09:36:42.792Z</time>
      </trkpt>
      <trkpt lat="46.36028" lon="6.70685">
        <ele>1146.665127</ele>
        <time>2022-08-01T09:36:51.815Z</time>
      </trkpt>
      <trkpt lat="46.36028" lon="6.70698">
        <ele>1147.685805</ele>
        <time>2022-08-01T09:36:59.799Z</time>
      </trkpt>
      <trkpt lat="46.3603" lon="6.70711">
        <ele>1148.735038</ele>
        <time>2022-08-01T09:37:07.815Z</time>
      </trkpt>
      <trkpt lat="46.36034" lon="6.70725">
        <ele>1149.862428</ele>
        <time>2022-08-01T09:37:16.793Z</time>
      </trkpt>
      <trkpt lat="46.36035" lon="6.70738">
        <ele>1150.925921</ele>
        <time>2022-08-01T09:37:25.815Z</time>
      </trkpt>
      <trkpt lat="46.3604" lon="6.70751">
        <ele>1152.028471</ele>
        <time>2022-08-01T09:37:34.759Z</time>
      </trkpt>
      <trkpt lat="46.36045" lon="6.70762">
        <ele>1153.065074</ele>
        <time>2022-08-01T09:37:42.770Z</time>
      </trkpt>
      <trkpt lat="46.3605" lon="6.70774">
        <ele>1154.151553</ele>
        <time>2022-08-01T09:37:49.793Z</time>
      </trkpt>
      <trkpt lat="46.36053" lon="6.70787">
        <ele>1155.569753</ele>
        <time>2022-08-01T09:37:58.819Z</time>
      </trkpt>
      <trkpt lat="46.36058" lon="6.70797">
        <ele>1156.943213</ele>
        <time>2022-08-01T09:38:06.787Z</time>
      </trkpt>
      <trkpt lat="46.36056" lon="6.7081">
        <ele>1158.27969</ele>
        <time>2022-08-01T09:38:15.795Z</time>
      </trkpt>
      <trkpt lat="46.36057" lon="6.70824">
        <ele>1159.695915</ele>
        <time>2022-08-01T09:38:25.763Z</time>
      </trkpt>
      <trkpt lat="46.36056" lon="6.70837">
        <ele>1161.036323</ele>
        <time>2022-08-01T09:38:35.828Z</time>
      </trkpt>
      <trkpt lat="46.36061" lon="6.70848">
        <ele>1162.419725</ele>
        <time>2022-08-01T09:38:44.811Z</time>
      </trkpt>
      <trkpt lat="46.3606" lon="6.70862">
        <ele>1163.889263</ele>
        <time>2022-08-01T09:38:55.802Z</time>
      </trkpt>
      <trkpt lat="46.3606" lon="6.70876">
        <ele>1165.313563</ele>
        <time>2022-08-01T09:39:06.813Z</time>
      </trkpt>
      <trkpt lat="46.36055" lon="6.70887">
        <ele>1166.71406</ele>
        <time>2022-08-01T09:39:15.801Z</time>
      </trkpt>
      <trkpt lat="46.3605" lon="6.70898">
        <ele>1168.075801</ele>
        <time>2022-08-01T09:39:26.835Z</time>
      </trkpt>
      <trkpt lat="46.36044" lon="6.70909">
        <ele>1169.501731</ele>
        <time>2022-08-01T09:39:35.819Z</time>
      </trkpt>
      <trkpt lat="46.36047" lon="6.70922">
        <ele>1170.890492</ele>
        <time>2022-08-01T09:39:45.794Z</time>
      </trkpt>
      <trkpt lat="46.36053" lon="6.70934">
        <ele>1172.350958</ele>
        <time>2022-08-01T09:39:56.820Z</time>
      </trkpt>
      <trkpt lat="46.36056" lon="6.70946">
        <ele>1173.689832</ele>
        <time>2022-08-01T09:40:05.805Z</time>
      </trkpt>
      <trkpt lat="46.36054" lon="6.7096">
        <ele>1175.173667</ele>
        <time>2022-08-01T09:40:15.807Z</time>
      </trkpt>
      <trkpt lat="46.36055" lon="6.70975">
        <ele>1176.660629</ele>
        <time>2022-08-01T09:40:26.810Z</time>
      </trkpt>
      <trkpt lat="46.36058" lon="6.70988">
        <ele>1178.106636</ele>
        <time>2022-08-01T09:40:36.826Z</time>
      </trkpt>
      <trkpt lat="46.36065" lon="6.70997">
        <ele>1179.491947</ele>
        <time>2022-08-01T09:40:45.819Z</time>
      </trkpt>
      <trkpt lat="46.36072" lon="6.71005">
        <ele>1180.833605</ele>
        <time>2022-08-01T09:40:54.786Z</time>
      </trkpt>
      <trkpt lat="46.36076" lon="6.71018">
        <ele>1181.846175</ele>
        <time>2022-08-01T09:41:06.789Z</time>
      </trkpt>
      <trkpt lat="46.36077" lon="6.71032">
        <ele>1182.793301</ele>
        <time>2022-08-01T09:41:17.816Z</time>
      </trkpt>
      <trkpt lat="46.36077" lon="6.71046">
        <ele>1183.746598</ele>
        <time>2022-08-01T09:41:27.777Z</time>
      </trkpt>
      <trkpt lat="46.36081" lon="6.71058">
        <ele>1184.691967</ele>
        <time>2022-08-01T09:41:37.802Z</time>
      </trkpt>
      <trkpt lat="46.36087" lon="6.71069">
        <ele>1185.600416</ele>
        <time>2022-08-01T09:41:45.735Z</time>
      </trkpt>
      <trkpt lat="46.36093" lon="6.7108">
        <ele>1186.597118</ele>
        <time>2022-08-01T09:41:54.809Z</time>
      </trkpt>
      <trkpt lat="46.36099" lon="6.71091">
        <ele>1187.529542</ele>
        <time>2022-08-01T09:42:02.751Z</time>
      </trkpt>
      <trkpt lat="46.36106" lon="6.711">
        <ele>1188.457994</ele>
        <time>2022-08-01T09:42:12.742Z</time>
      </trkpt>
      <trkpt lat="46.36107" lon="6.71114">
        <ele>1189.372615</ele>
        <time>2022-08-01T09:42:22.737Z</time>
      </trkpt>
      <trkpt lat="46.36113" lon="6.71125">
        <ele>1190.369315</ele>
        <time>2022-08-01T09:42:30.760Z</time>
      </trkpt>
      <trkpt lat="46.36119" lon="6.71135">
        <ele>1191.256542</ele>
        <time>2022-08-01T09:42:37.795Z</time>
      </trkpt>
      <trkpt lat="46.36123" lon="6.71147">
        <ele>1192.160999</ele>
        <time>2022-08-01T09:42:44.809Z</time>
      </trkpt>
      <trkpt lat="46.36129" lon="6.71159">
        <ele>1193.18859</ele>
        <time>2022-08-01T09:42:52.797Z</time>
      </trkpt>
      <trkpt lat="46.36135" lon="6.71169">
        <ele>1194.099982</ele>
        <time>2022-08-01T09:43:00.779Z</time>
      </trkpt>
      <trkpt lat="46.36141" lon="6.71181">
        <ele>1195.040283</ele>
        <time>2022-08-01T09:43:12.785Z</time>
      </trkpt>
      <trkpt lat="46.36145" lon="6.71192">
        <ele>1195.943133</ele>
        <time>2022-08-01T09:43:20.786Z</time>
      </trkpt>
      <trkpt lat="46.36149" lon="6.71205">
        <ele>1196.871961</ele>
        <time>2022-08-01T09:43:32.806Z</time>
      </trkpt>
      <trkpt lat="46.36154" lon="6.71216">
        <ele>1197.817828</ele>
        <time>2022-08-01T09:43:46.799Z</time>
      </trkpt>
      <trkpt lat="46.36162" lon="6.71223">
        <ele>1198.75752</ele>
        <time>2022-08-01T09:43:58.804Z</time>
      </trkpt>
      <trkpt lat="46.3617" lon="6.71231">
        <ele>1199.95111</ele>
        <time>2022-08-01T09:44:08.785Z</time>
      </trkpt>
      <trkpt lat="46.36176" lon="6.7124">
        <ele>1201.125789</ele>
        <time>2022-08-01T09:44:20.796Z</time>
      </trkpt>
      <trkpt lat="46.36184" lon="6.71249">
        <ele>1202.31748</ele>
        <time>2022-08-01T09:44:29.756Z</time>
      </trkpt>
      <trkpt lat="46.36191" lon="6.71256">
        <ele>1203.472241</ele>
        <time>2022-08-01T09:44:37.824Z</time>
      </trkpt>
      <trkpt lat="46.36199" lon="6.71264">
        <ele>1204.644982</ele>
        <time>2022-08-01T09:44:45.786Z</time>
      </trkpt>
      <trkpt lat="46.36203" lon="6.71276">
        <ele>1205.812961</ele>
        <time>2022-08-01T09:44:53.792Z</time>
      </trkpt>
      <trkpt lat="46.36208" lon="6.71287">
        <ele>1206.968975</ele>
        <time>2022-08-01T09:45:01.757Z</time>
      </trkpt>
      <trkpt lat="46.36205" lon="6.71299">
        <ele>1208.114201</ele>
        <time>2022-08-01T09:45:09.806Z</time>
      </trkpt>
      <trkpt lat="46.36203" lon="6.71313">
        <ele>1209.341768</ele>
        <time>2022-08-01T09:45:18.810Z</time>
      </trkpt>
      <trkpt lat="46.36203" lon="6.71326">
        <ele>1210.50618</ele>
        <time>2022-08-01T09:45:27.784Z</time>
      </trkpt>
      <trkpt lat="46.36202" lon="6.71339">
        <ele>1211.688562</ele>
        <time>2022-08-01T09:45:38.776Z</time>
      </trkpt>
      <trkpt lat="46.36205" lon="6.71352">
        <ele>1212.858291</ele>
        <time>2022-08-01T09:45:47.806Z</time>
      </trkpt>
      <trkpt lat="46.36203" lon="6.71366">
        <ele>1214.081343</ele>
        <time>2022-08-01T09:45:55.793Z</time>
      </trkpt>
      <trkpt lat="46.36201" lon="6.71379">
        <ele>1215.260756</ele>
        <time>2022-08-01T09:46:04.793Z</time>
      </trkpt>
      <trkpt lat="46.36206" lon="6.71389">
        <ele>1216.427138</ele>
        <time>2022-08-01T09:46:11.807Z</time>
      </trkpt>
      <trkpt lat="46.36214" lon="6.71396">
        <ele>1217.599152</ele>
        <time>2022-08-01T09:46:21.792Z</time>
      </trkpt>
      <trkpt lat="46.36221" lon="6.71405">
        <ele>1218.852514</ele>
        <time>2022-08-01T09:46:33.776Z</time>
      </trkpt>
      <trkpt lat="46.36222" lon="6.71419">
        <ele>1220.036415</ele>
        <time>2022-08-01T09:46:44.810Z</time>
      </trkpt>
      <trkpt lat="46.36227" lon="6.7143">
        <ele>1221.231831</ele>
        <time>2022-08-01T09:46:57.822Z</time>
      </trkpt>
      <trkpt lat="46.36237" lon="6.71434">
        <ele>1222.579292</ele>
        <time>2022-08-01T09:47:03.817Z</time>
      </trkpt>
      <trkpt lat="46.36244" lon="6.71442">
        <ele>1223.933343</ele>
        <time>2022-08-01T09:47:10.787Z</time>
      </trkpt>
      <trkpt lat="46.36251" lon="6.71451">
        <ele>1225.39626</ele>
        <time>2022-08-01T09:47:24.812Z</time>
      </trkpt>
      <trkpt lat="46.3626" lon="6.7146">
        <ele>1226.912264</ele>
        <time>2022-08-01T09:47:34.816Z</time>
      </trkpt>
      <trkpt lat="46.36268" lon="6.71468">
        <ele>1228.436956</ele>
        <time>2022-08-01T09:47:47.813Z</time>
      </trkpt>
      <trkpt lat="46.36276" lon="6.71475">
        <ele>1229.791442</ele>
        <time>2022-08-01T09:47:56.791Z</time>
      </trkpt>
      <trkpt lat="46.36285" lon="6.71481">
        <ele>1231.195012</ele>
        <time>2022-08-01T09:48:05.813Z</time>
      </trkpt>
      <trkpt lat="46.36287" lon="6.71495">
        <ele>1232.621958</ele>
        <time>2022-08-01T09:48:20.791Z</time>
      </trkpt>
      <trkpt lat="46.36293" lon="6.71505">
        <ele>1234.054769</ele>
        <time>2022-08-01T09:48:29.797Z</time>
      </trkpt>
      <trkpt lat="46.36302" lon="6.71511">
        <ele>1235.471613</ele>
        <time>2022-08-01T09:48:37.792Z</time>
      </trkpt>
      <trkpt lat="46.36312" lon="6.71516">
        <ele>1237.099571</ele>
        <time>2022-08-01T09:48:47.830Z</time>
      </trkpt>
      <trkpt lat="46.36322" lon="6.71519">
        <ele>1238.528313</ele>
        <time>2022-08-01T09:48:56.808Z</time>
      </trkpt>
      <trkpt lat="46.36328" lon="6.71528">
        <ele>1239.859539</ele>
        <time>2022-08-01T09:49:06.803Z</time>
      </trkpt>
      <trkpt lat="46.36335" lon="6.71537">
        <ele>1241.196924</ele>
        <time>2022-08-01T09:49:13.791Z</time>
      </trkpt>
      <trkpt lat="46.36345" lon="6.71541">
        <ele>1242.746268</ele>
        <time>2022-08-01T09:49:23.794Z</time>
      </trkpt>
      <trkpt lat="46.36351" lon="6.71551">
        <ele>1244.099407</ele>
        <time>2022-08-01T09:49:33.790Z</time>
      </trkpt>
      <trkpt lat="46.36356" lon="6.71562">
        <ele>1245.478164</ele>
        <time>2022-08-01T09:49:43.790Z</time>
      </trkpt>
      <trkpt lat="46.36363" lon="6.71571">
        <ele>1246.843988</ele>
        <time>2022-08-01T09:49:54.803Z</time>
      </trkpt>
      <trkpt lat="46.36368" lon="6.71583">
        <ele>1248.305564</ele>
        <time>2022-08-01T09:50:06.790Z</time>
      </trkpt>
      <trkpt lat="46.36369" lon="6.71596">
        <ele>1250.065221</ele>
        <time>2022-08-01T09:50:20.829Z</time>
      </trkpt>
      <trkpt lat="46.36376" lon="6.71607">
        <ele>1251.977402</ele>
        <time>2022-08-01T09:50:32.817Z</time>
      </trkpt>
      <trkpt lat="46.36381" lon="6.71619">
        <ele>1253.850987</ele>
        <time>2022-08-01T09:50:43.806Z</time>
      </trkpt>
      <trkpt lat="46.36388" lon="6.71629">
        <ele>1255.75672</ele>
        <time>2022-08-01T09:50:53.814Z</time>
      </trkpt>
      <trkpt lat="46.36395" lon="6.71639">
        <ele>1257.624202</ele>
        <time>2022-08-01T09:51:02.807Z</time>
      </trkpt>
      <trkpt lat="46.364" lon="6.71653">
        <ele>1259.628646</ele>
        <time>2022-08-01T09:51:14.809Z</time>
      </trkpt>
      <trkpt lat="46.36397" lon="6.71666">
        <ele>1261.463422</ele>
        <time>2022-08-01T09:51:30.795Z</time>
      </trkpt>
      <trkpt lat="46.3639" lon="6.71676">
        <ele>1263.35786</ele>
        <time>2022-08-01T09:51:38.803Z</time>
      </trkpt>
      <trkpt lat="46.36384" lon="6.71685">
        <ele>1265.104511</ele>
        <time>2022-08-01T09:51:51.819Z</time>
      </trkpt>
      <trkpt lat="46.36382" lon="6.71699">
        <ele>1266.936699</ele>
        <time>2022-08-01T09:52:01.796Z</time>
      </trkpt>
      <trkpt lat="46.36394" lon="6.71713">
        <ele>1269.981042</ele>
        <time>2022-08-01T09:57:15.824Z</time>
      </trkpt>
      <trkpt lat="46.36402" lon="6.7172">
        <ele>1271.763862</ele>
        <time>2022-08-01T09:57:26.808Z</time>
      </trkpt>
      <trkpt lat="46.36409" lon="6.7173">
        <ele>1273.654213</ele>
        <time>2022-08-01T09:57:38.803Z</time>
      </trkpt>
      <trkpt lat="46.36411" lon="6.71743">
        <ele>1275.430341</ele>
        <time>2022-08-01T09:57:48.740Z</time>
      </trkpt>
      <trkpt lat="46.36415" lon="6.71756">
        <ele>1277.233174</ele>
        <time>2022-08-01T09:58:00.797Z</time>
      </trkpt>
      <trkpt lat="46.36419" lon="6.71769">
        <ele>1279.209458</ele>
        <time>2022-08-01T09:58:14.811Z</time>
      </trkpt>
      <trkpt lat="46.36418" lon="6.71783">
        <ele>1280.985467</ele>
        <time>2022-08-01T09:58:26.801Z</time>
      </trkpt>
      <trkpt lat="46.3642" lon="6.71796">
        <ele>1282.723918</ele>
        <time>2022-08-01T09:58:37.823Z</time>
      </trkpt>
      <trkpt lat="46.36415" lon="6.71808">
        <ele>1283.954276</ele>
        <time>2022-08-01T09:58:45.812Z</time>
      </trkpt>
      <trkpt lat="46.36413" lon="6.71822">
        <ele>1285.197612</ele>
        <time>2022-08-01T09:58:58.807Z</time>
      </trkpt>
      <trkpt lat="46.3641" lon="6.71835">
        <ele>1286.448227</ele>
        <time>2022-08-01T09:59:10.762Z</time>
      </trkpt>
      <trkpt lat="46.3641" lon="6.71849">
        <ele>1287.660937</ele>
        <time>2022-08-01T09:59:25.818Z</time>
      </trkpt>
      <trkpt lat="46.36412" lon="6.71863">
        <ele>1288.931008</ele>
        <time>2022-08-01T09:59:37.820Z</time>
      </trkpt>
      <trkpt lat="46.36415" lon="6.71875">
        <ele>1290.074104</ele>
        <time>2022-08-01T09:59:46.814Z</time>
      </trkpt>
      <trkpt lat="46.36422" lon="6.71888">
        <ele>1291.510117</ele>
        <time>2022-08-01T09:59:55.805Z</time>
      </trkpt>
      <trkpt lat="46.36429" lon="6.71898">
        <ele>1292.77706</ele>
        <time>2022-08-01T10:00:03.817Z</time>
      </trkpt>
      <trkpt lat="46.36435" lon="6.7191">
        <ele>1294.056977</ele>
        <time>2022-08-01T10:00:14.825Z</time>
      </trkpt>
      <trkpt lat="46.36432" lon="6.71924">
        <ele>1295.319777</ele>
        <time>2022-08-01T10:00:28.799Z</time>
      </trkpt>
      <trkpt lat="46.3643" lon="6.71937">
        <ele>1296.508932</ele>
        <time>2022-08-01T10:00:36.822Z</time>
      </trkpt>
      <trkpt lat="46.36431" lon="6.7195">
        <ele>1297.67141</ele>
        <time>2022-08-01T10:00:46.805Z</time>
      </trkpt>
      <trkpt lat="46.3644" lon="6.71954">
        <ele>1298.832872</ele>
        <time>2022-08-01T10:00:55.806Z</time>
      </trkpt>
      <trkpt lat="46.36468" lon="6.71964">
        <ele>1302.552268</ele>
        <time>2022-08-01T10:01:43.778Z</time>
      </trkpt>
      <trkpt lat="46.36477" lon="6.71968">
        <ele>1303.734638</ele>
        <time>2022-08-01T10:01:49.792Z</time>
      </trkpt>
      <trkpt lat="46.36486" lon="6.71974">
        <ele>1305.016838</ele>
        <time>2022-08-01T10:01:56.821Z</time>
      </trkpt>
      <trkpt lat="46.36496" lon="6.71978">
        <ele>1306.347057</ele>
        <time>2022-08-01T10:02:04.768Z</time>
      </trkpt>
      <trkpt lat="46.36503" lon="6.71986">
        <ele>1307.674884</ele>
        <time>2022-08-01T10:02:20.800Z</time>
      </trkpt>
      <trkpt lat="46.36509" lon="6.71996">
        <ele>1308.989711</ele>
        <time>2022-08-01T10:02:29.796Z</time>
      </trkpt>
      <trkpt lat="46.3652" lon="6.71998">
        <ele>1310.485684</ele>
        <time>2022-08-01T10:02:32.808Z</time>
      </trkpt>
      <trkpt lat="46.36528" lon="6.72003">
        <ele>1311.848791</ele>
        <time>2022-08-01T10:02:38.791Z</time>
      </trkpt>
      <trkpt lat="46.36537" lon="6.72009">
        <ele>1313.252043</ele>
        <time>2022-08-01T10:02:47.802Z</time>
      </trkpt>
      <trkpt lat="46.36543" lon="6.7202">
        <ele>1314.616045</ele>
        <time>2022-08-01T10:02:55.798Z</time>
      </trkpt>
      <trkpt lat="46.36546" lon="6.72032">
        <ele>1315.939243</ele>
        <time>2022-08-01T10:03:15.804Z</time>
      </trkpt>
      <trkpt lat="46.36552" lon="6.72043">
        <ele>1317.25097</ele>
        <time>2022-08-01T10:03:25.791Z</time>
      </trkpt>
      <trkpt lat="46.36559" lon="6.72052">
        <ele>1318.623019</ele>
        <time>2022-08-01T10:03:47.817Z</time>
      </trkpt>
      <trkpt lat="46.36564" lon="6.72064">
        <ele>1320.062021</ele>
        <time>2022-08-01T10:04:08.800Z</time>
      </trkpt>
      <trkpt lat="46.36574" lon="6.72068">
        <ele>1321.48104</ele>
        <time>2022-08-01T10:04:24.781Z</time>
      </trkpt>
      <trkpt lat="46.36582" lon="6.72071">
        <ele>1322.8127</ele>
        <time>2022-08-01T10:04:37.797Z</time>
      </trkpt>
      <trkpt lat="46.36592" lon="6.72074">
        <ele>1324.189047</ele>
        <time>2022-08-01T10:04:47.811Z</time>
      </trkpt>
      <trkpt lat="46.366" lon="6.72081">
        <ele>1325.550546</ele>
        <time>2022-08-01T10:04:54.819Z</time>
      </trkpt>
      <trkpt lat="46.36607" lon="6.72091">
        <ele>1326.909593</ele>
        <time>2022-08-01T10:05:03.819Z</time>
      </trkpt>
      <trkpt lat="46.36614" lon="6.721">
        <ele>1328.25328</ele>
        <time>2022-08-01T10:05:13.850Z</time>
      </trkpt>
      <trkpt lat="46.36619" lon="6.72111">
        <ele>1329.594645</ele>
        <time>2022-08-01T10:05:22.800Z</time>
      </trkpt>
      <trkpt lat="46.36625" lon="6.72122">
        <ele>1330.962982</ele>
        <time>2022-08-01T10:05:34.799Z</time>
      </trkpt>
      <trkpt lat="46.36632" lon="6.72131">
        <ele>1332.855083</ele>
        <time>2022-08-01T10:05:45.756Z</time>
      </trkpt>
      <trkpt lat="46.36638" lon="6.72141">
        <ele>1335.021059</ele>
        <time>2022-08-01T10:05:57.810Z</time>
      </trkpt>
      <trkpt lat="46.36648" lon="6.72144">
        <ele>1337.320704</ele>
        <time>2022-08-01T10:06:08.794Z</time>
      </trkpt>
      <trkpt lat="46.36656" lon="6.72136">
        <ele>1339.589361</ele>
        <time>2022-08-01T10:06:21.791Z</time>
      </trkpt>
      <trkpt lat="46.36663" lon="6.72127">
        <ele>1341.682104</ele>
        <time>2022-08-01T10:06:32.804Z</time>
      </trkpt>
      <trkpt lat="46.36669" lon="6.72116">
        <ele>1343.819838</ele>
        <time>2022-08-01T10:06:41.794Z</time>
      </trkpt>
      <trkpt lat="46.36678" lon="6.72119">
        <ele>1345.941253</ele>
        <time>2022-08-01T10:06:50.811Z</time>
      </trkpt>
      <trkpt lat="46.36686" lon="6.72124">
        <ele>1348.055249</ele>
        <time>2022-08-01T10:07:02.812Z</time>
      </trkpt>
      <trkpt lat="46.36693" lon="6.72133">
        <ele>1350.175462</ele>
        <time>2022-08-01T10:07:16.803Z</time>
      </trkpt>
      <trkpt lat="46.36701" lon="6.72141">
        <ele>1352.38848</ele>
        <time>2022-08-01T10:07:26.817Z</time>
      </trkpt>
      <trkpt lat="46.36709" lon="6.72148">
        <ele>1354.473162</ele>
        <time>2022-08-01T10:07:39.817Z</time>
      </trkpt>
      <trkpt lat="46.36717" lon="6.72155">
        <ele>1356.628495</ele>
        <time>2022-08-01T10:07:50.792Z</time>
      </trkpt>
      <trkpt lat="46.36722" lon="6.72167">
        <ele>1358.785181</ele>
        <time>2022-08-01T10:08:12.807Z</time>
      </trkpt>
      <trkpt lat="46.36731" lon="6.72169">
        <ele>1361.007961</ele>
        <time>2022-08-01T10:09:51.788Z</time>
      </trkpt>
      <trkpt lat="46.36741" lon="6.72173">
        <ele>1363.168573</ele>
        <time>2022-08-01T10:10:02.814Z</time>
      </trkpt>
      <trkpt lat="46.36749" lon="6.72179">
        <ele>1365.284316</ele>
        <time>2022-08-01T10:10:16.773Z</time>
      </trkpt>
      <trkpt lat="46.36756" lon="6.72187">
        <ele>1367.377629</ele>
        <time>2022-08-01T10:10:30.800Z</time>
      </trkpt>
      <trkpt lat="46.36765" lon="6.72188">
        <ele>1369.523603</ele>
        <time>2022-08-01T10:10:43.744Z</time>
      </trkpt>
      <trkpt lat="46.36774" lon="6.72185">
        <ele>1371.6192</ele>
        <time>2022-08-01T10:10:53.807Z</time>
      </trkpt>
      <trkpt lat="46.36784" lon="6.72184">
        <ele>1374.225989</ele>
        <time>2022-08-01T10:11:07.793Z</time>
      </trkpt>
      <trkpt lat="46.36793" lon="6.72189">
        <ele>1376.887615</ele>
        <time>2022-08-01T10:11:18.798Z</time>
      </trkpt>
      <trkpt lat="46.36801" lon="6.72196">
        <ele>1379.518937</ele>
        <time>2022-08-01T10:11:28.812Z</time>
      </trkpt>
      <trkpt lat="46.36808" lon="6.72207">
        <ele>1382.277148</ele>
        <time>2022-08-01T10:11:42.807Z</time>
      </trkpt>
      <trkpt lat="46.36816" lon="6.72215">
        <ele>1384.950424</ele>
        <time>2022-08-01T10:11:58.806Z</time>
      </trkpt>
      <trkpt lat="46.36824" lon="6.72221">
        <ele>1387.642228</ele>
        <time>2022-08-01T10:12:12.816Z</time>
      </trkpt>
      <trkpt lat="46.36834" lon="6.72224">
        <ele>1390.404694</ele>
        <time>2022-08-01T10:12:26.804Z</time>
      </trkpt>
      <trkpt lat="46.3684" lon="6.72234">
        <ele>1392.992897</ele>
        <time>2022-08-01T10:12:41.802Z</time>
      </trkpt>
      <trkpt lat="46.36847" lon="6.72242">
        <ele>1395.5656</ele>
        <time>2022-08-01T10:12:54.729Z</time>
      </trkpt>
      <trkpt lat="46.36855" lon="6.72251">
        <ele>1398.308744</ele>
        <time>2022-08-01T10:13:11.829Z</time>
      </trkpt>
      <trkpt lat="46.36861" lon="6.72261">
        <ele>1400.840968</ele>
        <time>2022-08-01T10:13:24.804Z</time>
      </trkpt>
      <trkpt lat="46.36862" lon="6.72278">
        <ele>1404.175158</ele>
        <time>2022-08-01T10:14:36.822Z</time>
      </trkpt>
      <trkpt lat="46.36863" lon="6.72292">
        <ele>1406.796099</ele>
        <time>2022-08-01T10:14:45.824Z</time>
      </trkpt>
      <trkpt lat="46.36864" lon="6.72306">
        <ele>1409.529952</ele>
        <time>2022-08-01T10:14:55.810Z</time>
      </trkpt>
      <trkpt lat="46.36867" lon="6.72319">
        <ele>1412.165026</ele>
        <time>2022-08-01T10:15:05.807Z</time>
      </trkpt>
      <trkpt lat="46.36876" lon="6.72325">
        <ele>1414.982837</ele>
        <time>2022-08-01T10:15:17.790Z</time>
      </trkpt>
      <trkpt lat="46.36885" lon="6.72327">
        <ele>1417.531597</ele>
        <time>2022-08-01T10:15:27.802Z</time>
      </trkpt>
      <trkpt lat="46.36895" lon="6.72329">
        <ele>1420.313617</ele>
        <time>2022-08-01T10:15:38.805Z</time>
      </trkpt>
      <trkpt lat="46.36903" lon="6.72323">
        <ele>1422.913355</ele>
        <time>2022-08-01T10:15:52.812Z</time>
      </trkpt>
      <trkpt lat="46.36907" lon="6.7231">
        <ele>1425.534524</ele>
        <time>2022-08-01T10:16:05.787Z</time>
      </trkpt>
      <trkpt lat="46.36906" lon="6.72296">
        <ele>1428.117364</ele>
        <time>2022-08-01T10:16:19.799Z</time>
      </trkpt>
      <trkpt lat="46.36915" lon="6.72291">
        <ele>1430.624785</ele>
        <time>2022-08-01T10:16:29.808Z</time>
      </trkpt>
      <trkpt lat="46.36924" lon="6.72295">
        <ele>1433.18887</ele>
        <time>2022-08-01T10:16:45.812Z</time>
      </trkpt>
      <trkpt lat="46.36931" lon="6.72303">
        <ele>1435.769547</ele>
        <time>2022-08-01T10:16:56.780Z</time>
      </trkpt>
      <trkpt lat="46.36941" lon="6.72305">
        <ele>1438.423967</ele>
        <time>2022-08-01T10:17:15.785Z</time>
      </trkpt>
      <trkpt lat="46.36939" lon="6.72292">
        <ele>1440.973404</ele>
        <time>2022-08-01T10:17:38.806Z</time>
      </trkpt>
      <trkpt lat="46.36943" lon="6.72276">
        <ele>1444.062374</ele>
        <time>2022-08-01T10:22:07.803Z</time>
      </trkpt>
      <trkpt lat="46.36951" lon="6.72271">
        <ele>1446.599295</ele>
        <time>2022-08-01T10:22:20.811Z</time>
      </trkpt>
      <trkpt lat="46.36961" lon="6.72275">
        <ele>1449.152511</ele>
        <time>2022-08-01T10:22:33.792Z</time>
      </trkpt>
      <trkpt lat="46.36966" lon="6.72286">
        <ele>1451.77089</ele>
        <time>2022-08-01T10:22:43.786Z</time>
      </trkpt>
      <trkpt lat="46.36975" lon="6.72293">
        <ele>1454.45145</ele>
        <time>2022-08-01T10:22:59.806Z</time>
      </trkpt>
      <trkpt lat="46.36982" lon="6.72301">
        <ele>1456.967359</ele>
        <time>2022-08-01T10:23:11.771Z</time>
      </trkpt>
      <trkpt lat="46.36987" lon="6.72313">
        <ele>1459.485134</ele>
        <time>2022-08-01T10:23:31.784Z</time>
      </trkpt>
      <trkpt lat="46.36989" lon="6.72327">
        <ele>1462.310028</ele>
        <time>2022-08-01T10:23:42.814Z</time>
      </trkpt>
      <trkpt lat="46.36988" lon="6.72341">
        <ele>1464.90123</ele>
        <time>2022-08-01T10:23:52.798Z</time>
      </trkpt>
      <trkpt lat="46.36989" lon="6.72354">
        <ele>1467.390586</ele>
        <time>2022-08-01T10:24:03.796Z</time>
      </trkpt>
      <trkpt lat="46.36997" lon="6.72362">
        <ele>1469.992796</ele>
        <time>2022-08-01T10:24:19.821Z</time>
      </trkpt>
      <trkpt lat="46.37005" lon="6.72367">
        <ele>1472.237449</ele>
        <time>2022-08-01T10:24:34.794Z</time>
      </trkpt>
      <trkpt lat="46.37011" lon="6.72357">
        <ele>1474.23665</ele>
        <time>2022-08-01T10:24:59.801Z</time>
      </trkpt>
      <trkpt lat="46.37013" lon="6.72344">
        <ele>1476.247105</ele>
        <time>2022-08-01T10:25:14.786Z</time>
      </trkpt>
      <trkpt lat="46.37028" lon="6.72356">
        <ele>1479.971705</ele>
        <time>2022-08-01T10:26:08.802Z</time>
      </trkpt>
      <trkpt lat="46.37032" lon="6.72344">
        <ele>1482.023101</ele>
        <time>2022-08-01T10:26:33.767Z</time>
      </trkpt>
      <trkpt lat="46.37038" lon="6.72333">
        <ele>1484.082926</ele>
        <time>2022-08-01T10:26:50.808Z</time>
      </trkpt>
      <trkpt lat="46.37047" lon="6.72331">
        <ele>1486.105433</ele>
        <time>2022-08-01T10:27:03.825Z</time>
      </trkpt>
      <trkpt lat="46.37053" lon="6.72343">
        <ele>1488.256563</ele>
        <time>2022-08-01T10:27:20.807Z</time>
      </trkpt>
      <trkpt lat="46.37059" lon="6.72354">
        <ele>1490.358969</ele>
        <time>2022-08-01T10:27:36.812Z</time>
      </trkpt>
      <trkpt lat="46.37068" lon="6.72364">
        <ele>1492.837768</ele>
        <time>2022-08-01T10:28:09.745Z</time>
      </trkpt>
      <trkpt lat="46.37075" lon="6.72373">
        <ele>1495.023322</ele>
        <time>2022-08-01T10:28:22.800Z</time>
      </trkpt>
      <trkpt lat="46.37084" lon="6.72376">
        <ele>1497.016846</ele>
        <time>2022-08-01T10:28:32.834Z</time>
      </trkpt>
      <trkpt lat="46.37094" lon="6.72377">
        <ele>1499.16067</ele>
        <time>2022-08-01T10:29:00.767Z</time>
      </trkpt>
      <trkpt lat="46.371" lon="6.72387">
        <ele>1501.159852</ele>
        <time>2022-08-01T10:29:13.743Z</time>
      </trkpt>
      <trkpt lat="46.37107" lon="6.72413">
        <ele>1505.36416</ele>
        <time>2022-08-01T10:30:30.819Z</time>
      </trkpt>
      <trkpt lat="46.37111" lon="6.72426">
        <ele>1507.513053</ele>
        <time>2022-08-01T10:30:38.798Z</time>
      </trkpt>
      <trkpt lat="46.37116" lon="6.72436">
        <ele>1509.502869</ele>
        <time>2022-08-01T10:30:46.752Z</time>
      </trkpt>
      <trkpt lat="46.37119" lon="6.7245">
        <ele>1511.200286</ele>
        <time>2022-08-01T10:30:58.809Z</time>
      </trkpt>
      <trkpt lat="46.3712" lon="6.72463">
        <ele>1511.893446</ele>
        <time>2022-08-01T10:31:06.796Z</time>
      </trkpt>
      <trkpt lat="46.37119" lon="6.72477">
        <ele>1512.606997</ele>
        <time>2022-08-01T10:31:14.818Z</time>
      </trkpt>
      <trkpt lat="46.3712" lon="6.72491">
        <ele>1513.346317</ele>
        <time>2022-08-01T10:31:22.822Z</time>
      </trkpt>
      <trkpt lat="46.37119" lon="6.72504">
        <ele>1514.074197</ele>
        <time>2022-08-01T10:31:33.818Z</time>
      </trkpt>
      <trkpt lat="46.37123" lon="6.72516">
        <ele>1514.801477</ele>
        <time>2022-08-01T10:31:44.807Z</time>
      </trkpt>
      <trkpt lat="46.37128" lon="6.72528">
        <ele>1515.537122</ele>
        <time>2022-08-01T10:31:55.772Z</time>
      </trkpt>
      <trkpt lat="46.37131" lon="6.72542">
        <ele>1516.262781</ele>
        <time>2022-08-01T10:32:04.794Z</time>
      </trkpt>
      <trkpt lat="46.37135" lon="6.72554">
        <ele>1517.001805</ele>
        <time>2022-08-01T10:32:13.775Z</time>
      </trkpt>
      <trkpt lat="46.37137" lon="6.72567">
        <ele>1517.692823</ele>
        <time>2022-08-01T10:32:20.783Z</time>
      </trkpt>
      <trkpt lat="46.37141" lon="6.72579">
        <ele>1518.406293</ele>
        <time>2022-08-01T10:32:28.788Z</time>
      </trkpt>
      <trkpt lat="46.37146" lon="6.72591">
        <ele>1519.095702</ele>
        <time>2022-08-01T10:32:33.825Z</time>
      </trkpt>
      <trkpt lat="46.37147" lon="6.72604">
        <ele>1519.785206</ele>
        <time>2022-08-01T10:32:43.802Z</time>
      </trkpt>
      <trkpt lat="46.37149" lon="6.72617">
        <ele>1520.514605</ele>
        <time>2022-08-01T10:32:55.812Z</time>
      </trkpt>
      <trkpt lat="46.37149" lon="6.72631">
        <ele>1521.252657</ele>
        <time>2022-08-01T10:33:07.794Z</time>
      </trkpt>
      <trkpt lat="46.37148" lon="6.72644">
        <ele>1521.950219</ele>
        <time>2022-08-01T10:33:25.812Z</time>
      </trkpt>
      <trkpt lat="46.3715" lon="6.72657">
        <ele>1522.655767</ele>
        <time>2022-08-01T10:33:37.783Z</time>
      </trkpt>
      <trkpt lat="46.37148" lon="6.72671">
        <ele>1523.403714</ele>
        <time>2022-08-01T10:33:46.826Z</time>
      </trkpt>
      <trkpt lat="46.37151" lon="6.72684">
        <ele>1524.091834</ele>
        <time>2022-08-01T10:33:58.786Z</time>
      </trkpt>
      <trkpt lat="46.37152" lon="6.72698">
        <ele>1524.872449</ele>
        <time>2022-08-01T10:34:08.815Z</time>
      </trkpt>
      <trkpt lat="46.37149" lon="6.72711">
        <ele>1525.677803</ele>
        <time>2022-08-01T10:34:16.798Z</time>
      </trkpt>
      <trkpt lat="46.37147" lon="6.72725">
        <ele>1526.498795</ele>
        <time>2022-08-01T10:34:25.793Z</time>
      </trkpt>
      <trkpt lat="46.37148" lon="6.72738">
        <ele>1527.282458</ele>
        <time>2022-08-01T10:34:33.779Z</time>
      </trkpt>
      <trkpt lat="46.3715" lon="6.72751">
        <ele>1528.050415</ele>
        <time>2022-08-01T10:34:45.788Z</time>
      </trkpt>
      <trkpt lat="46.3715" lon="6.72764">
        <ele>1528.855353</ele>
        <time>2022-08-01T10:34:53.760Z</time>
      </trkpt>
      <trkpt lat="46.37149" lon="6.72779">
        <ele>1529.716539</ele>
        <time>2022-08-01T10:35:02.825Z</time>
      </trkpt>
      <trkpt lat="46.37151" lon="6.72792">
        <ele>1530.521298</ele>
        <time>2022-08-01T10:35:10.778Z</time>
      </trkpt>
      <trkpt lat="46.37153" lon="6.72806">
        <ele>1531.356082</ele>
        <time>2022-08-01T10:35:19.778Z</time>
      </trkpt>
      <trkpt lat="46.37158" lon="6.72818">
        <ele>1532.146616</ele>
        <time>2022-08-01T10:35:29.816Z</time>
      </trkpt>
      <trkpt lat="46.37164" lon="6.7283">
        <ele>1533.010075</ele>
        <time>2022-08-01T10:35:38.811Z</time>
      </trkpt>
      <trkpt lat="46.37166" lon="6.72844">
        <ele>1533.907107</ele>
        <time>2022-08-01T10:35:48.778Z</time>
      </trkpt>
      <trkpt lat="46.37166" lon="6.72858">
        <ele>1534.700431</ele>
        <time>2022-08-01T10:35:56.792Z</time>
      </trkpt>
      <trkpt lat="46.37167" lon="6.72872">
        <ele>1535.506042</ele>
        <time>2022-08-01T10:36:03.804Z</time>
      </trkpt>
      <trkpt lat="46.37167" lon="6.72886">
        <ele>1536.323082</ele>
        <time>2022-08-01T10:36:10.797Z</time>
      </trkpt>
      <trkpt lat="46.37165" lon="6.729">
        <ele>1537.150914</ele>
        <time>2022-08-01T10:36:17.761Z</time>
      </trkpt>
      <trkpt lat="46.37165" lon="6.72913">
        <ele>1537.967955</ele>
        <time>2022-08-01T10:36:26.742Z</time>
      </trkpt>
      <trkpt lat="46.37166" lon="6.72928">
        <ele>1538.821929</ele>
        <time>2022-08-01T10:36:43.782Z</time>
      </trkpt>
      <trkpt lat="46.37169" lon="6.72941">
        <ele>1539.669213</ele>
        <time>2022-08-01T10:36:55.802Z</time>
      </trkpt>
      <trkpt lat="46.37175" lon="6.72952">
        <ele>1541.101531</ele>
        <time>2022-08-01T10:37:03.814Z</time>
      </trkpt>
      <trkpt lat="46.3718" lon="6.72965">
        <ele>1543.054033</ele>
        <time>2022-08-01T10:37:13.793Z</time>
      </trkpt>
      <trkpt lat="46.37183" lon="6.72977">
        <ele>1544.977101</ele>
        <time>2022-08-01T10:37:22.785Z</time>
      </trkpt>
      <trkpt lat="46.37186" lon="6.7299">
        <ele>1546.789159</ele>
        <time>2022-08-01T10:37:34.804Z</time>
      </trkpt>
      <trkpt lat="46.37188" lon="6.73003">
        <ele>1548.619712</ele>
        <time>2022-08-01T10:37:49.807Z</time>
      </trkpt>
      <trkpt lat="46.37194" lon="6.73014">
        <ele>1550.508453</ele>
        <time>2022-08-01T10:38:03.807Z</time>
      </trkpt>
      <trkpt lat="46.37195" lon="6.73027">
        <ele>1552.365181</ele>
        <time>2022-08-01T10:38:16.800Z</time>
      </trkpt>
      <trkpt lat="46.37199" lon="6.7304">
        <ele>1554.309667</ele>
        <time>2022-08-01T10:38:28.795Z</time>
      </trkpt>
      <trkpt lat="46.37195" lon="6.73053">
        <ele>1556.215507</ele>
        <time>2022-08-01T10:38:37.811Z</time>
      </trkpt>
      <trkpt lat="46.37186" lon="6.73058">
        <ele>1558.129752</ele>
        <time>2022-08-01T10:38:45.794Z</time>
      </trkpt>
      <trkpt lat="46.3718" lon="6.73068">
        <ele>1559.964701</ele>
        <time>2022-08-01T10:38:53.758Z</time>
      </trkpt>
      <trkpt lat="46.37181" lon="6.73084">
        <ele>1562.261201</ele>
        <time>2022-08-01T10:39:42.790Z</time>
      </trkpt>
      <trkpt lat="46.37185" lon="6.73097">
        <ele>1564.133983</ele>
        <time>2022-08-01T10:39:58.764Z</time>
      </trkpt>
      <trkpt lat="46.37191" lon="6.73107">
        <ele>1566.002797</ele>
        <time>2022-08-01T10:40:10.796Z</time>
      </trkpt>
      <trkpt lat="46.37193" lon="6.7312">
        <ele>1567.865268</ele>
        <time>2022-08-01T10:40:23.804Z</time>
      </trkpt>
      <trkpt lat="46.37192" lon="6.73133">
        <ele>1569.779618</ele>
        <time>2022-08-01T10:40:40.763Z</time>
      </trkpt>
      <trkpt lat="46.3719" lon="6.73146">
        <ele>1571.595358</ele>
        <time>2022-08-01T10:40:53.802Z</time>
      </trkpt>
      <trkpt lat="46.3719" lon="6.73159">
        <ele>1573.445082</ele>
        <time>2022-08-01T10:41:07.765Z</time>
      </trkpt>
      <trkpt lat="46.37198" lon="6.73166">
        <ele>1575.282884</ele>
        <time>2022-08-01T10:41:18.777Z</time>
      </trkpt>
      <trkpt lat="46.37206" lon="6.73173">
        <ele>1577.390979</ele>
        <time>2022-08-01T10:41:32.781Z</time>
      </trkpt>
      <trkpt lat="46.37215" lon="6.73176">
        <ele>1579.616247</ele>
        <time>2022-08-01T10:42:04.804Z</time>
      </trkpt>
      <trkpt lat="46.37222" lon="6.73185">
        <ele>1581.976881</ele>
        <time>2022-08-01T10:42:22.797Z</time>
      </trkpt>
      <trkpt lat="46.3723" lon="6.73194">
        <ele>1584.248001</ele>
        <time>2022-08-01T10:42:40.781Z</time>
      </trkpt>
      <trkpt lat="46.37239" lon="6.73199">
        <ele>1586.586949</ele>
        <time>2022-08-01T10:42:50.749Z</time>
      </trkpt>
      <trkpt lat="46.37248" lon="6.732">
        <ele>1588.909859</ele>
        <time>2022-08-01T10:43:02.791Z</time>
      </trkpt>
      <trkpt lat="46.37258" lon="6.732">
        <ele>1591.27902</ele>
        <time>2022-08-01T10:43:12.809Z</time>
      </trkpt>
      <trkpt lat="46.37267" lon="6.73202">
        <ele>1593.586414</ele>
        <time>2022-08-01T10:43:26.707Z</time>
      </trkpt>
      <trkpt lat="46.37277" lon="6.73204">
        <ele>1595.874435</ele>
        <time>2022-08-01T10:43:46.782Z</time>
      </trkpt>
      <trkpt lat="46.37286" lon="6.73202">
        <ele>1598.160571</ele>
        <time>2022-08-01T10:44:01.740Z</time>
      </trkpt>
      <trkpt lat="46.37293" lon="6.73194">
        <ele>1600.36569</ele>
        <time>2022-08-01T10:44:27.797Z</time>
      </trkpt>
      <trkpt lat="46.37306" lon="6.73183">
        <ele>1603.967092</ele>
        <time>2022-08-01T10:46:15.826Z</time>
      </trkpt>
      <trkpt lat="46.37309" lon="6.7317">
        <ele>1606.211699</ele>
        <time>2022-08-01T10:46:26.790Z</time>
      </trkpt>
      <trkpt lat="46.37312" lon="6.73157">
        <ele>1608.546185</ele>
        <time>2022-08-01T10:46:38.785Z</time>
      </trkpt>
      <trkpt lat="46.37318" lon="6.73146">
        <ele>1610.866391</ele>
        <time>2022-08-01T10:46:50.797Z</time>
      </trkpt>
      <trkpt lat="46.37318" lon="6.73132">
        <ele>1613.151982</ele>
        <time>2022-08-01T10:47:03.815Z</time>
      </trkpt>
      <trkpt lat="46.37317" lon="6.73117">
        <ele>1615.582548</ele>
        <time>2022-08-01T10:48:56.791Z</time>
      </trkpt>
      <trkpt lat="46.37322" lon="6.73106">
        <ele>1617.834216</ele>
        <time>2022-08-01T10:49:07.771Z</time>
      </trkpt>
      <trkpt lat="46.37323" lon="6.73093">
        <ele>1620.004934</ele>
        <time>2022-08-01T10:49:16.767Z</time>
      </trkpt>
      <trkpt lat="46.37324" lon="6.7308">
        <ele>1622.126261</ele>
        <time>2022-08-01T10:49:29.773Z</time>
      </trkpt>
      <trkpt lat="46.37325" lon="6.73067">
        <ele>1624.311589</ele>
        <time>2022-08-01T10:49:39.727Z</time>
      </trkpt>
      <trkpt lat="46.37331" lon="6.73057">
        <ele>1626.447912</ele>
        <time>2022-08-01T10:49:51.782Z</time>
      </trkpt>
      <trkpt lat="46.37339" lon="6.73048">
        <ele>1628.612294</ele>
        <time>2022-08-01T10:50:04.781Z</time>
      </trkpt>
      <trkpt lat="46.37345" lon="6.73057">
        <ele>1630.749639</ele>
        <time>2022-08-01T10:50:23.730Z</time>
      </trkpt>
      <trkpt lat="46.37351" lon="6.73068">
        <ele>1632.909064</ele>
        <time>2022-08-01T10:50:52.776Z</time>
      </trkpt>
      <trkpt lat="46.37357" lon="6.73079">
        <ele>1635.106059</ele>
        <time>2022-08-01T10:51:05.823Z</time>
      </trkpt>
      <trkpt lat="46.37364" lon="6.73088">
        <ele>1637.270164</ele>
        <time>2022-08-01T10:51:18.809Z</time>
      </trkpt>
      <trkpt lat="46.3737" lon="6.73098">
        <ele>1639.398362</ele>
        <time>2022-08-01T10:51:32.795Z</time>
      </trkpt>
      <trkpt lat="46.37379" lon="6.73107">
        <ele>1642.090786</ele>
        <time>2022-08-01T10:52:00.846Z</time>
      </trkpt>
      <trkpt lat="46.37384" lon="6.73118">
        <ele>1644.211707</ele>
        <time>2022-08-01T10:52:12.775Z</time>
      </trkpt>
      <trkpt lat="46.37389" lon="6.73131">
        <ele>1646.460652</ele>
        <time>2022-08-01T10:52:26.815Z</time>
      </trkpt>
      <trkpt lat="46.37394" lon="6.73141">
        <ele>1648.635066</ele>
        <time>2022-08-01T10:52:38.793Z</time>
      </trkpt>
      <trkpt lat="46.374" lon="6.73153">
        <ele>1650.901866</ele>
        <time>2022-08-01T10:52:52.792Z</time>
      </trkpt>
      <trkpt lat="46.37407" lon="6.73163">
        <ele>1653.085412</ele>
        <time>2022-08-01T10:53:04.792Z</time>
      </trkpt>
      <trkpt lat="46.37413" lon="6.73174">
        <ele>1655.461452</ele>
        <time>2022-08-01T10:53:17.828Z</time>
      </trkpt>
      <trkpt lat="46.3742" lon="6.73183">
        <ele>1657.602101</ele>
        <time>2022-08-01T10:53:26.798Z</time>
      </trkpt>
      <trkpt lat="46.37423" lon="6.73195">
        <ele>1659.755131</ele>
        <time>2022-08-01T10:53:37.807Z</time>
      </trkpt>
      <trkpt lat="46.37429" lon="6.73207">
        <ele>1661.832247</ele>
        <time>2022-08-01T10:53:47.796Z</time>
      </trkpt>
      <trkpt lat="46.37435" lon="6.73217">
        <ele>1663.309809</ele>
        <time>2022-08-01T10:53:57.804Z</time>
      </trkpt>
      <trkpt lat="46.37443" lon="6.73228">
        <ele>1665.132745</ele>
        <time>2022-08-01T10:54:27.797Z</time>
      </trkpt>
      <trkpt lat="46.3745" lon="6.73238">
        <ele>1666.62352</ele>
        <time>2022-08-01T10:54:38.779Z</time>
      </trkpt>
      <trkpt lat="46.37453" lon="6.73251">
        <ele>1668.118204</ele>
        <time>2022-08-01T10:54:49.803Z</time>
      </trkpt>
      <trkpt lat="46.37457" lon="6.73264">
        <ele>1669.612888</ele>
        <time>2022-08-01T10:55:01.801Z</time>
      </trkpt>
      <trkpt lat="46.37462" lon="6.73275">
        <ele>1671.116243</ele>
        <time>2022-08-01T10:55:10.781Z</time>
      </trkpt>
      <trkpt lat="46.37468" lon="6.73287">
        <ele>1672.695617</ele>
        <time>2022-08-01T10:55:18.805Z</time>
      </trkpt>
      <trkpt lat="46.37474" lon="6.73299">
        <ele>1674.404881</ele>
        <time>2022-08-01T10:55:27.727Z</time>
      </trkpt>
      <trkpt lat="46.37477" lon="6.73313">
        <ele>1675.913452</ele>
        <time>2022-08-01T10:55:39.826Z</time>
      </trkpt>
      <trkpt lat="46.37483" lon="6.73323">
        <ele>1677.345621</ele>
        <time>2022-08-01T10:55:49.792Z</time>
      </trkpt>
      <trkpt lat="46.37486" lon="6.73335">
        <ele>1678.776829</ele>
        <time>2022-08-01T10:56:01.781Z</time>
      </trkpt>
      <trkpt lat="46.3749" lon="6.73348">
        <ele>1680.276783</ele>
        <time>2022-08-01T10:56:10.808Z</time>
      </trkpt>
      <trkpt lat="46.37494" lon="6.7336">
        <ele>1681.80981</ele>
        <time>2022-08-01T10:56:19.783Z</time>
      </trkpt>
      <trkpt lat="46.37497" lon="6.73373">
        <ele>1683.266612</ele>
        <time>2022-08-01T10:56:29.807Z</time>
      </trkpt>
      <trkpt lat="46.37499" lon="6.73386">
        <ele>1684.740171</ele>
        <time>2022-08-01T10:56:41.733Z</time>
      </trkpt>
      <trkpt lat="46.37502" lon="6.734">
        <ele>1686.358712</ele>
        <time>2022-08-01T10:56:51.808Z</time>
      </trkpt>
      <trkpt lat="46.37506" lon="6.73412">
        <ele>1687.825137</ele>
        <time>2022-08-01T10:57:01.807Z</time>
      </trkpt>
      <trkpt lat="46.3751" lon="6.73425">
        <ele>1689.271662</ele>
        <time>2022-08-01T10:57:20.779Z</time>
      </trkpt>
      <trkpt lat="46.37518" lon="6.73441">
        <ele>1692.692565</ele>
        <time>2022-08-01T10:59:38.762Z</time>
      </trkpt>
      <trkpt lat="46.37526" lon="6.73448">
        <ele>1695.202957</ele>
        <time>2022-08-01T10:59:54.800Z</time>
      </trkpt>
      <trkpt lat="46.37532" lon="6.73458">
        <ele>1697.674684</ele>
        <time>2022-08-01T11:00:24.805Z</time>
      </trkpt>
      <trkpt lat="46.37539" lon="6.73468">
        <ele>1700.283542</ele>
        <time>2022-08-01T11:00:39.768Z</time>
      </trkpt>
      <trkpt lat="46.37552" lon="6.73476">
        <ele>1703.895934</ele>
        <time>2022-08-01T11:01:28.767Z</time>
      </trkpt>
      <trkpt lat="46.37553" lon="6.7349">
        <ele>1706.396491</ele>
        <time>2022-08-01T11:03:46.788Z</time>
      </trkpt>
      <trkpt lat="46.37554" lon="6.73503">
        <ele>1708.809289</ele>
        <time>2022-08-01T11:04:22.798Z</time>
      </trkpt>
      <trkpt lat="46.37551" lon="6.73515">
        <ele>1711.247481</ele>
        <time>2022-08-01T11:04:34.796Z</time>
      </trkpt>
      <trkpt lat="46.37547" lon="6.73528">
        <ele>1713.779002</ele>
        <time>2022-08-01T11:04:47.803Z</time>
      </trkpt>
      <trkpt lat="46.37546" lon="6.73542">
        <ele>1716.461545</ele>
        <time>2022-08-01T11:04:58.800Z</time>
      </trkpt>
      <trkpt lat="46.37547" lon="6.73555">
        <ele>1718.963123</ele>
        <time>2022-08-01T11:05:10.817Z</time>
      </trkpt>
      <trkpt lat="46.37549" lon="6.73568">
        <ele>1721.390461</ele>
        <time>2022-08-01T11:05:22.790Z</time>
      </trkpt>
      <trkpt lat="46.37551" lon="6.73581">
        <ele>1723.894728</ele>
        <time>2022-08-01T11:05:34.792Z</time>
      </trkpt>
      <trkpt lat="46.37554" lon="6.73594">
        <ele>1726.414687</ele>
        <time>2022-08-01T11:05:47.754Z</time>
      </trkpt>
      <trkpt lat="46.37556" lon="6.73609">
        <ele>1729.117403</ele>
        <time>2022-08-01T11:05:59.788Z</time>
      </trkpt>
      <trkpt lat="46.37558" lon="6.73622">
        <ele>1731.568578</ele>
        <time>2022-08-01T11:06:12.774Z</time>
      </trkpt>
      <trkpt lat="46.3756" lon="6.73635">
        <ele>1734.132933</ele>
        <time>2022-08-01T11:06:26.795Z</time>
      </trkpt>
      <trkpt lat="46.37561" lon="6.73648">
        <ele>1736.537737</ele>
        <time>2022-08-01T11:06:41.806Z</time>
      </trkpt>
      <trkpt lat="46.37565" lon="6.7366">
        <ele>1738.762111</ele>
        <time>2022-08-01T11:06:50.783Z</time>
      </trkpt>
      <trkpt lat="46.37568" lon="6.73673">
        <ele>1740.520734</ele>
        <time>2022-08-01T11:07:02.802Z</time>
      </trkpt>
      <trkpt lat="46.37571" lon="6.73685">
        <ele>1742.356423</ele>
        <time>2022-08-01T11:07:25.808Z</time>
      </trkpt>
      <trkpt lat="46.37575" lon="6.73699">
        <ele>1744.262322</ele>
        <time>2022-08-01T11:07:36.808Z</time>
      </trkpt>
      <trkpt lat="46.37579" lon="6.73711">
        <ele>1746.157516</ele>
        <time>2022-08-01T11:07:46.813Z</time>
      </trkpt>
      <trkpt lat="46.3758" lon="6.73725">
        <ele>1748.005586</ele>
        <time>2022-08-01T11:07:56.807Z</time>
      </trkpt>
      <trkpt lat="46.37582" lon="6.73738">
        <ele>1749.858434</ele>
        <time>2022-08-01T11:08:06.807Z</time>
      </trkpt>
      <trkpt lat="46.37583" lon="6.73752">
        <ele>1751.705048</ele>
        <time>2022-08-01T11:08:16.807Z</time>
      </trkpt>
      <trkpt lat="46.37585" lon="6.73765">
        <ele>1753.511071</ele>
        <time>2022-08-01T11:08:26.824Z</time>
      </trkpt>
      <trkpt lat="46.37586" lon="6.73778">
        <ele>1755.291826</ele>
        <time>2022-08-01T11:08:36.827Z</time>
      </trkpt>
      <trkpt lat="46.37584" lon="6.73791">
        <ele>1757.064738</ele>
        <time>2022-08-01T11:08:47.745Z</time>
      </trkpt>
      <trkpt lat="46.37577" lon="6.73799">
        <ele>1758.898502</ele>
        <time>2022-08-01T11:09:02.731Z</time>
      </trkpt>
      <trkpt lat="46.37568" lon="6.738">
        <ele>1760.686796</ele>
        <time>2022-08-01T11:09:13.755Z</time>
      </trkpt>
      <trkpt lat="46.37558" lon="6.73804">
        <ele>1762.743197</ele>
        <time>2022-08-01T11:10:45.852Z</time>
      </trkpt>
      <trkpt lat="46.37548" lon="6.73808">
        <ele>1764.674212</ele>
        <time>2022-08-01T11:10:57.814Z</time>
      </trkpt>
      <trkpt lat="46.37541" lon="6.73816">
        <ele>1766.499992</ele>
        <time>2022-08-01T11:11:13.763Z</time>
      </trkpt>
      <trkpt lat="46.37533" lon="6.73822">
        <ele>1768.267824</ele>
        <time>2022-08-01T11:11:29.876Z</time>
      </trkpt>
      <trkpt lat="46.37525" lon="6.73831">
        <ele>1770.176832</ele>
        <time>2022-08-01T11:11:42.859Z</time>
      </trkpt>
      <trkpt lat="46.37519" lon="6.73842">
        <ele>1772.059106</ele>
        <time>2022-08-01T11:11:56.890Z</time>
      </trkpt>
      <trkpt lat="46.3751" lon="6.73856">
        <ele>1775.009067</ele>
        <time>2022-08-01T11:13:09.004Z</time>
      </trkpt>
      <trkpt lat="46.37503" lon="6.73865">
        <ele>1777.288895</ele>
        <time>2022-08-01T11:13:24.946Z</time>
      </trkpt>
      <trkpt lat="46.37497" lon="6.73876">
        <ele>1779.53698</ele>
        <time>2022-08-01T11:13:38.929Z</time>
      </trkpt>
      <trkpt lat="46.37492" lon="6.73887">
        <ele>1781.783263</ele>
        <time>2022-08-01T11:13:51.974Z</time>
      </trkpt>
      <trkpt lat="46.37488" lon="6.73899">
        <ele>1784.00977</ele>
        <time>2022-08-01T11:14:01.942Z</time>
      </trkpt>
      <trkpt lat="46.37484" lon="6.73911">
        <ele>1786.328966</ele>
        <time>2022-08-01T11:14:14.932Z</time>
      </trkpt>
      <trkpt lat="46.37478" lon="6.73923">
        <ele>1788.671229</ele>
        <time>2022-08-01T11:14:25.925Z</time>
      </trkpt>
      <trkpt lat="46.37472" lon="6.73933">
        <ele>1790.893053</ele>
        <time>2022-08-01T11:14:37.969Z</time>
      </trkpt>
      <trkpt lat="46.37467" lon="6.73944">
        <ele>1793.116053</ele>
        <time>2022-08-01T11:14:50.968Z</time>
      </trkpt>
      <trkpt lat="46.37462" lon="6.73955">
        <ele>1795.367571</ele>
        <time>2022-08-01T11:15:01.926Z</time>
      </trkpt>
      <trkpt lat="46.37453" lon="6.73966">
        <ele>1798.067012</ele>
        <time>2022-08-01T11:15:41.969Z</time>
      </trkpt>
      <trkpt lat="46.37445" lon="6.73972">
        <ele>1800.350817</ele>
        <time>2022-08-01T11:15:53.965Z</time>
      </trkpt>
      <trkpt lat="46.37436" lon="6.73976">
        <ele>1802.573865</ele>
        <time>2022-08-01T11:16:05.957Z</time>
      </trkpt>
      <trkpt lat="46.37429" lon="6.73985">
        <ele>1804.862295</ele>
        <time>2022-08-01T11:16:16.924Z</time>
      </trkpt>
      <trkpt lat="46.37422" lon="6.73994">
        <ele>1807.238595</ele>
        <time>2022-08-01T11:16:33.960Z</time>
      </trkpt>
      <trkpt lat="46.37415" lon="6.74003">
        <ele>1809.461501</ele>
        <time>2022-08-01T11:16:43.942Z</time>
      </trkpt>
      <trkpt lat="46.37408" lon="6.74012">
        <ele>1811.669407</ele>
        <time>2022-08-01T11:16:54.955Z</time>
      </trkpt>
      <trkpt lat="46.37401" lon="6.74021">
        <ele>1813.957842</ele>
        <time>2022-08-01T11:17:07.966Z</time>
      </trkpt>
      <trkpt lat="46.37394" lon="6.7403">
        <ele>1816.309553</ele>
        <time>2022-08-01T11:17:19.947Z</time>
      </trkpt>
      <trkpt lat="46.37386" lon="6.74038">
        <ele>1818.964371</ele>
        <time>2022-08-01T11:17:30.934Z</time>
      </trkpt>
      <trkpt lat="46.37378" lon="6.74045">
        <ele>1821.788639</ele>
        <time>2022-08-01T11:18:00.952Z</time>
      </trkpt>
      <trkpt lat="46.37369" lon="6.74048">
        <ele>1824.604406</ele>
        <time>2022-08-01T11:18:17.954Z</time>
      </trkpt>
      <trkpt lat="46.37361" lon="6.74053">
        <ele>1827.354348</ele>
        <time>2022-08-01T11:18:31.914Z</time>
      </trkpt>
      <trkpt lat="46.37354" lon="6.74062">
        <ele>1830.240265</ele>
        <time>2022-08-01T11:18:42.979Z</time>
      </trkpt>
      <trkpt lat="46.37347" lon="6.74072">
        <ele>1833.171541</ele>
        <time>2022-08-01T11:18:57.939Z</time>
      </trkpt>
      <trkpt lat="46.3734" lon="6.7408">
        <ele>1835.957349</ele>
        <time>2022-08-01T11:19:11.934Z</time>
      </trkpt>
      <trkpt lat="46.37334" lon="6.7409">
        <ele>1838.837037</ele>
        <time>2022-08-01T11:19:27.944Z</time>
      </trkpt>
      <trkpt lat="46.37327" lon="6.741">
        <ele>1841.701499</ele>
        <time>2022-08-01T11:19:42.910Z</time>
      </trkpt>
      <trkpt lat="46.37321" lon="6.7411">
        <ele>1844.608628</ele>
        <time>2022-08-01T11:19:58.947Z</time>
      </trkpt>
      <trkpt lat="46.37315" lon="6.7412">
        <ele>1847.384169</ele>
        <time>2022-08-01T11:20:14.925Z</time>
      </trkpt>
      <trkpt lat="46.37309" lon="6.7413">
        <ele>1850.139657</ele>
        <time>2022-08-01T11:20:32.894Z</time>
      </trkpt>
      <trkpt lat="46.37303" lon="6.7414">
        <ele>1852.996295</ele>
        <time>2022-08-01T11:22:01.897Z</time>
      </trkpt>
      <trkpt lat="46.37296" lon="6.74149">
        <ele>1855.84297</ele>
        <time>2022-08-01T11:22:11.881Z</time>
      </trkpt>
      <trkpt lat="46.37288" lon="6.74157">
        <ele>1858.787705</ele>
        <time>2022-08-01T11:22:26.884Z</time>
      </trkpt>
      <trkpt lat="46.37282" lon="6.74168">
        <ele>1861.680122</ele>
        <time>2022-08-01T11:28:49.968Z</time>
      </trkpt>
      <trkpt lat="46.37274" lon="6.74175">
        <ele>1864.470956</ele>
        <time>2022-08-01T11:29:04.958Z</time>
      </trkpt>
      <trkpt lat="46.37266" lon="6.7418">
        <ele>1867.305347</ele>
        <time>2022-08-01T11:29:21.953Z</time>
      </trkpt>
      <trkpt lat="46.37257" lon="6.74186">
        <ele>1870.367025</ele>
        <time>2022-08-01T11:29:35.979Z</time>
      </trkpt>
      <trkpt lat="46.37249" lon="6.74194">
        <ele>1872.573755</ele>
        <time>2022-08-01T11:29:49.940Z</time>
      </trkpt>
      <trkpt lat="46.3724" lon="6.742">
        <ele>1873.968172</ele>
        <time>2022-08-01T11:30:04.012Z</time>
      </trkpt>
      <trkpt lat="46.37231" lon="6.74207">
        <ele>1875.424579</ele>
        <time>2022-08-01T11:30:17.910Z</time>
      </trkpt>
      <trkpt lat="46.37223" lon="6.74215">
        <ele>1876.784228</ele>
        <time>2022-08-01T11:30:29.929Z</time>
      </trkpt>
      <trkpt lat="46.37216" lon="6.74223">
        <ele>1878.179201</ele>
        <time>2022-08-01T11:30:38.977Z</time>
      </trkpt>
      <trkpt lat="46.37208" lon="6.74231">
        <ele>1879.536391</ele>
        <time>2022-08-01T11:30:49.904Z</time>
      </trkpt>
      <trkpt lat="46.37201" lon="6.7424">
        <ele>1880.911716</ele>
        <time>2022-08-01T11:30:58.937Z</time>
      </trkpt>
      <trkpt lat="46.37193" lon="6.74249">
        <ele>1882.370671</ele>
        <time>2022-08-01T11:31:08.987Z</time>
      </trkpt>
      <trkpt lat="46.37185" lon="6.74257">
        <ele>1883.683693</ele>
        <time>2022-08-01T11:31:17.958Z</time>
      </trkpt>
      <trkpt lat="46.37175" lon="6.74259">
        <ele>1885.1763</ele>
        <time>2022-08-01T11:31:27.929Z</time>
      </trkpt>
      <trkpt lat="46.37167" lon="6.74236">
        <ele>1887.727399</ele>
        <time>2022-08-01T11:33:10.989Z</time>
      </trkpt>
      <trkpt lat="46.37176" lon="6.74212">
        <ele>1890.446893</ele>
        <time>2022-08-01T11:35:54.927Z</time>
      </trkpt>
      <trkpt lat="46.37173" lon="6.74224">
        <ele>1891.800584</ele>
        <time>2022-08-01T11:35:59.952Z</time>
      </trkpt>
      <trkpt lat="46.37166" lon="6.74233">
        <ele>1893.138448</ele>
        <time>2022-08-01T11:38:16.966Z</time>
      </trkpt>
      <trkpt lat="46.3716" lon="6.74223">
        <ele>1894.481868</ele>
        <time>2022-08-01T11:38:25.919Z</time>
      </trkpt>
      <trkpt lat="46.37156" lon="6.74236">
        <ele>1895.918917</ele>
        <time>2022-08-01T11:38:47.950Z</time>
      </trkpt>
      <trkpt lat="46.37147" lon="6.74241">
        <ele>1897.27904</ele>
        <time>2022-08-01T11:39:01.890Z</time>
      </trkpt>
      <trkpt lat="46.37138" lon="6.74245">
        <ele>1899.957354</ele>
        <time>2022-08-01T11:39:13.952Z</time>
      </trkpt>
      <trkpt lat="46.3713" lon="6.7425">
        <ele>1903.512053</ele>
        <time>2022-08-01T11:39:25.956Z</time>
      </trkpt>
      <trkpt lat="46.37122" lon="6.74255">
        <ele>1907.134457</ele>
        <time>2022-08-01T11:39:40.969Z</time>
      </trkpt>
      <trkpt lat="46.37113" lon="6.7426">
        <ele>1910.776745</ele>
        <time>2022-08-01T11:39:53.958Z</time>
      </trkpt>
      <trkpt lat="46.37104" lon="6.74264">
        <ele>1914.336458</ele>
        <time>2022-08-01T11:40:13.939Z</time>
      </trkpt>
      <trkpt lat="46.37096" lon="6.74272">
        <ele>1918.081754</ele>
        <time>2022-08-01T11:40:28.986Z</time>
      </trkpt>
      <trkpt lat="46.37085" lon="6.74279">
        <ele>1922.806612</ele>
        <time>2022-08-01T11:41:12.965Z</time>
      </trkpt>
      <trkpt lat="46.37077" lon="6.74286">
        <ele>1926.406742</ele>
        <time>2022-08-01T11:41:31.935Z</time>
      </trkpt>
      <trkpt lat="46.3707" lon="6.74295">
        <ele>1930.186842</ele>
        <time>2022-08-01T11:41:43.942Z</time>
      </trkpt>
      <trkpt lat="46.37058" lon="6.74297">
        <ele>1934.834008</ele>
        <time>2022-08-01T11:43:20.958Z</time>
      </trkpt>
      <trkpt lat="46.37049" lon="6.74297">
        <ele>1938.466421</ele>
        <time>2022-08-01T11:43:43.943Z</time>
      </trkpt>
      <trkpt lat="46.37035" lon="6.74296">
        <ele>1943.980968</ele>
        <time>2022-08-01T11:44:27.946Z</time>
      </trkpt>
      <trkpt lat="46.37027" lon="6.74303">
        <ele>1947.537541</ele>
        <time>2022-08-01T11:44:40.914Z</time>
      </trkpt>
      <trkpt lat="46.37009" lon="6.74302">
        <ele>1954.413445</ele>
        <time>2022-08-01T11:47:04.953Z</time>
      </trkpt>
      <trkpt lat="46.37017" lon="6.7431">
        <ele>1958.001925</ele>
        <time>2022-08-01T11:47:30.906Z</time>
      </trkpt>
      <trkpt lat="46.37013" lon="6.74326">
        <ele>1962.521184</ele>
        <time>2022-08-01T11:48:50.952Z</time>
      </trkpt>
      <trkpt lat="46.37006" lon="6.74317">
        <ele>1966.029967</ele>
        <time>2022-08-01T11:52:48.930Z</time>
      </trkpt>
      <trkpt lat="46.37011" lon="6.74305">
        <ele>1967.957135</ele>
        <time>2022-08-01T11:52:56.947Z</time>
      </trkpt>
      <trkpt lat="46.37014" lon="6.74292">
        <ele>1967.733738</ele>
        <time>2022-08-01T11:53:06.929Z</time>
      </trkpt>
      <trkpt lat="46.37015" lon="6.74279">
        <ele>1967.521887</ele>
        <time>2022-08-01T11:53:21.935Z</time>
      </trkpt>
      <trkpt lat="46.37017" lon="6.74265">
        <ele>1967.307789</ele>
        <time>2022-08-01T11:53:35.961Z</time>
      </trkpt>
      <trkpt lat="46.37008" lon="6.74262">
        <ele>1967.089972</ele>
        <time>2022-08-01T11:53:47.968Z</time>
      </trkpt>
      <trkpt lat="46.37006" lon="6.7425">
        <ele>1966.88045</ele>
        <time>2022-08-01T11:54:05.896Z</time>
      </trkpt>
      <trkpt lat="46.37007" lon="6.74236">
        <ele>1966.667021</ele>
        <time>2022-08-01T11:54:34.959Z</time>
      </trkpt>
      <trkpt lat="46.37013" lon="6.74223">
        <ele>1966.418101</ele>
        <time>2022-08-01T12:00:53.902Z</time>
      </trkpt>
      <trkpt lat="46.37024" lon="6.74222">
        <ele>1966.16383</ele>
        <time>2022-08-01T12:15:52.861Z</time>
      </trkpt>
      <trkpt lat="46.37021" lon="6.74209">
        <ele>1965.950855</ele>
        <time>2022-08-01T12:17:21.890Z</time>
      </trkpt>
      <trkpt lat="46.37018" lon="6.74225">
        <ele>1965.688206</ele>
        <time>2022-08-01T12:17:42.886Z</time>
      </trkpt>
      <trkpt lat="46.37014" lon="6.74213">
        <ele>1965.471369</ele>
        <time>2022-08-01T12:28:19.881Z</time>
      </trkpt>
      <trkpt lat="46.37009" lon="6.74203">
        <ele>1965.262516</ele>
        <time>2022-08-01T12:28:40.908Z</time>
      </trkpt>
      <trkpt lat="46.37002" lon="6.74193">
        <ele>1965.049779</ele>
        <time>2022-08-01T12:29:11.930Z</time>
      </trkpt>
      <trkpt lat="46.36995" lon="6.74185">
        <ele>1964.841541</ele>
        <time>2022-08-01T12:29:44.932Z</time>
      </trkpt>
      <trkpt lat="46.36988" lon="6.74176">
        <ele>1964.627469</ele>
        <time>2022-08-01T12:30:29.922Z</time>
      </trkpt>
      <trkpt lat="46.36957" lon="6.74163">
        <ele>1963.735871</ele>
        <time>2022-08-01T12:33:25.948Z</time>
      </trkpt>
      <trkpt lat="46.36952" lon="6.74152">
        <ele>1962.560485</ele>
        <time>2022-08-01T12:33:32.869Z</time>
      </trkpt>
      <trkpt lat="46.36948" lon="6.7414">
        <ele>1961.397115</ele>
        <time>2022-08-01T12:33:42.961Z</time>
      </trkpt>
      <trkpt lat="46.36944" lon="6.74127">
        <ele>1960.183958</ele>
        <time>2022-08-01T12:34:12.916Z</time>
      </trkpt>
      <trkpt lat="46.36941" lon="6.74115">
        <ele>1958.980407</ele>
        <time>2022-08-01T12:34:20.947Z</time>
      </trkpt>
      <trkpt lat="46.36934" lon="6.74105">
        <ele>1957.823085</ele>
        <time>2022-08-01T12:34:28.953Z</time>
      </trkpt>
      <trkpt lat="46.36928" lon="6.74094">
        <ele>1956.565849</ele>
        <time>2022-08-01T12:34:36.936Z</time>
      </trkpt>
      <trkpt lat="46.36922" lon="6.74084">
        <ele>1955.372711</ele>
        <time>2022-08-01T12:34:55.938Z</time>
      </trkpt>
      <trkpt lat="46.36916" lon="6.74073">
        <ele>1954.134817</ele>
        <time>2022-08-01T12:35:23.924Z</time>
      </trkpt>
      <trkpt lat="46.36911" lon="6.74062">
        <ele>1952.923682</ele>
        <time>2022-08-01T12:35:33.922Z</time>
      </trkpt>
      <trkpt lat="46.36905" lon="6.74051">
        <ele>1951.718605</ele>
        <time>2022-08-01T12:35:41.955Z</time>
      </trkpt>
      <trkpt lat="46.36903" lon="6.74037">
        <ele>1950.519206</ele>
        <time>2022-08-01T12:38:12.888Z</time>
      </trkpt>
      <trkpt lat="46.369" lon="6.74025">
        <ele>1949.323753</ele>
        <time>2022-08-01T12:38:22.877Z</time>
      </trkpt>
      <trkpt lat="46.36895" lon="6.74013">
        <ele>1948.144881</ele>
        <time>2022-08-01T12:38:31.879Z</time>
      </trkpt>
      <trkpt lat="46.3689" lon="6.74001">
        <ele>1946.933398</ele>
        <time>2022-08-01T12:38:38.877Z</time>
      </trkpt>
      <trkpt lat="46.36882" lon="6.73997">
        <ele>1945.771684</ele>
        <time>2022-08-01T12:38:46.865Z</time>
      </trkpt>
      <trkpt lat="46.36879" lon="6.73983">
        <ele>1944.495795</ele>
        <time>2022-08-01T12:38:56.957Z</time>
      </trkpt>
      <trkpt lat="46.36873" lon="6.73972">
        <ele>1943.291878</ele>
        <time>2022-08-01T12:39:04.980Z</time>
      </trkpt>
      <trkpt lat="46.36867" lon="6.73962">
        <ele>1942.080862</ele>
        <time>2022-08-01T12:39:12.936Z</time>
      </trkpt>
      <trkpt lat="46.36861" lon="6.73951">
        <ele>1940.936648</ele>
        <time>2022-08-01T12:39:23.907Z</time>
      </trkpt>
      <trkpt lat="46.36855" lon="6.73941">
        <ele>1940.943086</ele>
        <time>2022-08-01T12:39:32.968Z</time>
      </trkpt>
      <trkpt lat="46.36847" lon="6.73934">
        <ele>1940.949663</ele>
        <time>2022-08-01T12:39:40.937Z</time>
      </trkpt>
      <trkpt lat="46.36839" lon="6.73928">
        <ele>1940.956016</ele>
        <time>2022-08-01T12:39:52.931Z</time>
      </trkpt>
      <trkpt lat="46.3683" lon="6.73921">
        <ele>1940.962779</ele>
        <time>2022-08-01T12:40:08.887Z</time>
      </trkpt>
      <trkpt lat="46.36823" lon="6.73912">
        <ele>1940.969368</ele>
        <time>2022-08-01T12:40:19.861Z</time>
      </trkpt>
      <trkpt lat="46.36817" lon="6.739">
        <ele>1940.976228</ele>
        <time>2022-08-01T12:40:29.866Z</time>
      </trkpt>
      <trkpt lat="46.36812" lon="6.7389">
        <ele>1940.982587</ele>
        <time>2022-08-01T12:40:38.871Z</time>
      </trkpt>
      <trkpt lat="46.36805" lon="6.73881">
        <ele>1940.988966</ele>
        <time>2022-08-01T12:40:48.879Z</time>
      </trkpt>
      <trkpt lat="46.36797" lon="6.73872">
        <ele>1940.995657</ele>
        <time>2022-08-01T12:40:57.872Z</time>
      </trkpt>
      <trkpt lat="46.36791" lon="6.73862">
        <ele>1941.002201</ele>
        <time>2022-08-01T12:41:06.877Z</time>
      </trkpt>
      <trkpt lat="46.36782" lon="6.73856">
        <ele>1941.008826</ele>
        <time>2022-08-01T12:41:18.959Z</time>
      </trkpt>
      <trkpt lat="46.36775" lon="6.73848">
        <ele>1941.015093</ele>
        <time>2022-08-01T12:41:33.928Z</time>
      </trkpt>
      <trkpt lat="46.36766" lon="6.73842">
        <ele>1941.021635</ele>
        <time>2022-08-01T12:41:41.955Z</time>
      </trkpt>
      <trkpt lat="46.36758" lon="6.73837">
        <ele>1941.028139</ele>
        <time>2022-08-01T12:41:48.943Z</time>
      </trkpt>
      <trkpt lat="46.36749" lon="6.73834">
        <ele>1941.03455</ele>
        <time>2022-08-01T12:41:58.946Z</time>
      </trkpt>
      <trkpt lat="46.36738" lon="6.73831">
        <ele>1941.041902</ele>
        <time>2022-08-01T12:46:15.928Z</time>
      </trkpt>
      <trkpt lat="46.36729" lon="6.7383">
        <ele>1941.048222</ele>
        <time>2022-08-01T12:46:38.918Z</time>
      </trkpt>
      <trkpt lat="46.3672" lon="6.73834">
        <ele>1941.054727</ele>
        <time>2022-08-01T12:46:52.940Z</time>
      </trkpt>
      <trkpt lat="46.36712" lon="6.73839">
        <ele>1940.982919</ele>
        <time>2022-08-01T12:47:04.924Z</time>
      </trkpt>
      <trkpt lat="46.36703" lon="6.73839">
        <ele>1937.337066</ele>
        <time>2022-08-01T12:47:21.947Z</time>
      </trkpt>
      <trkpt lat="46.36694" lon="6.73836">
        <ele>1933.682873</ele>
        <time>2022-08-01T12:47:37.972Z</time>
      </trkpt>
      <trkpt lat="46.36682" lon="6.73834">
        <ele>1928.784057</ele>
        <time>2022-08-01T12:48:37.935Z</time>
      </trkpt>
      <trkpt lat="46.36673" lon="6.73837">
        <ele>1925.108573</ele>
        <time>2022-08-01T12:48:49.968Z</time>
      </trkpt>
      <trkpt lat="46.36663" lon="6.7384">
        <ele>1921.111034</ele>
        <time>2022-08-01T12:49:02.930Z</time>
      </trkpt>
      <trkpt lat="46.36654" lon="6.73844">
        <ele>1917.475929</ele>
        <time>2022-08-01T12:49:15.955Z</time>
      </trkpt>
      <trkpt lat="46.36645" lon="6.73849">
        <ele>1913.601248</ele>
        <time>2022-08-01T12:49:30.857Z</time>
      </trkpt>
      <trkpt lat="46.36637" lon="6.73857">
        <ele>1909.648135</ele>
        <time>2022-08-01T12:49:39.934Z</time>
      </trkpt>
      <trkpt lat="46.36629" lon="6.73864">
        <ele>1905.770384</ele>
        <time>2022-08-01T12:49:46.921Z</time>
      </trkpt>
      <trkpt lat="46.3662" lon="6.73868">
        <ele>1902.027246</ele>
        <time>2022-08-01T12:51:56.966Z</time>
      </trkpt>
      <trkpt lat="46.36611" lon="6.73866">
        <ele>1898.390912</ele>
        <time>2022-08-01T12:52:22.962Z</time>
      </trkpt>
      <trkpt lat="46.36602" lon="6.73863">
        <ele>1894.670624</ele>
        <time>2022-08-01T12:52:52.977Z</time>
      </trkpt>
      <trkpt lat="46.36596" lon="6.73853">
        <ele>1890.950905</ele>
        <time>2022-08-01T12:53:15.921Z</time>
      </trkpt>
      <trkpt lat="46.36587" lon="6.73851">
        <ele>1887.270128</ele>
        <time>2022-08-01T12:53:48.947Z</time>
      </trkpt>
      <trkpt lat="46.36578" lon="6.73854">
        <ele>1883.66109</ele>
        <time>2022-08-01T12:54:06.939Z</time>
      </trkpt>
      <trkpt lat="46.36568" lon="6.73855">
        <ele>1879.750308</ele>
        <time>2022-08-01T12:55:11.951Z</time>
      </trkpt>
      <trkpt lat="46.36561" lon="6.73865">
        <ele>1875.826626</ele>
        <time>2022-08-01T12:55:27.957Z</time>
      </trkpt>
      <trkpt lat="46.36556" lon="6.73877">
        <ele>1871.898308</ele>
        <time>2022-08-01T12:55:41.910Z</time>
      </trkpt>
      <trkpt lat="46.36551" lon="6.73889">
        <ele>1868.374226</ele>
        <time>2022-08-01T12:55:53.935Z</time>
      </trkpt>
      <trkpt lat="46.36548" lon="6.73901">
        <ele>1865.435077</ele>
        <time>2022-08-01T12:56:20.940Z</time>
      </trkpt>
      <trkpt lat="46.36544" lon="6.73914">
        <ele>1862.432169</ele>
        <time>2022-08-01T12:56:41.961Z</time>
      </trkpt>
      <trkpt lat="46.36539" lon="6.73925">
        <ele>1859.552953</ele>
        <time>2022-08-01T12:57:14.957Z</time>
      </trkpt>
      <trkpt lat="46.36537" lon="6.73937">
        <ele>1856.636047</ele>
        <time>2022-08-01T12:57:32.973Z</time>
      </trkpt>
      <trkpt lat="46.36536" lon="6.73951">
        <ele>1853.696507</ele>
        <time>2022-08-01T12:57:45.975Z</time>
      </trkpt>
      <trkpt lat="46.36527" lon="6.73963">
        <ele>1849.863554</ele>
        <time>2022-08-01T12:58:44.964Z</time>
      </trkpt>
      <trkpt lat="46.36518" lon="6.7396">
        <ele>1846.976979</ele>
        <time>2022-08-01T12:59:18.963Z</time>
      </trkpt>
      <trkpt lat="46.3651" lon="6.73952">
        <ele>1843.722329</ele>
        <time>2022-08-01T12:59:36.937Z</time>
      </trkpt>
      <trkpt lat="46.36501" lon="6.73947">
        <ele>1840.787042</ele>
        <time>2022-08-01T12:59:45.975Z</time>
      </trkpt>
      <trkpt lat="46.36493" lon="6.73939">
        <ele>1837.590681</ele>
        <time>2022-08-01T12:59:53.941Z</time>
      </trkpt>
      <trkpt lat="46.36486" lon="6.7393">
        <ele>1834.601561</ele>
        <time>2022-08-01T13:00:02.965Z</time>
      </trkpt>
      <trkpt lat="46.36479" lon="6.73921">
        <ele>1831.632546</ele>
        <time>2022-08-01T13:00:09.926Z</time>
      </trkpt>
      <trkpt lat="46.36471" lon="6.73911">
        <ele>1828.281218</ele>
        <time>2022-08-01T13:00:17.983Z</time>
      </trkpt>
      <trkpt lat="46.36464" lon="6.73901">
        <ele>1825.039449</ele>
        <time>2022-08-01T13:00:28.932Z</time>
      </trkpt>
      <trkpt lat="46.36457" lon="6.73893">
        <ele>1822.060478</ele>
        <time>2022-08-01T13:00:35.932Z</time>
      </trkpt>
      <trkpt lat="46.36449" lon="6.73885">
        <ele>1819.112448</ele>
        <time>2022-08-01T13:00:43.944Z</time>
      </trkpt>
      <trkpt lat="46.36439" lon="6.7388">
        <ele>1815.866618</ele>
        <time>2022-08-01T13:04:05.936Z</time>
      </trkpt>
      <trkpt lat="46.36431" lon="6.73873">
        <ele>1812.767353</ele>
        <time>2022-08-01T13:04:14.862Z</time>
      </trkpt>
      <trkpt lat="46.36423" lon="6.73866">
        <ele>1810.525143</ele>
        <time>2022-08-01T13:04:21.929Z</time>
      </trkpt>
      <trkpt lat="46.36415" lon="6.73856">
        <ele>1808.885533</ele>
        <time>2022-08-01T13:04:28.962Z</time>
      </trkpt>
      <trkpt lat="46.36406" lon="6.7385">
        <ele>1807.327742</ele>
        <time>2022-08-01T13:04:36.963Z</time>
      </trkpt>
      <trkpt lat="46.36397" lon="6.73848">
        <ele>1805.741298</ele>
        <time>2022-08-01T13:04:55.954Z</time>
      </trkpt>
      <trkpt lat="46.36395" lon="6.73834">
        <ele>1804.173071</ele>
        <time>2022-08-01T13:05:24.988Z</time>
      </trkpt>
      <trkpt lat="46.36385" lon="6.7382">
        <ele>1801.845093</ele>
        <time>2022-08-01T13:08:55.872Z</time>
      </trkpt>
      <trkpt lat="46.36375" lon="6.73818">
        <ele>1800.280528</ele>
        <time>2022-08-01T13:09:58.878Z</time>
      </trkpt>
      <trkpt lat="46.36366" lon="6.73812">
        <ele>1798.734996</ele>
        <time>2022-08-01T13:10:06.875Z</time>
      </trkpt>
      <trkpt lat="46.36358" lon="6.73804">
        <ele>1797.082136</ele>
        <time>2022-08-01T13:10:48.878Z</time>
      </trkpt>
      <trkpt lat="46.36351" lon="6.73793">
        <ele>1795.451743</ele>
        <time>2022-08-01T13:10:56.874Z</time>
      </trkpt>
      <trkpt lat="46.36343" lon="6.73789">
        <ele>1793.983297</ele>
        <time>2022-08-01T13:11:09.847Z</time>
      </trkpt>
      <trkpt lat="46.36333" lon="6.73784">
        <ele>1792.26814</ele>
        <time>2022-08-01T13:11:27.884Z</time>
      </trkpt>
      <trkpt lat="46.36325" lon="6.73776">
        <ele>1790.681004</ele>
        <time>2022-08-01T13:11:36.866Z</time>
      </trkpt>
      <trkpt lat="46.3632" lon="6.73765">
        <ele>1789.163073</ele>
        <time>2022-08-01T13:11:52.952Z</time>
      </trkpt>
      <trkpt lat="46.36319" lon="6.73751">
        <ele>1787.594667</ele>
        <time>2022-08-01T13:12:07.865Z</time>
      </trkpt>
      <trkpt lat="46.3632" lon="6.73737">
        <ele>1786.026844</ele>
        <time>2022-08-01T13:12:16.861Z</time>
      </trkpt>
      <trkpt lat="46.36321" lon="6.73723">
        <ele>1784.419038</ele>
        <time>2022-08-01T13:12:24.863Z</time>
      </trkpt>
      <trkpt lat="46.36321" lon="6.73709">
        <ele>1782.925625</ele>
        <time>2022-08-01T13:12:32.951Z</time>
      </trkpt>
      <trkpt lat="46.3632" lon="6.73695">
        <ele>1781.318898</ele>
        <time>2022-08-01T13:12:42.934Z</time>
      </trkpt>
      <trkpt lat="46.36317" lon="6.7368">
        <ele>1779.762288</ele>
        <time>2022-08-01T13:12:52.969Z</time>
      </trkpt>
      <trkpt lat="46.36316" lon="6.73667">
        <ele>1778.34154</ele>
        <time>2022-08-01T13:13:00.965Z</time>
      </trkpt>
      <trkpt lat="46.36319" lon="6.73654">
        <ele>1776.929231</ele>
        <time>2022-08-01T13:13:09.952Z</time>
      </trkpt>
      <trkpt lat="46.36323" lon="6.73642">
        <ele>1775.510029</ele>
        <time>2022-08-01T13:13:21.950Z</time>
      </trkpt>
      <trkpt lat="46.36325" lon="6.73628">
        <ele>1773.985552</ele>
        <time>2022-08-01T13:13:39.867Z</time>
      </trkpt>
      <trkpt lat="46.36334" lon="6.73627">
        <ele>1772.556975</ele>
        <time>2022-08-01T13:14:13.877Z</time>
      </trkpt>
      <trkpt lat="46.36343" lon="6.73634">
        <ele>1771.083518</ele>
        <time>2022-08-01T13:14:25.892Z</time>
      </trkpt>
      <trkpt lat="46.36352" lon="6.73637">
        <ele>1769.636167</ele>
        <time>2022-08-01T13:14:41.903Z</time>
      </trkpt>
      <trkpt lat="46.36356" lon="6.73608">
        <ele>1766.529849</ele>
        <time>2022-08-01T13:16:29.880Z</time>
      </trkpt>
      <trkpt lat="46.36352" lon="6.73596">
        <ele>1765.129861</ele>
        <time>2022-08-01T13:16:43.909Z</time>
      </trkpt>
      <trkpt lat="46.36353" lon="6.73583">
        <ele>1763.74077</ele>
        <time>2022-08-01T13:16:55.966Z</time>
      </trkpt>
      <trkpt lat="46.36346" lon="6.73599">
        <ele>1761.759602</ele>
        <time>2022-08-01T13:17:58.875Z</time>
      </trkpt>
      <trkpt lat="46.36349" lon="6.73621">
        <ele>1759.427009</ele>
        <time>2022-08-01T13:19:08.951Z</time>
      </trkpt>
      <trkpt lat="46.36344" lon="6.73635">
        <ele>1757.774477</ele>
        <time>2022-08-01T13:19:42.971Z</time>
      </trkpt>
      <trkpt lat="46.36335" lon="6.73628">
        <ele>1756.268127</ele>
        <time>2022-08-01T13:19:52.941Z</time>
      </trkpt>
      <trkpt lat="46.36329" lon="6.73617">
        <ele>1754.790772</ele>
        <time>2022-08-01T13:20:20.941Z</time>
      </trkpt>
      <trkpt lat="46.36323" lon="6.73607">
        <ele>1752.913411</ele>
        <time>2022-08-01T13:20:30.942Z</time>
      </trkpt>
      <trkpt lat="46.36321" lon="6.73594">
        <ele>1751.081425</ele>
        <time>2022-08-01T13:20:38.966Z</time>
      </trkpt>
      <trkpt lat="46.36319" lon="6.73581">
        <ele>1749.195484</ele>
        <time>2022-08-01T13:20:56.953Z</time>
      </trkpt>
      <trkpt lat="46.36313" lon="6.7357">
        <ele>1747.278637</ele>
        <time>2022-08-01T13:21:05.963Z</time>
      </trkpt>
      <trkpt lat="46.36306" lon="6.73561">
        <ele>1745.450038</ele>
        <time>2022-08-01T13:21:12.941Z</time>
      </trkpt>
      <trkpt lat="46.36298" lon="6.73554">
        <ele>1743.537954</ele>
        <time>2022-08-01T13:21:20.946Z</time>
      </trkpt>
      <trkpt lat="46.36292" lon="6.73544">
        <ele>1741.673902</ele>
        <time>2022-08-01T13:21:28.947Z</time>
      </trkpt>
      <trkpt lat="46.36292" lon="6.73531">
        <ele>1739.850546</ele>
        <time>2022-08-01T13:22:09.886Z</time>
      </trkpt>
      <trkpt lat="46.36286" lon="6.7352">
        <ele>1737.839301</ele>
        <time>2022-08-01T13:22:21.951Z</time>
      </trkpt>
      <trkpt lat="46.36283" lon="6.73507">
        <ele>1736.014109</ele>
        <time>2022-08-01T13:22:35.953Z</time>
      </trkpt>
      <trkpt lat="46.36274" lon="6.735">
        <ele>1733.949058</ele>
        <time>2022-08-01T13:22:53.935Z</time>
      </trkpt>
      <trkpt lat="46.36265" lon="6.73499">
        <ele>1732.015786</ele>
        <time>2022-08-01T13:23:30.923Z</time>
      </trkpt>
      <trkpt lat="46.36263" lon="6.73486">
        <ele>1730.16071</ele>
        <time>2022-08-01T13:24:01.913Z</time>
      </trkpt>
      <trkpt lat="46.36261" lon="6.73499">
        <ele>1728.350388</ele>
        <time>2022-08-01T13:24:49.867Z</time>
      </trkpt>
      <trkpt lat="46.36245" lon="6.73503">
        <ele>1725.146952</ele>
        <time>2022-08-01T13:25:58.983Z</time>
      </trkpt>
      <trkpt lat="46.36236" lon="6.73499">
        <ele>1723.15893</ele>
        <time>2022-08-01T13:26:07.948Z</time>
      </trkpt>
      <trkpt lat="46.36231" lon="6.73488">
        <ele>1721.329955</ele>
        <time>2022-08-01T13:26:17.902Z</time>
      </trkpt>
      <trkpt lat="46.36224" lon="6.73478">
        <ele>1719.433695</ele>
        <time>2022-08-01T13:26:27.942Z</time>
      </trkpt>
      <trkpt lat="46.36211" lon="6.73459">
        <ele>1715.465525</ele>
        <time>2022-08-01T13:27:00.951Z</time>
      </trkpt>
      <trkpt lat="46.36205" lon="6.73449">
        <ele>1713.484947</ele>
        <time>2022-08-01T13:27:08.919Z</time>
      </trkpt>
      <trkpt lat="46.36201" lon="6.73436">
        <ele>1711.402823</ele>
        <time>2022-08-01T13:27:16.941Z</time>
      </trkpt>
      <trkpt lat="46.36197" lon="6.73423">
        <ele>1709.271654</ele>
        <time>2022-08-01T13:27:24.973Z</time>
      </trkpt>
      <trkpt lat="46.36193" lon="6.73411">
        <ele>1707.294952</ele>
        <time>2022-08-01T13:27:32.948Z</time>
      </trkpt>
      <trkpt lat="46.36188" lon="6.73399">
        <ele>1705.205446</ele>
        <time>2022-08-01T13:27:47.940Z</time>
      </trkpt>
      <trkpt lat="46.3618" lon="6.73393">
        <ele>1703.237482</ele>
        <time>2022-08-01T13:28:44.874Z</time>
      </trkpt>
      <trkpt lat="46.36171" lon="6.73387">
        <ele>1701.15553</ele>
        <time>2022-08-01T13:28:54.939Z</time>
      </trkpt>
      <trkpt lat="46.36164" lon="6.73379">
        <ele>1699.166403</ele>
        <time>2022-08-01T13:29:07.943Z</time>
      </trkpt>
      <trkpt lat="46.36156" lon="6.73385">
        <ele>1697.153533</ele>
        <time>2022-08-01T13:29:42.950Z</time>
      </trkpt>
      <trkpt lat="46.36153" lon="6.73372">
        <ele>1695.110456</ele>
        <time>2022-08-01T13:30:02.871Z</time>
      </trkpt>
      <trkpt lat="46.36154" lon="6.73358">
        <ele>1693.016362</ele>
        <time>2022-08-01T13:30:10.928Z</time>
      </trkpt>
      <trkpt lat="46.36149" lon="6.73346">
        <ele>1690.924492</ele>
        <time>2022-08-01T13:30:19.881Z</time>
      </trkpt>
      <trkpt lat="46.36143" lon="6.73336">
        <ele>1688.991699</ele>
        <time>2022-08-01T13:30:29.856Z</time>
      </trkpt>
      <trkpt lat="46.36139" lon="6.73323">
        <ele>1686.860511</ele>
        <time>2022-08-01T13:30:40.912Z</time>
      </trkpt>
      <trkpt lat="46.36145" lon="6.73312">
        <ele>1684.836614</ele>
        <time>2022-08-01T13:31:48.997Z</time>
      </trkpt>
      <trkpt lat="46.36143" lon="6.73299">
        <ele>1682.823399</ele>
        <time>2022-08-01T13:31:58.929Z</time>
      </trkpt>
      <trkpt lat="46.36145" lon="6.73285">
        <ele>1680.665105</ele>
        <time>2022-08-01T13:32:08.949Z</time>
      </trkpt>
      <trkpt lat="46.36151" lon="6.73272">
        <ele>1677.64051</ele>
        <time>2022-08-01T13:32:17.920Z</time>
      </trkpt>
      <trkpt lat="46.36153" lon="6.7326">
        <ele>1674.623358</ele>
        <time>2022-08-01T13:32:30.856Z</time>
      </trkpt>
      <trkpt lat="46.36152" lon="6.73242">
        <ele>1670.533103</ele>
        <time>2022-08-01T13:33:24.879Z</time>
      </trkpt>
      <trkpt lat="46.36156" lon="6.7323">
        <ele>1667.49729</ele>
        <time>2022-08-01T13:33:38.882Z</time>
      </trkpt>
      <trkpt lat="46.36152" lon="6.73218">
        <ele>1664.331136</ele>
        <time>2022-08-01T13:33:58.850Z</time>
      </trkpt>
      <trkpt lat="46.36144" lon="6.73209">
        <ele>1661.108832</ele>
        <time>2022-08-01T13:34:15.861Z</time>
      </trkpt>
      <trkpt lat="46.36137" lon="6.73197">
        <ele>1657.373921</ele>
        <time>2022-08-01T13:35:00.878Z</time>
      </trkpt>
      <trkpt lat="46.36138" lon="6.73184">
        <ele>1654.350486</ele>
        <time>2022-08-01T13:35:11.872Z</time>
      </trkpt>
      <trkpt lat="46.36132" lon="6.73173">
        <ele>1651.125698</ele>
        <time>2022-08-01T13:35:26.862Z</time>
      </trkpt>
      <trkpt lat="46.36134" lon="6.7316">
        <ele>1648.079555</ele>
        <time>2022-08-01T13:35:38.872Z</time>
      </trkpt>
      <trkpt lat="46.36137" lon="6.73148">
        <ele>1645.068451</ele>
        <time>2022-08-01T13:35:53.872Z</time>
      </trkpt>
      <trkpt lat="46.36141" lon="6.73135">
        <ele>1641.977166</ele>
        <time>2022-08-01T13:36:04.864Z</time>
      </trkpt>
      <trkpt lat="46.36138" lon="6.7312">
        <ele>1638.4911</ele>
        <time>2022-08-01T13:36:18.863Z</time>
      </trkpt>
      <trkpt lat="46.36134" lon="6.73109">
        <ele>1635.469538</ele>
        <time>2022-08-01T13:36:37.871Z</time>
      </trkpt>
      <trkpt lat="46.3613" lon="6.73089">
        <ele>1630.689604</ele>
        <time>2022-08-01T13:38:03.952Z</time>
      </trkpt>
      <trkpt lat="46.36136" lon="6.7308">
        <ele>1627.68424</ele>
        <time>2022-08-01T13:38:10.969Z</time>
      </trkpt>
      <trkpt lat="46.36131" lon="6.7307">
        <ele>1624.596303</ele>
        <time>2022-08-01T13:38:34.961Z</time>
      </trkpt>
      <trkpt lat="46.36124" lon="6.73061">
        <ele>1621.424787</ele>
        <time>2022-08-01T13:38:45.953Z</time>
      </trkpt>
      <trkpt lat="46.36116" lon="6.73054">
        <ele>1618.98997</ele>
        <time>2022-08-01T13:38:55.879Z</time>
      </trkpt>
      <trkpt lat="46.36111" lon="6.73042">
        <ele>1616.857452</ele>
        <time>2022-08-01T13:39:07.867Z</time>
      </trkpt>
      <trkpt lat="46.36112" lon="6.73029">
        <ele>1614.844349</ele>
        <time>2022-08-01T13:39:14.864Z</time>
      </trkpt>
      <trkpt lat="46.36115" lon="6.73016">
        <ele>1612.797935</ele>
        <time>2022-08-01T13:39:20.898Z</time>
      </trkpt>
      <trkpt lat="46.3611" lon="6.73004">
        <ele>1610.702352</ele>
        <time>2022-08-01T13:39:30.932Z</time>
      </trkpt>
      <trkpt lat="46.36104" lon="6.72994">
        <ele>1608.657559</ele>
        <time>2022-08-01T13:39:39.870Z</time>
      </trkpt>
      <trkpt lat="46.36097" lon="6.72982">
        <ele>1606.34253</ele>
        <time>2022-08-01T13:39:51.919Z</time>
      </trkpt>
      <trkpt lat="46.36069" lon="6.72943">
        <ele>1597.858071</ele>
        <time>2022-08-01T13:43:38.959Z</time>
      </trkpt>
      <trkpt lat="46.36059" lon="6.72939">
        <ele>1595.531606</ele>
        <time>2022-08-01T13:43:44.951Z</time>
      </trkpt>
      <trkpt lat="46.3605" lon="6.72932">
        <ele>1593.46563</ele>
        <time>2022-08-01T13:43:53.958Z</time>
      </trkpt>
      <trkpt lat="46.36045" lon="6.72919">
        <ele>1591.235385</ele>
        <time>2022-08-01T13:44:04.893Z</time>
      </trkpt>
      <trkpt lat="46.36043" lon="6.72906">
        <ele>1589.11048</ele>
        <time>2022-08-01T13:44:11.935Z</time>
      </trkpt>
      <trkpt lat="46.36042" lon="6.72892">
        <ele>1586.99459</ele>
        <time>2022-08-01T13:44:18.971Z</time>
      </trkpt>
      <trkpt lat="46.3604" lon="6.72878">
        <ele>1584.781241</ele>
        <time>2022-08-01T13:44:28.959Z</time>
      </trkpt>
      <trkpt lat="46.36039" lon="6.72864">
        <ele>1582.726992</ele>
        <time>2022-08-01T13:44:36.965Z</time>
      </trkpt>
      <trkpt lat="46.36035" lon="6.72851">
        <ele>1580.609806</ele>
        <time>2022-08-01T13:44:43.947Z</time>
      </trkpt>
      <trkpt lat="46.36037" lon="6.72839">
        <ele>1578.300205</ele>
        <time>2022-08-01T13:44:55.909Z</time>
      </trkpt>
      <trkpt lat="46.36038" lon="6.72809">
        <ele>1573.046122</ele>
        <time>2022-08-01T13:46:27.958Z</time>
      </trkpt>
      <trkpt lat="46.36042" lon="6.7275">
        <ele>1562.569328</ele>
        <time>2022-08-01T13:47:55.940Z</time>
      </trkpt>
      <trkpt lat="46.3604" lon="6.72736">
        <ele>1560.122213</ele>
        <time>2022-08-01T13:48:08.935Z</time>
      </trkpt>
      <trkpt lat="46.36037" lon="6.72724">
        <ele>1557.80787</ele>
        <time>2022-08-01T13:48:28.966Z</time>
      </trkpt>
      <trkpt lat="46.36017" lon="6.72701">
        <ele>1551.150599</ele>
        <time>2022-08-01T13:50:07.981Z</time>
      </trkpt>
      <trkpt lat="46.3601" lon="6.72692">
        <ele>1548.792602</ele>
        <time>2022-08-01T13:50:19.940Z</time>
      </trkpt>
      <trkpt lat="46.36004" lon="6.72663">
        <ele>1543.365594</ele>
        <time>2022-08-01T13:51:41.938Z</time>
      </trkpt>
      <trkpt lat="46.36006" lon="6.72648">
        <ele>1540.725054</ele>
        <time>2022-08-01T13:51:53.885Z</time>
      </trkpt>
      <trkpt lat="46.3601" lon="6.72635">
        <ele>1538.308704</ele>
        <time>2022-08-01T13:52:06.945Z</time>
      </trkpt>
      <trkpt lat="46.36012" lon="6.72621">
        <ele>1535.740268</ele>
        <time>2022-08-01T13:52:14.968Z</time>
      </trkpt>
      <trkpt lat="46.36011" lon="6.72607">
        <ele>1533.817239</ele>
        <time>2022-08-01T13:52:21.938Z</time>
      </trkpt>
      <trkpt lat="46.3601" lon="6.72592">
        <ele>1532.233946</ele>
        <time>2022-08-01T13:52:29.947Z</time>
      </trkpt>
      <trkpt lat="46.36012" lon="6.72578">
        <ele>1530.725965</ele>
        <time>2022-08-01T13:52:35.950Z</time>
      </trkpt>
      <trkpt lat="46.36021" lon="6.72555">
        <ele>1527.875504</ele>
        <time>2022-08-01T13:53:26.872Z</time>
      </trkpt>
      <trkpt lat="46.36024" lon="6.72542">
        <ele>1526.424214</ele>
        <time>2022-08-01T13:53:49.949Z</time>
      </trkpt>
      <trkpt lat="46.36026" lon="6.72528">
        <ele>1524.907988</ele>
        <time>2022-08-01T13:53:59.949Z</time>
      </trkpt>
      <trkpt lat="46.36028" lon="6.72514">
        <ele>1523.376519</ele>
        <time>2022-08-01T13:54:10.939Z</time>
      </trkpt>
      <trkpt lat="46.36025" lon="6.72502">
        <ele>1521.991283</ele>
        <time>2022-08-01T13:54:22.952Z</time>
      </trkpt>
      <trkpt lat="46.36021" lon="6.7249">
        <ele>1520.549223</ele>
        <time>2022-08-01T13:54:37.921Z</time>
      </trkpt>
      <trkpt lat="46.36021" lon="6.72476">
        <ele>1519.154125</ele>
        <time>2022-08-01T13:54:47.920Z</time>
      </trkpt>
      <trkpt lat="46.36021" lon="6.72463">
        <ele>1517.759368</ele>
        <time>2022-08-01T13:55:14.852Z</time>
      </trkpt>
      <trkpt lat="46.36021" lon="6.7244">
        <ele>1515.225383</ele>
        <time>2022-08-01T13:57:07.960Z</time>
      </trkpt>
      <trkpt lat="46.36018" lon="6.72425">
        <ele>1513.588832</ele>
        <time>2022-08-01T13:57:16.944Z</time>
      </trkpt>
      <trkpt lat="46.36018" lon="6.7241">
        <ele>1512.001228</ele>
        <time>2022-08-01T13:57:24.942Z</time>
      </trkpt>
      <trkpt lat="46.36011" lon="6.72398">
        <ele>1510.370725</ele>
        <time>2022-08-01T13:57:31.958Z</time>
      </trkpt>
      <trkpt lat="46.36002" lon="6.72396">
        <ele>1508.888137</ele>
        <time>2022-08-01T13:57:43.950Z</time>
      </trkpt>
      <trkpt lat="46.35992" lon="6.72399">
        <ele>1507.411749</ele>
        <time>2022-08-01T13:57:53.939Z</time>
      </trkpt>
      <trkpt lat="46.35984" lon="6.72391">
        <ele>1506.105174</ele>
        <time>2022-08-01T13:58:04.954Z</time>
      </trkpt>
      <trkpt lat="46.35976" lon="6.72384">
        <ele>1504.979012</ele>
        <time>2022-08-01T13:58:11.935Z</time>
      </trkpt>
      <trkpt lat="46.35972" lon="6.72371">
        <ele>1503.775187</ele>
        <time>2022-08-01T13:58:19.943Z</time>
      </trkpt>
      <trkpt lat="46.35965" lon="6.72359">
        <ele>1502.545403</ele>
        <time>2022-08-01T13:58:26.940Z</time>
      </trkpt>
      <trkpt lat="46.3596" lon="6.72348">
        <ele>1501.355183</ele>
        <time>2022-08-01T13:58:34.957Z</time>
      </trkpt>
      <trkpt lat="46.35953" lon="6.72337">
        <ele>1500.10777</ele>
        <time>2022-08-01T13:58:40.959Z</time>
      </trkpt>
      <trkpt lat="46.35946" lon="6.72326">
        <ele>1498.893515</ele>
        <time>2022-08-01T13:58:45.951Z</time>
      </trkpt>
      <trkpt lat="46.3594" lon="6.72315">
        <ele>1497.721816</ele>
        <time>2022-08-01T13:58:52.974Z</time>
      </trkpt>
      <trkpt lat="46.35935" lon="6.72302">
        <ele>1496.480836</ele>
        <time>2022-08-01T13:58:59.911Z</time>
      </trkpt>
      <trkpt lat="46.35928" lon="6.72294">
        <ele>1495.38344</ele>
        <time>2022-08-01T13:59:07.962Z</time>
      </trkpt>
      <trkpt lat="46.3592" lon="6.72285">
        <ele>1494.158739</ele>
        <time>2022-08-01T13:59:15.948Z</time>
      </trkpt>
      <trkpt lat="46.3591" lon="6.72281">
        <ele>1492.917851</ele>
        <time>2022-08-01T13:59:22.961Z</time>
      </trkpt>
      <trkpt lat="46.35901" lon="6.72275">
        <ele>1491.693329</ele>
        <time>2022-08-01T13:59:29.954Z</time>
      </trkpt>
      <trkpt lat="46.35893" lon="6.72268">
        <ele>1490.469121</ele>
        <time>2022-08-01T13:59:37.940Z</time>
      </trkpt>
      <trkpt lat="46.35885" lon="6.72259">
        <ele>1489.314825</ele>
        <time>2022-08-01T13:59:45.914Z</time>
      </trkpt>
      <trkpt lat="46.3587" lon="6.72241">
        <ele>1486.889592</ele>
        <time>2022-08-01T14:00:53.945Z</time>
      </trkpt>
      <trkpt lat="46.35863" lon="6.72231">
        <ele>1485.727433</ele>
        <time>2022-08-01T14:01:03.951Z</time>
      </trkpt>
      <trkpt lat="46.3586" lon="6.72219">
        <ele>1485.117862</ele>
        <time>2022-08-01T14:01:14.976Z</time>
      </trkpt>
      <trkpt lat="46.35865" lon="6.72196">
        <ele>1485.117862</ele>
        <time>2022-08-01T14:01:45.991Z</time>
      </trkpt>
      <trkpt lat="46.35869" lon="6.72183">
        <ele>1485.117862</ele>
        <time>2022-08-01T14:01:54.958Z</time>
      </trkpt>
      <trkpt lat="46.35877" lon="6.72173">
        <ele>1485.117862</ele>
        <time>2022-08-01T14:02:03.901Z</time>
      </trkpt>
      <trkpt lat="46.35884" lon="6.72164">
        <ele>1485.117862</ele>
        <time>2022-08-01T14:02:11.936Z</time>
      </trkpt>
      <trkpt lat="46.35889" lon="6.72152">
        <ele>1485.117862</ele>
        <time>2022-08-01T14:02:18.973Z</time>
      </trkpt>
      <trkpt lat="46.35891" lon="6.72138">
        <ele>1485.117862</ele>
        <time>2022-08-01T14:02:26.876Z</time>
      </trkpt>
      <trkpt lat="46.3589" lon="6.72123">
        <ele>1485.117862</ele>
        <time>2022-08-01T14:02:33.868Z</time>
      </trkpt>
      <trkpt lat="46.3589" lon="6.7211">
        <ele>1485.117862</ele>
        <time>2022-08-01T14:02:57.887Z</time>
      </trkpt>
      <trkpt lat="46.3589" lon="6.72095">
        <ele>1485.117862</ele>
        <time>2022-08-01T14:03:27.859Z</time>
      </trkpt>
      <trkpt lat="46.3589" lon="6.72081">
        <ele>1485.117862</ele>
        <time>2022-08-01T14:03:37.875Z</time>
      </trkpt>
      <trkpt lat="46.35891" lon="6.72068">
        <ele>1485.117862</ele>
        <time>2022-08-01T14:03:44.930Z</time>
      </trkpt>
      <trkpt lat="46.35891" lon="6.72054">
        <ele>1485.117862</ele>
        <time>2022-08-01T14:03:52.894Z</time>
      </trkpt>
      <trkpt lat="46.3589" lon="6.72038">
        <ele>1485.117862</ele>
        <time>2022-08-01T14:04:00.957Z</time>
      </trkpt>
      <trkpt lat="46.35888" lon="6.72024">
        <ele>1485.117862</ele>
        <time>2022-08-01T14:04:08.891Z</time>
      </trkpt>
      <trkpt lat="46.35891" lon="6.72011">
        <ele>1485.117862</ele>
        <time>2022-08-01T14:04:16.974Z</time>
      </trkpt>
      <trkpt lat="46.35903" lon="6.71999">
        <ele>1485.117862</ele>
        <time>2022-08-01T14:05:25.956Z</time>
      </trkpt>
      <trkpt lat="46.35912" lon="6.72001">
        <ele>1485.117862</ele>
        <time>2022-08-01T14:05:35.949Z</time>
      </trkpt>
      <trkpt lat="46.35922" lon="6.72003">
        <ele>1485.117862</ele>
        <time>2022-08-01T14:05:43.962Z</time>
      </trkpt>
      <trkpt lat="46.3593" lon="6.71998">
        <ele>1485.117862</ele>
        <time>2022-08-01T14:05:53.891Z</time>
      </trkpt>
      <trkpt lat="46.35943" lon="6.71992">
        <ele>1485.117862</ele>
        <time>2022-08-01T14:10:13.139Z</time>
      </trkpt>
    </trkseg>
  </trk>
  <trk>
    <name><![CDATA[Randonnée]]></name>
    <extensions>
      <line xmlns="http://www.topografix.com/GPX/gpx_style/0/2">
        <color>00FF00</color>
        <width>4</width>
      </line>
    </extensions>
    <trkseg>
      <trkpt lat="46.3594" lon="6.71999">
        <ele>1457.206551</ele>
        <time>2022-08-01T14:12:43.308Z</time>
      </trkpt>
      <trkpt lat="46.35948" lon="6.71982">
        <ele>1457.206551</ele>
        <time>2022-08-01T14:14:26.856Z</time>
      </trkpt>
      <trkpt lat="46.35952" lon="6.71969">
        <ele>1457.206551</ele>
        <time>2022-08-01T14:14:34.859Z</time>
      </trkpt>
      <trkpt lat="46.35953" lon="6.71955">
        <ele>1457.206551</ele>
        <time>2022-08-01T14:14:44.856Z</time>
      </trkpt>
      <trkpt lat="46.35958" lon="6.71944">
        <ele>1457.206551</ele>
        <time>2022-08-01T14:14:59.873Z</time>
      </trkpt>
      <trkpt lat="46.35964" lon="6.71927">
        <ele>1457.206551</ele>
        <time>2022-08-01T14:15:40.854Z</time>
      </trkpt>
      <trkpt lat="46.35972" lon="6.71922">
        <ele>1457.206551</ele>
        <time>2022-08-01T14:15:49.847Z</time>
      </trkpt>
      <trkpt lat="46.35988" lon="6.71905">
        <ele>1457.206551</ele>
        <time>2022-08-01T14:16:27.852Z</time>
      </trkpt>
      <trkpt lat="46.35986" lon="6.71891">
        <ele>1456.98757</ele>
        <time>2022-08-01T14:16:35.848Z</time>
      </trkpt>
      <trkpt lat="46.35985" lon="6.71877">
        <ele>1456.430174</ele>
        <time>2022-08-01T14:16:44.867Z</time>
      </trkpt>
      <trkpt lat="46.35982" lon="6.71865">
        <ele>1455.887398</ele>
        <time>2022-08-01T14:16:52.867Z</time>
      </trkpt>
      <trkpt lat="46.35975" lon="6.71854">
        <ele>1455.307068</ele>
        <time>2022-08-01T14:16:58.878Z</time>
      </trkpt>
      <trkpt lat="46.35967" lon="6.71847">
        <ele>1454.777893</ele>
        <time>2022-08-01T14:17:06.869Z</time>
      </trkpt>
      <trkpt lat="46.35958" lon="6.71843">
        <ele>1454.20722</ele>
        <time>2022-08-01T14:17:15.866Z</time>
      </trkpt>
      <trkpt lat="46.3595" lon="6.71834">
        <ele>1453.64638</ele>
        <time>2022-08-01T14:17:24.854Z</time>
      </trkpt>
      <trkpt lat="46.35944" lon="6.71822">
        <ele>1453.047661</ele>
        <time>2022-08-01T14:17:31.872Z</time>
      </trkpt>
      <trkpt lat="46.35939" lon="6.7181">
        <ele>1452.485241</ele>
        <time>2022-08-01T14:17:39.865Z</time>
      </trkpt>
      <trkpt lat="46.35933" lon="6.71799">
        <ele>1451.895751</ele>
        <time>2022-08-01T14:17:49.866Z</time>
      </trkpt>
      <trkpt lat="46.35925" lon="6.7179">
        <ele>1451.337646</ele>
        <time>2022-08-01T14:17:57.873Z</time>
      </trkpt>
      <trkpt lat="46.35919" lon="6.71779">
        <ele>1450.778075</ele>
        <time>2022-08-01T14:18:05.877Z</time>
      </trkpt>
      <trkpt lat="46.35913" lon="6.71768">
        <ele>1450.206836</ele>
        <time>2022-08-01T14:18:19.864Z</time>
      </trkpt>
      <trkpt lat="46.35907" lon="6.71758">
        <ele>1449.669377</ele>
        <time>2022-08-01T14:18:26.889Z</time>
      </trkpt>
      <trkpt lat="46.359" lon="6.71749">
        <ele>1449.144955</ele>
        <time>2022-08-01T14:18:33.871Z</time>
      </trkpt>
      <trkpt lat="46.35892" lon="6.71743">
        <ele>1448.604237</ele>
        <time>2022-08-01T14:18:42.866Z</time>
      </trkpt>
      <trkpt lat="46.35883" lon="6.71738">
        <ele>1448.077425</ele>
        <time>2022-08-01T14:18:51.870Z</time>
      </trkpt>
      <trkpt lat="46.35874" lon="6.71741">
        <ele>1447.506218</ele>
        <time>2022-08-01T14:18:59.863Z</time>
      </trkpt>
      <trkpt lat="46.35864" lon="6.7174">
        <ele>1446.949627</ele>
        <time>2022-08-01T14:19:07.869Z</time>
      </trkpt>
      <trkpt lat="46.35855" lon="6.71736">
        <ele>1446.217352</ele>
        <time>2022-08-01T14:19:15.863Z</time>
      </trkpt>
      <trkpt lat="46.35848" lon="6.71726">
        <ele>1445.273879</ele>
        <time>2022-08-01T14:19:24.859Z</time>
      </trkpt>
      <trkpt lat="46.35842" lon="6.71715">
        <ele>1444.403777</ele>
        <time>2022-08-01T14:19:31.865Z</time>
      </trkpt>
      <trkpt lat="46.35836" lon="6.71704">
        <ele>1443.482065</ele>
        <time>2022-08-01T14:19:38.863Z</time>
      </trkpt>
      <trkpt lat="46.35831" lon="6.71693">
        <ele>1442.638685</ele>
        <time>2022-08-01T14:19:45.856Z</time>
      </trkpt>
      <trkpt lat="46.35825" lon="6.71683">
        <ele>1441.803645</ele>
        <time>2022-08-01T14:19:51.870Z</time>
      </trkpt>
      <trkpt lat="46.3582" lon="6.71671">
        <ele>1440.933924</ele>
        <time>2022-08-01T14:19:58.870Z</time>
      </trkpt>
      <trkpt lat="46.35815" lon="6.71659">
        <ele>1440.011337</ele>
        <time>2022-08-01T14:20:08.874Z</time>
      </trkpt>
      <trkpt lat="46.3581" lon="6.71647">
        <ele>1439.133461</ele>
        <time>2022-08-01T14:20:16.855Z</time>
      </trkpt>
      <trkpt lat="46.35809" lon="6.71632">
        <ele>1438.201619</ele>
        <time>2022-08-01T14:20:28.872Z</time>
      </trkpt>
      <trkpt lat="46.35805" lon="6.7162">
        <ele>1437.312991</ele>
        <time>2022-08-01T14:20:34.865Z</time>
      </trkpt>
      <trkpt lat="46.35798" lon="6.71611">
        <ele>1436.486347</ele>
        <time>2022-08-01T14:20:41.875Z</time>
      </trkpt>
      <trkpt lat="46.35792" lon="6.71601">
        <ele>1435.635218</ele>
        <time>2022-08-01T14:20:50.864Z</time>
      </trkpt>
      <trkpt lat="46.35783" lon="6.71595">
        <ele>1434.729889</ele>
        <time>2022-08-01T14:20:58.864Z</time>
      </trkpt>
      <trkpt lat="46.35774" lon="6.71592">
        <ele>1433.901926</ele>
        <time>2022-08-01T14:21:05.857Z</time>
      </trkpt>
      <trkpt lat="46.35765" lon="6.71588">
        <ele>1432.957952</ele>
        <time>2022-08-01T14:21:13.874Z</time>
      </trkpt>
      <trkpt lat="46.35757" lon="6.71579">
        <ele>1432.08251</ele>
        <time>2022-08-01T14:21:26.884Z</time>
      </trkpt>
      <trkpt lat="46.35744" lon="6.71576">
        <ele>1430.83251</ele>
        <time>2022-08-01T14:21:59.876Z</time>
      </trkpt>
      <trkpt lat="46.35735" lon="6.71572">
        <ele>1429.826624</ele>
        <time>2022-08-01T14:22:07.874Z</time>
      </trkpt>
      <trkpt lat="46.35727" lon="6.71564">
        <ele>1428.311352</ele>
        <time>2022-08-01T14:22:14.860Z</time>
      </trkpt>
      <trkpt lat="46.35721" lon="6.71554">
        <ele>1426.835331</ele>
        <time>2022-08-01T14:22:22.879Z</time>
      </trkpt>
      <trkpt lat="46.35715" lon="6.71544">
        <ele>1425.430133</ele>
        <time>2022-08-01T14:22:28.870Z</time>
      </trkpt>
      <trkpt lat="46.35708" lon="6.71535">
        <ele>1423.928039</ele>
        <time>2022-08-01T14:22:36.868Z</time>
      </trkpt>
      <trkpt lat="46.357" lon="6.71527">
        <ele>1422.432367</ele>
        <time>2022-08-01T14:22:52.881Z</time>
      </trkpt>
      <trkpt lat="46.35691" lon="6.71522">
        <ele>1420.930387</ele>
        <time>2022-08-01T14:23:02.876Z</time>
      </trkpt>
      <trkpt lat="46.35683" lon="6.71512">
        <ele>1419.283734</ele>
        <time>2022-08-01T14:23:11.869Z</time>
      </trkpt>
      <trkpt lat="46.35677" lon="6.71502">
        <ele>1417.780814</ele>
        <time>2022-08-01T14:23:19.877Z</time>
      </trkpt>
      <trkpt lat="46.35671" lon="6.7149">
        <ele>1416.197573</ele>
        <time>2022-08-01T14:23:28.867Z</time>
      </trkpt>
      <trkpt lat="46.35665" lon="6.71479">
        <ele>1414.638197</ele>
        <time>2022-08-01T14:23:35.880Z</time>
      </trkpt>
      <trkpt lat="46.3566" lon="6.71467">
        <ele>1413.169072</ele>
        <time>2022-08-01T14:23:44.871Z</time>
      </trkpt>
      <trkpt lat="46.35655" lon="6.71455">
        <ele>1411.731636</ele>
        <time>2022-08-01T14:24:00.886Z</time>
      </trkpt>
      <trkpt lat="46.35648" lon="6.71446">
        <ele>1410.214318</ele>
        <time>2022-08-01T14:24:12.862Z</time>
      </trkpt>
      <trkpt lat="46.35639" lon="6.71442">
        <ele>1408.797035</ele>
        <time>2022-08-01T14:24:23.876Z</time>
      </trkpt>
      <trkpt lat="46.35631" lon="6.71437">
        <ele>1407.351183</ele>
        <time>2022-08-01T14:24:32.876Z</time>
      </trkpt>
      <trkpt lat="46.35623" lon="6.71428">
        <ele>1405.826994</ele>
        <time>2022-08-01T14:24:40.871Z</time>
      </trkpt>
      <trkpt lat="46.35614" lon="6.71422">
        <ele>1404.22471</ele>
        <time>2022-08-01T14:24:48.870Z</time>
      </trkpt>
      <trkpt lat="46.35604" lon="6.71423">
        <ele>1402.700026</ele>
        <time>2022-08-01T14:24:58.879Z</time>
      </trkpt>
      <trkpt lat="46.35594" lon="6.71421">
        <ele>1401.523393</ele>
        <time>2022-08-01T14:25:08.889Z</time>
      </trkpt>
      <trkpt lat="46.35586" lon="6.71418">
        <ele>1400.670637</ele>
        <time>2022-08-01T14:25:19.869Z</time>
      </trkpt>
      <trkpt lat="46.35576" lon="6.71414">
        <ele>1399.723719</ele>
        <time>2022-08-01T14:25:29.877Z</time>
      </trkpt>
      <trkpt lat="46.35566" lon="6.71413">
        <ele>1398.817022</ele>
        <time>2022-08-01T14:25:41.880Z</time>
      </trkpt>
      <trkpt lat="46.35558" lon="6.71406">
        <ele>1397.888266</ele>
        <time>2022-08-01T14:25:49.870Z</time>
      </trkpt>
      <trkpt lat="46.35551" lon="6.71394">
        <ele>1396.876419</ele>
        <time>2022-08-01T14:25:57.873Z</time>
      </trkpt>
      <trkpt lat="46.35544" lon="6.71385">
        <ele>1396.012032</ele>
        <time>2022-08-01T14:26:03.862Z</time>
      </trkpt>
      <trkpt lat="46.35539" lon="6.71374">
        <ele>1395.159254</ele>
        <time>2022-08-01T14:26:11.869Z</time>
      </trkpt>
      <trkpt lat="46.35536" lon="6.71362">
        <ele>1394.275968</ele>
        <time>2022-08-01T14:26:19.863Z</time>
      </trkpt>
      <trkpt lat="46.35532" lon="6.71348">
        <ele>1393.358702</ele>
        <time>2022-08-01T14:26:27.869Z</time>
      </trkpt>
      <trkpt lat="46.35529" lon="6.71335">
        <ele>1392.438608</ele>
        <time>2022-08-01T14:26:36.880Z</time>
      </trkpt>
      <trkpt lat="46.35525" lon="6.71322">
        <ele>1391.541144</ele>
        <time>2022-08-01T14:26:47.885Z</time>
      </trkpt>
      <trkpt lat="46.3552" lon="6.71311">
        <ele>1390.619531</ele>
        <time>2022-08-01T14:26:55.892Z</time>
      </trkpt>
      <trkpt lat="46.35513" lon="6.71302">
        <ele>1389.757705</ele>
        <time>2022-08-01T14:27:03.872Z</time>
      </trkpt>
      <trkpt lat="46.35506" lon="6.71291">
        <ele>1388.787415</ele>
        <time>2022-08-01T14:27:13.870Z</time>
      </trkpt>
      <trkpt lat="46.355" lon="6.7128">
        <ele>1387.897528</ele>
        <time>2022-08-01T14:27:20.889Z</time>
      </trkpt>
      <trkpt lat="46.35492" lon="6.71272">
        <ele>1386.944955</ele>
        <time>2022-08-01T14:27:27.874Z</time>
      </trkpt>
      <trkpt lat="46.35484" lon="6.71264">
        <ele>1386.016075</ele>
        <time>2022-08-01T14:27:34.865Z</time>
      </trkpt>
      <trkpt lat="46.35475" lon="6.71257">
        <ele>1385.020512</ele>
        <time>2022-08-01T14:27:42.870Z</time>
      </trkpt>
      <trkpt lat="46.35468" lon="6.71249">
        <ele>1383.672735</ele>
        <time>2022-08-01T14:27:53.870Z</time>
      </trkpt>
      <trkpt lat="46.3546" lon="6.71241">
        <ele>1382.274522</ele>
        <time>2022-08-01T14:28:01.856Z</time>
      </trkpt>
      <trkpt lat="46.35452" lon="6.71234">
        <ele>1380.870057</ele>
        <time>2022-08-01T14:28:09.866Z</time>
      </trkpt>
      <trkpt lat="46.35442" lon="6.71229">
        <ele>1379.332714</ele>
        <time>2022-08-01T14:28:17.884Z</time>
      </trkpt>
      <trkpt lat="46.35433" lon="6.71224">
        <ele>1377.961446</ele>
        <time>2022-08-01T14:28:29.884Z</time>
      </trkpt>
      <trkpt lat="46.35424" lon="6.71219">
        <ele>1376.594795</ele>
        <time>2022-08-01T14:28:37.898Z</time>
      </trkpt>
      <trkpt lat="46.35415" lon="6.71216">
        <ele>1375.179404</ele>
        <time>2022-08-01T14:28:45.895Z</time>
      </trkpt>
      <trkpt lat="46.35406" lon="6.71211">
        <ele>1373.780777</ele>
        <time>2022-08-01T14:28:56.888Z</time>
      </trkpt>
      <trkpt lat="46.35397" lon="6.71213">
        <ele>1372.325085</ele>
        <time>2022-08-01T14:29:03.896Z</time>
      </trkpt>
      <trkpt lat="46.35387" lon="6.71212">
        <ele>1370.840442</ele>
        <time>2022-08-01T14:29:09.893Z</time>
      </trkpt>
      <trkpt lat="46.35378" lon="6.71208">
        <ele>1369.465356</ele>
        <time>2022-08-01T14:29:16.895Z</time>
      </trkpt>
      <trkpt lat="46.35369" lon="6.712">
        <ele>1367.981763</ele>
        <time>2022-08-01T14:29:25.874Z</time>
      </trkpt>
      <trkpt lat="46.35361" lon="6.71194">
        <ele>1366.639308</ele>
        <time>2022-08-01T14:29:33.890Z</time>
      </trkpt>
      <trkpt lat="46.35352" lon="6.71189">
        <ele>1365.27376</ele>
        <time>2022-08-01T14:29:41.888Z</time>
      </trkpt>
      <trkpt lat="46.35343" lon="6.71186">
        <ele>1363.879909</ele>
        <time>2022-08-01T14:29:50.869Z</time>
      </trkpt>
      <trkpt lat="46.35334" lon="6.71186">
        <ele>1362.477095</ele>
        <time>2022-08-01T14:30:06.897Z</time>
      </trkpt>
      <trkpt lat="46.35325" lon="6.7118">
        <ele>1361.094934</ele>
        <time>2022-08-01T14:30:13.879Z</time>
      </trkpt>
      <trkpt lat="46.35319" lon="6.71171">
        <ele>1359.750452</ele>
        <time>2022-08-01T14:30:24.894Z</time>
      </trkpt>
      <trkpt lat="46.35309" lon="6.71169">
        <ele>1358.142225</ele>
        <time>2022-08-01T14:30:35.903Z</time>
      </trkpt>
      <trkpt lat="46.353" lon="6.71162">
        <ele>1355.883453</ele>
        <time>2022-08-01T14:30:45.893Z</time>
      </trkpt>
      <trkpt lat="46.3529" lon="6.71153">
        <ele>1353.395326</ele>
        <time>2022-08-01T14:32:06.940Z</time>
      </trkpt>
      <trkpt lat="46.35281" lon="6.71154">
        <ele>1351.281886</ele>
        <time>2022-08-01T14:32:14.928Z</time>
      </trkpt>
      <trkpt lat="46.35273" lon="6.71135">
        <ele>1347.871057</ele>
        <time>2022-08-01T14:34:28.953Z</time>
      </trkpt>
      <trkpt lat="46.35275" lon="6.71122">
        <ele>1345.789209</ele>
        <time>2022-08-01T14:34:35.936Z</time>
      </trkpt>
      <trkpt lat="46.35284" lon="6.71115">
        <ele>1343.598752</ele>
        <time>2022-08-01T14:34:46.944Z</time>
      </trkpt>
      <trkpt lat="46.35292" lon="6.7111">
        <ele>1341.575979</ele>
        <time>2022-08-01T14:34:56.934Z</time>
      </trkpt>
      <trkpt lat="46.35302" lon="6.71107">
        <ele>1339.423679</ele>
        <time>2022-08-01T14:35:08.907Z</time>
      </trkpt>
      <trkpt lat="46.35312" lon="6.71109">
        <ele>1337.213682</ele>
        <time>2022-08-01T14:35:17.939Z</time>
      </trkpt>
      <trkpt lat="46.35321" lon="6.71109">
        <ele>1335.079182</ele>
        <time>2022-08-01T14:35:27.923Z</time>
      </trkpt>
      <trkpt lat="46.35326" lon="6.71097">
        <ele>1333.031626</ele>
        <time>2022-08-01T14:35:36.951Z</time>
      </trkpt>
      <trkpt lat="46.35328" lon="6.71083">
        <ele>1330.786286</ele>
        <time>2022-08-01T14:35:44.946Z</time>
      </trkpt>
      <trkpt lat="46.35331" lon="6.71069">
        <ele>1328.647808</ele>
        <time>2022-08-01T14:35:53.955Z</time>
      </trkpt>
      <trkpt lat="46.35334" lon="6.71057">
        <ele>1326.593948</ele>
        <time>2022-08-01T14:36:01.967Z</time>
      </trkpt>
      <trkpt lat="46.35337" lon="6.71045">
        <ele>1324.575949</ele>
        <time>2022-08-01T14:36:08.939Z</time>
      </trkpt>
      <trkpt lat="46.35339" lon="6.71032">
        <ele>1322.556428</ele>
        <time>2022-08-01T14:36:14.954Z</time>
      </trkpt>
      <trkpt lat="46.35341" lon="6.71018">
        <ele>1320.402977</ele>
        <time>2022-08-01T14:36:23.925Z</time>
      </trkpt>
      <trkpt lat="46.35343" lon="6.71004">
        <ele>1318.327316</ele>
        <time>2022-08-01T14:36:32.955Z</time>
      </trkpt>
      <trkpt lat="46.35342" lon="6.70991">
        <ele>1316.632086</ele>
        <time>2022-08-01T14:36:41.932Z</time>
      </trkpt>
      <trkpt lat="46.35374" lon="6.70963">
        <ele>1310.057449</ele>
        <time>2022-08-01T14:39:49.937Z</time>
      </trkpt>
      <trkpt lat="46.35383" lon="6.7096">
        <ele>1308.334732</ele>
        <time>2022-08-01T14:39:58.898Z</time>
      </trkpt>
      <trkpt lat="46.35392" lon="6.70952">
        <ele>1306.517409</ele>
        <time>2022-08-01T14:40:05.930Z</time>
      </trkpt>
      <trkpt lat="46.35399" lon="6.70941">
        <ele>1304.681889</ele>
        <time>2022-08-01T14:40:14.906Z</time>
      </trkpt>
      <trkpt lat="46.35404" lon="6.7093">
        <ele>1303.030333</ele>
        <time>2022-08-01T14:40:22.917Z</time>
      </trkpt>
      <trkpt lat="46.35411" lon="6.70921">
        <ele>1301.315627</ele>
        <time>2022-08-01T14:40:38.948Z</time>
      </trkpt>
      <trkpt lat="46.35415" lon="6.70909">
        <ele>1299.648946</ele>
        <time>2022-08-01T14:40:45.867Z</time>
      </trkpt>
      <trkpt lat="46.35419" lon="6.70896">
        <ele>1297.945661</ele>
        <time>2022-08-01T14:40:51.900Z</time>
      </trkpt>
      <trkpt lat="46.35421" lon="6.70883">
        <ele>1296.341707</ele>
        <time>2022-08-01T14:40:57.930Z</time>
      </trkpt>
      <trkpt lat="46.35422" lon="6.7087">
        <ele>1294.694527</ele>
        <time>2022-08-01T14:41:06.927Z</time>
      </trkpt>
      <trkpt lat="46.35422" lon="6.70856">
        <ele>1293.029893</ele>
        <time>2022-08-01T14:41:15.939Z</time>
      </trkpt>
      <trkpt lat="46.35421" lon="6.70843">
        <ele>1291.342582</ele>
        <time>2022-08-01T14:41:24.938Z</time>
      </trkpt>
      <trkpt lat="46.35417" lon="6.70831">
        <ele>1289.676785</ele>
        <time>2022-08-01T14:41:39.947Z</time>
      </trkpt>
      <trkpt lat="46.35414" lon="6.70818">
        <ele>1287.963978</ele>
        <time>2022-08-01T14:41:50.941Z</time>
      </trkpt>
      <trkpt lat="46.35414" lon="6.70805">
        <ele>1286.29138</ele>
        <time>2022-08-01T14:42:00.932Z</time>
      </trkpt>
      <trkpt lat="46.35414" lon="6.70791">
        <ele>1283.894378</ele>
        <time>2022-08-01T14:42:08.913Z</time>
      </trkpt>
      <trkpt lat="46.35415" lon="6.70777">
        <ele>1281.459219</ele>
        <time>2022-08-01T14:42:17.933Z</time>
      </trkpt>
      <trkpt lat="46.35415" lon="6.70763">
        <ele>1279.079847</ele>
        <time>2022-08-01T14:42:23.935Z</time>
      </trkpt>
      <trkpt lat="46.35414" lon="6.70748">
        <ele>1276.416203</ele>
        <time>2022-08-01T14:42:30.894Z</time>
      </trkpt>
      <trkpt lat="46.35414" lon="6.70734">
        <ele>1273.913849</ele>
        <time>2022-08-01T14:42:38.915Z</time>
      </trkpt>
      <trkpt lat="46.35415" lon="6.70721">
        <ele>1271.569115</ele>
        <time>2022-08-01T14:42:45.914Z</time>
      </trkpt>
      <trkpt lat="46.35416" lon="6.70706">
        <ele>1269.014287</ele>
        <time>2022-08-01T14:42:59.913Z</time>
      </trkpt>
      <trkpt lat="46.35418" lon="6.70692">
        <ele>1266.507489</ele>
        <time>2022-08-01T14:43:10.923Z</time>
      </trkpt>
      <trkpt lat="46.35422" lon="6.7068">
        <ele>1264.229378</ele>
        <time>2022-08-01T14:43:18.955Z</time>
      </trkpt>
      <trkpt lat="46.35419" lon="6.70668">
        <ele>1261.838841</ele>
        <time>2022-08-01T14:43:29.930Z</time>
      </trkpt>
      <trkpt lat="46.35413" lon="6.70644">
        <ele>1257.42301</ele>
        <time>2022-08-01T14:44:38.948Z</time>
      </trkpt>
      <trkpt lat="46.35414" lon="6.70631">
        <ele>1255.128359</ele>
        <time>2022-08-01T14:44:47.918Z</time>
      </trkpt>
      <trkpt lat="46.35411" lon="6.70618">
        <ele>1252.795851</ele>
        <time>2022-08-01T14:44:55.936Z</time>
      </trkpt>
      <trkpt lat="46.35396" lon="6.70547">
        <ele>1239.579407</ele>
        <time>2022-08-01T14:47:10.924Z</time>
      </trkpt>
      <trkpt lat="46.35387" lon="6.70477">
        <ele>1224.746621</ele>
        <time>2022-08-01T14:49:55.918Z</time>
      </trkpt>
      <trkpt lat="46.35384" lon="6.70463">
        <ele>1221.725903</ele>
        <time>2022-08-01T14:50:07.945Z</time>
      </trkpt>
      <trkpt lat="46.35378" lon="6.70453">
        <ele>1218.875695</ele>
        <time>2022-08-01T14:50:21.877Z</time>
      </trkpt>
      <trkpt lat="46.35375" lon="6.70439">
        <ele>1215.961947</ele>
        <time>2022-08-01T14:50:33.940Z</time>
      </trkpt>
      <trkpt lat="46.35367" lon="6.70413">
        <ele>1209.92454</ele>
        <time>2022-08-01T14:51:25.947Z</time>
      </trkpt>
      <trkpt lat="46.35365" lon="6.704">
        <ele>1207.190783</ele>
        <time>2022-08-01T14:51:36.932Z</time>
      </trkpt>
      <trkpt lat="46.35367" lon="6.70387">
        <ele>1204.401611</ele>
        <time>2022-08-01T14:51:47.962Z</time>
      </trkpt>
      <trkpt lat="46.35376" lon="6.70386">
        <ele>1201.594623</ele>
        <time>2022-08-01T14:51:55.959Z</time>
      </trkpt>
      <trkpt lat="46.35387" lon="6.70369">
        <ele>1196.790407</ele>
        <time>2022-08-01T14:53:08.938Z</time>
      </trkpt>
      <trkpt lat="46.35383" lon="6.70357">
        <ele>1193.916545</ele>
        <time>2022-08-01T14:53:15.933Z</time>
      </trkpt>
      <trkpt lat="46.3538" lon="6.70344">
        <ele>1190.970792</ele>
        <time>2022-08-01T14:53:25.965Z</time>
      </trkpt>
      <trkpt lat="46.35375" lon="6.70332">
        <ele>1188.156037</ele>
        <time>2022-08-01T14:53:33.943Z</time>
      </trkpt>
      <trkpt lat="46.35371" lon="6.7032">
        <ele>1186.205005</ele>
        <time>2022-08-01T14:53:43.927Z</time>
      </trkpt>
      <trkpt lat="46.35362" lon="6.70316">
        <ele>1185.167739</ele>
        <time>2022-08-01T14:53:56.947Z</time>
      </trkpt>
      <trkpt lat="46.35354" lon="6.70321">
        <ele>1184.123385</ele>
        <time>2022-08-01T14:54:03.930Z</time>
      </trkpt>
      <trkpt lat="46.35346" lon="6.70329">
        <ele>1183.022372</ele>
        <time>2022-08-01T14:54:10.954Z</time>
      </trkpt>
      <trkpt lat="46.35339" lon="6.70338">
        <ele>1181.969315</ele>
        <time>2022-08-01T14:54:19.937Z</time>
      </trkpt>
      <trkpt lat="46.35331" lon="6.70346">
        <ele>1180.961726</ele>
        <time>2022-08-01T14:54:28.951Z</time>
      </trkpt>
      <trkpt lat="46.35323" lon="6.70354">
        <ele>1179.855467</ele>
        <time>2022-08-01T14:54:36.959Z</time>
      </trkpt>
      <trkpt lat="46.35314" lon="6.7036">
        <ele>1178.700749</ele>
        <time>2022-08-01T14:54:44.942Z</time>
      </trkpt>
      <trkpt lat="46.35305" lon="6.70367">
        <ele>1177.593639</ele>
        <time>2022-08-01T14:54:53.949Z</time>
      </trkpt>
      <trkpt lat="46.35289" lon="6.70379">
        <ele>1175.564544</ele>
        <time>2022-08-01T14:55:45.939Z</time>
      </trkpt>
      <trkpt lat="46.3528" lon="6.70383">
        <ele>1174.52396</ele>
        <time>2022-08-01T14:55:58.971Z</time>
      </trkpt>
      <trkpt lat="46.35271" lon="6.7039">
        <ele>1173.419851</ele>
        <time>2022-08-01T14:56:06.935Z</time>
      </trkpt>
      <trkpt lat="46.35262" lon="6.70397">
        <ele>1172.320749</ele>
        <time>2022-08-01T14:56:14.943Z</time>
      </trkpt>
      <trkpt lat="46.35254" lon="6.70402">
        <ele>1171.286174</ele>
        <time>2022-08-01T14:56:22.939Z</time>
      </trkpt>
      <trkpt lat="46.35244" lon="6.70402">
        <ele>1170.203623</ele>
        <time>2022-08-01T14:56:33.960Z</time>
      </trkpt>
      <trkpt lat="46.35235" lon="6.70406">
        <ele>1169.127725</ele>
        <time>2022-08-01T14:56:46.939Z</time>
      </trkpt>
      <trkpt lat="46.35225" lon="6.70402">
        <ele>1167.982548</ele>
        <time>2022-08-01T14:56:53.956Z</time>
      </trkpt>
      <trkpt lat="46.35225" lon="6.70386">
        <ele>1166.813092</ele>
        <time>2022-08-01T14:57:02.927Z</time>
      </trkpt>
      <trkpt lat="46.35228" lon="6.70373">
        <ele>1166.065331</ele>
        <time>2022-08-01T14:57:10.915Z</time>
      </trkpt>
      <trkpt lat="46.3523" lon="6.7036">
        <ele>1165.392254</ele>
        <time>2022-08-01T14:57:20.948Z</time>
      </trkpt>
      <trkpt lat="46.35232" lon="6.70346">
        <ele>1164.703675</ele>
        <time>2022-08-01T14:57:29.951Z</time>
      </trkpt>
      <trkpt lat="46.35232" lon="6.70331">
        <ele>1164.009732</ele>
        <time>2022-08-01T14:57:37.950Z</time>
      </trkpt>
      <trkpt lat="46.35232" lon="6.70318">
        <ele>1163.340992</ele>
        <time>2022-08-01T14:57:48.950Z</time>
      </trkpt>
      <trkpt lat="46.35233" lon="6.70305">
        <ele>1162.704126</ele>
        <time>2022-08-01T14:58:05.960Z</time>
      </trkpt>
      <trkpt lat="46.35241" lon="6.70279">
        <ele>1161.321027</ele>
        <time>2022-08-01T14:58:29.934Z</time>
      </trkpt>
      <trkpt lat="46.35244" lon="6.70267">
        <ele>1160.682303</ele>
        <time>2022-08-01T14:58:38.922Z</time>
      </trkpt>
      <trkpt lat="46.35251" lon="6.70258">
        <ele>1160.040397</ele>
        <time>2022-08-01T14:58:45.906Z</time>
      </trkpt>
      <trkpt lat="46.3526" lon="6.70252">
        <ele>1159.364591</ele>
        <time>2022-08-01T14:59:02.988Z</time>
      </trkpt>
      <trkpt lat="46.35269" lon="6.7025">
        <ele>1158.709603</ele>
        <time>2022-08-01T14:59:10.940Z</time>
      </trkpt>
      <trkpt lat="46.35272" lon="6.70238">
        <ele>1158.070092</ele>
        <time>2022-08-01T14:59:26.961Z</time>
      </trkpt>
      <trkpt lat="46.35275" lon="6.70207">
        <ele>1156.579378</ele>
        <time>2022-08-01T15:00:22.932Z</time>
      </trkpt>
      <trkpt lat="46.35278" lon="6.70194">
        <ele>1155.908944</ele>
        <time>2022-08-01T15:00:34.940Z</time>
      </trkpt>
      <trkpt lat="46.35303" lon="6.70186">
        <ele>1154.057694</ele>
        <time>2022-08-01T15:01:16.934Z</time>
      </trkpt>
      <trkpt lat="46.35344" lon="6.70168">
        <ele>1149.571653</ele>
        <time>2022-08-01T15:02:20.962Z</time>
      </trkpt>
      <trkpt lat="46.35353" lon="6.70163">
        <ele>1148.529614</ele>
        <time>2022-08-01T15:02:31.946Z</time>
      </trkpt>
      <trkpt lat="46.35361" lon="6.70155">
        <ele>1147.481275</ele>
        <time>2022-08-01T15:02:38.916Z</time>
      </trkpt>
      <trkpt lat="46.35368" lon="6.70146">
        <ele>1146.429472</ele>
        <time>2022-08-01T15:02:46.928Z</time>
      </trkpt>
      <trkpt lat="46.35386" lon="6.70142">
        <ele>1144.46828</ele>
        <time>2022-08-01T15:03:44.918Z</time>
      </trkpt>
      <trkpt lat="46.35393" lon="6.70133">
        <ele>1143.465298</ele>
        <time>2022-08-01T15:04:08.936Z</time>
      </trkpt>
      <trkpt lat="46.35403" lon="6.7013">
        <ele>1142.385019</ele>
        <time>2022-08-01T15:04:16.897Z</time>
      </trkpt>
      <trkpt lat="46.3542" lon="6.70111">
        <ele>1140.051862</ele>
        <time>2022-08-01T15:05:06.951Z</time>
      </trkpt>
      <trkpt lat="46.35425" lon="6.70099">
        <ele>1138.993792</ele>
        <time>2022-08-01T15:05:17.945Z</time>
      </trkpt>
      <trkpt lat="46.35431" lon="6.70088">
        <ele>1137.984963</ele>
        <time>2022-08-01T15:05:24.914Z</time>
      </trkpt>
      <trkpt lat="46.35439" lon="6.70081">
        <ele>1137.012381</ele>
        <time>2022-08-01T15:05:29.949Z</time>
      </trkpt>
      <trkpt lat="46.35445" lon="6.70071">
        <ele>1136.000202</ele>
        <time>2022-08-01T15:05:36.938Z</time>
      </trkpt>
      <trkpt lat="46.35453" lon="6.70063">
        <ele>1134.944468</ele>
        <time>2022-08-01T15:05:42.942Z</time>
      </trkpt>
      <trkpt lat="46.35462" lon="6.70059">
        <ele>1133.757759</ele>
        <time>2022-08-01T15:05:53.935Z</time>
      </trkpt>
      <trkpt lat="46.35469" lon="6.70049">
        <ele>1132.395576</ele>
        <time>2022-08-01T15:06:04.948Z</time>
      </trkpt>
      <trkpt lat="46.35476" lon="6.7004">
        <ele>1131.040564</ele>
        <time>2022-08-01T15:06:18.942Z</time>
      </trkpt>
      <trkpt lat="46.35485" lon="6.70033">
        <ele>1129.586421</ele>
        <time>2022-08-01T15:06:31.962Z</time>
      </trkpt>
      <trkpt lat="46.35493" lon="6.70024">
        <ele>1128.056556</ele>
        <time>2022-08-01T15:06:41.909Z</time>
      </trkpt>
      <trkpt lat="46.35502" lon="6.70018">
        <ele>1126.717137</ele>
        <time>2022-08-01T15:06:51.943Z</time>
      </trkpt>
      <trkpt lat="46.35524" lon="6.70004">
        <ele>1123.211992</ele>
        <time>2022-08-01T15:07:36.923Z</time>
      </trkpt>
      <trkpt lat="46.35531" lon="6.69996">
        <ele>1121.857754</ele>
        <time>2022-08-01T15:07:46.909Z</time>
      </trkpt>
      <trkpt lat="46.35541" lon="6.69995">
        <ele>1120.530321</ele>
        <time>2022-08-01T15:08:03.957Z</time>
      </trkpt>
      <trkpt lat="46.35549" lon="6.70001">
        <ele>1119.227989</ele>
        <time>2022-08-01T15:08:16.936Z</time>
      </trkpt>
      <trkpt lat="46.35555" lon="6.6999">
        <ele>1117.810448</ele>
        <time>2022-08-01T15:08:36.918Z</time>
      </trkpt>
      <trkpt lat="46.35561" lon="6.6998">
        <ele>1116.420956</ele>
        <time>2022-08-01T15:08:44.962Z</time>
      </trkpt>
      <trkpt lat="46.35567" lon="6.69968">
        <ele>1114.955382</ele>
        <time>2022-08-01T15:08:51.915Z</time>
      </trkpt>
      <trkpt lat="46.35572" lon="6.69957">
        <ele>1113.644571</ele>
        <time>2022-08-01T15:09:00.941Z</time>
      </trkpt>
      <trkpt lat="46.35577" lon="6.69946">
        <ele>1112.326276</ele>
        <time>2022-08-01T15:09:12.925Z</time>
      </trkpt>
      <trkpt lat="46.35585" lon="6.69937">
        <ele>1110.982591</ele>
        <time>2022-08-01T15:09:23.957Z</time>
      </trkpt>
      <trkpt lat="46.35592" lon="6.69927">
        <ele>1109.558651</ele>
        <time>2022-08-01T15:09:30.926Z</time>
      </trkpt>
      <trkpt lat="46.35598" lon="6.69918">
        <ele>1108.338017</ele>
        <time>2022-08-01T15:09:38.922Z</time>
      </trkpt>
      <trkpt lat="46.35603" lon="6.69907">
        <ele>1107.272172</ele>
        <time>2022-08-01T15:09:48.954Z</time>
      </trkpt>
      <trkpt lat="46.35607" lon="6.69894">
        <ele>1106.174912</ele>
        <time>2022-08-01T15:10:00.940Z</time>
      </trkpt>
      <trkpt lat="46.35611" lon="6.6988">
        <ele>1104.967147</ele>
        <time>2022-08-01T15:10:08.935Z</time>
      </trkpt>
      <trkpt lat="46.35616" lon="6.69868">
        <ele>1103.898014</ele>
        <time>2022-08-01T15:10:14.946Z</time>
      </trkpt>
      <trkpt lat="46.35621" lon="6.69857">
        <ele>1102.800058</ele>
        <time>2022-08-01T15:10:23.936Z</time>
      </trkpt>
      <trkpt lat="46.35625" lon="6.69844">
        <ele>1101.730883</ele>
        <time>2022-08-01T15:10:29.942Z</time>
      </trkpt>
      <trkpt lat="46.3563" lon="6.69832">
        <ele>1100.638541</ele>
        <time>2022-08-01T15:10:35.961Z</time>
      </trkpt>
      <trkpt lat="46.35633" lon="6.69819">
        <ele>1099.514928</ele>
        <time>2022-08-01T15:10:43.923Z</time>
      </trkpt>
      <trkpt lat="46.3563" lon="6.69805">
        <ele>1098.408566</ele>
        <time>2022-08-01T15:11:17.952Z</time>
      </trkpt>
      <trkpt lat="46.35634" lon="6.69793">
        <ele>1097.349427</ele>
        <time>2022-08-01T15:11:31.932Z</time>
      </trkpt>
      <trkpt lat="46.35638" lon="6.69779">
        <ele>1096.124124</ele>
        <time>2022-08-01T15:11:39.944Z</time>
      </trkpt>
      <trkpt lat="46.35638" lon="6.69764">
        <ele>1094.987376</ele>
        <time>2022-08-01T15:11:46.925Z</time>
      </trkpt>
      <trkpt lat="46.35639" lon="6.6975">
        <ele>1093.843841</ele>
        <time>2022-08-01T15:11:52.914Z</time>
      </trkpt>
      <trkpt lat="46.35643" lon="6.69737">
        <ele>1092.765653</ele>
        <time>2022-08-01T15:11:58.893Z</time>
      </trkpt>
      <trkpt lat="46.3565" lon="6.69727">
        <ele>1091.66551</ele>
        <time>2022-08-01T15:12:09.942Z</time>
      </trkpt>
      <trkpt lat="46.35658" lon="6.6972">
        <ele>1090.610496</ele>
        <time>2022-08-01T15:12:18.933Z</time>
      </trkpt>
      <trkpt lat="46.35663" lon="6.69709">
        <ele>1089.512009</ele>
        <time>2022-08-01T15:12:25.916Z</time>
      </trkpt>
      <trkpt lat="46.35669" lon="6.69696">
        <ele>1088.329586</ele>
        <time>2022-08-01T15:12:36.927Z</time>
      </trkpt>
      <trkpt lat="46.35672" lon="6.69683">
        <ele>1087.510257</ele>
        <time>2022-08-01T15:12:43.951Z</time>
      </trkpt>
      <trkpt lat="46.35675" lon="6.69671">
        <ele>1086.824943</ele>
        <time>2022-08-01T15:12:50.949Z</time>
      </trkpt>
      <trkpt lat="46.35678" lon="6.69658">
        <ele>1086.12979</ele>
        <time>2022-08-01T15:12:58.969Z</time>
      </trkpt>
      <trkpt lat="46.35679" lon="6.69644">
        <ele>1085.390977</ele>
        <time>2022-08-01T15:13:06.983Z</time>
      </trkpt>
      <trkpt lat="46.35679" lon="6.6963">
        <ele>1084.69141</ele>
        <time>2022-08-01T15:13:13.954Z</time>
      </trkpt>
      <trkpt lat="46.3568" lon="6.69617">
        <ele>1083.998271</ele>
        <time>2022-08-01T15:13:24.875Z</time>
      </trkpt>
      <trkpt lat="46.35683" lon="6.69603">
        <ele>1083.292329</ele>
        <time>2022-08-01T15:13:32.906Z</time>
      </trkpt>
      <trkpt lat="46.35684" lon="6.69588">
        <ele>1082.515759</ele>
        <time>2022-08-01T15:13:38.952Z</time>
      </trkpt>
      <trkpt lat="46.35686" lon="6.69575">
        <ele>1081.812244</ele>
        <time>2022-08-01T15:13:45.940Z</time>
      </trkpt>
      <trkpt lat="46.35696" lon="6.69546">
        <ele>1080.131259</ele>
        <time>2022-08-01T15:14:17.962Z</time>
      </trkpt>
      <trkpt lat="46.35702" lon="6.69536">
        <ele>1079.439649</ele>
        <time>2022-08-01T15:14:23.915Z</time>
      </trkpt>
      <trkpt lat="46.35709" lon="6.69526">
        <ele>1078.745802</ele>
        <time>2022-08-01T15:14:31.935Z</time>
      </trkpt>
      <trkpt lat="46.35716" lon="6.69517">
        <ele>1078.059535</ele>
        <time>2022-08-01T15:14:37.930Z</time>
      </trkpt>
      <trkpt lat="46.35717" lon="6.69503">
        <ele>1077.310603</ele>
        <time>2022-08-01T15:14:47.926Z</time>
      </trkpt>
      <trkpt lat="46.35714" lon="6.6949">
        <ele>1076.575906</ele>
        <time>2022-08-01T15:14:58.965Z</time>
      </trkpt>
      <trkpt lat="46.3571" lon="6.69477">
        <ele>1075.865084</ele>
        <time>2022-08-01T15:15:07.957Z</time>
      </trkpt>
      <trkpt lat="46.35711" lon="6.69463">
        <ele>1075.144681</ele>
        <time>2022-08-01T15:15:24.947Z</time>
      </trkpt>
      <trkpt lat="46.35713" lon="6.6945">
        <ele>1074.496101</ele>
        <time>2022-08-01T15:15:33.947Z</time>
      </trkpt>
      <trkpt lat="46.35712" lon="6.69436">
        <ele>1073.951142</ele>
        <time>2022-08-01T15:15:44.926Z</time>
      </trkpt>
      <trkpt lat="46.3571" lon="6.69422">
        <ele>1073.37422</ele>
        <time>2022-08-01T15:15:53.974Z</time>
      </trkpt>
      <trkpt lat="46.35711" lon="6.69408">
        <ele>1072.794115</ele>
        <time>2022-08-01T15:16:00.950Z</time>
      </trkpt>
      <trkpt lat="46.35711" lon="6.69395">
        <ele>1072.258164</ele>
        <time>2022-08-01T15:16:16.936Z</time>
      </trkpt>
      <trkpt lat="46.3571" lon="6.69379">
        <ele>1071.640078</ele>
        <time>2022-08-01T15:16:21.960Z</time>
      </trkpt>
      <trkpt lat="46.35708" lon="6.69366">
        <ele>1071.104325</ele>
        <time>2022-08-01T15:16:29.933Z</time>
      </trkpt>
      <trkpt lat="46.3571" lon="6.69353">
        <ele>1070.561313</ele>
        <time>2022-08-01T15:16:41.911Z</time>
      </trkpt>
      <trkpt lat="46.3571" lon="6.69331">
        <ele>1069.684898</ele>
        <time>2022-08-01T15:17:18.943Z</time>
      </trkpt>
      <trkpt lat="46.35712" lon="6.69316">
        <ele>1069.062031</ele>
        <time>2022-08-01T15:17:24.930Z</time>
      </trkpt>
      <trkpt lat="46.35716" lon="6.69303">
        <ele>1068.518438</ele>
        <time>2022-08-01T15:17:30.875Z</time>
      </trkpt>
      <trkpt lat="46.35721" lon="6.69291">
        <ele>1067.939467</ele>
        <time>2022-08-01T15:17:40.953Z</time>
      </trkpt>
      <trkpt lat="46.35729" lon="6.69284">
        <ele>1067.385379</ele>
        <time>2022-08-01T15:17:46.912Z</time>
      </trkpt>
      <trkpt lat="46.35738" lon="6.69281">
        <ele>1066.857509</ele>
        <time>2022-08-01T15:17:54.929Z</time>
      </trkpt>
      <trkpt lat="46.35746" lon="6.69275">
        <ele>1066.326045</ele>
        <time>2022-08-01T15:18:02.940Z</time>
      </trkpt>
      <trkpt lat="46.35746" lon="6.69261">
        <ele>1065.779472</ele>
        <time>2022-08-01T15:18:10.950Z</time>
      </trkpt>
      <trkpt lat="46.35744" lon="6.69248">
        <ele>1065.216922</ele>
        <time>2022-08-01T15:18:18.923Z</time>
      </trkpt>
      <trkpt lat="46.35748" lon="6.69234">
        <ele>1064.626796</ele>
        <time>2022-08-01T15:18:25.954Z</time>
      </trkpt>
      <trkpt lat="46.35755" lon="6.69226">
        <ele>1064.17322</ele>
        <time>2022-08-01T15:18:33.954Z</time>
      </trkpt>
      <trkpt lat="46.35764" lon="6.6922">
        <ele>1064.101441</ele>
        <time>2022-08-01T15:18:41.925Z</time>
      </trkpt>
      <trkpt lat="46.35773" lon="6.69219">
        <ele>1064.031873</ele>
        <time>2022-08-01T15:18:48.940Z</time>
      </trkpt>
      <trkpt lat="46.35783" lon="6.69219">
        <ele>1063.96417</ele>
        <time>2022-08-01T15:19:02.939Z</time>
      </trkpt>
      <trkpt lat="46.35792" lon="6.69215">
        <ele>1063.894467</ele>
        <time>2022-08-01T15:19:11.948Z</time>
      </trkpt>
      <trkpt lat="46.35798" lon="6.69205">
        <ele>1063.824715</ele>
        <time>2022-08-01T15:19:18.926Z</time>
      </trkpt>
      <trkpt lat="46.3579" lon="6.6919">
        <ele>1063.728275</ele>
        <time>2022-08-01T15:20:07.951Z</time>
      </trkpt>
      <trkpt lat="46.35782" lon="6.69184">
        <ele>1063.658704</ele>
        <time>2022-08-01T15:20:17.941Z</time>
      </trkpt>
      <trkpt lat="46.35771" lon="6.69181">
        <ele>1063.577839</ele>
        <time>2022-08-01T15:20:35.919Z</time>
      </trkpt>
      <trkpt lat="46.35761" lon="6.69181">
        <ele>1063.507218</ele>
        <time>2022-08-01T15:20:40.938Z</time>
      </trkpt>
      <trkpt lat="46.35754" lon="6.69173">
        <ele>1063.441371</ele>
        <time>2022-08-01T15:20:52.975Z</time>
      </trkpt>
      <trkpt lat="46.35749" lon="6.69162">
        <ele>1063.375209</ele>
        <time>2022-08-01T15:21:00.914Z</time>
      </trkpt>
      <trkpt lat="46.3575" lon="6.69149">
        <ele>1063.309212</ele>
        <time>2022-08-01T15:21:07.923Z</time>
      </trkpt>
      <trkpt lat="46.35752" lon="6.69136">
        <ele>1063.241962</ele>
        <time>2022-08-01T15:21:17.962Z</time>
      </trkpt>
      <trkpt lat="46.35754" lon="6.69122">
        <ele>1063.170132</ele>
        <time>2022-08-01T15:21:25.926Z</time>
      </trkpt>
      <trkpt lat="46.35752" lon="6.69108">
        <ele>1063.100268</ele>
        <time>2022-08-01T15:21:32.895Z</time>
      </trkpt>
      <trkpt lat="46.35751" lon="6.69095">
        <ele>1063.032968</ele>
        <time>2022-08-01T15:21:39.930Z</time>
      </trkpt>
      <trkpt lat="46.35751" lon="6.69081">
        <ele>1062.963071</ele>
        <time>2022-08-01T15:21:47.904Z</time>
      </trkpt>
      <trkpt lat="46.35748" lon="6.69068">
        <ele>1062.895551</ele>
        <time>2022-08-01T15:21:55.893Z</time>
      </trkpt>
      <trkpt lat="46.35745" lon="6.69056">
        <ele>1062.519572</ele>
        <time>2022-08-01T15:22:03.928Z</time>
      </trkpt>
      <trkpt lat="46.35743" lon="6.69043">
        <ele>1062.018619</ele>
        <time>2022-08-01T15:22:10.908Z</time>
      </trkpt>
      <trkpt lat="46.35739" lon="6.69031">
        <ele>1061.511831</ele>
        <time>2022-08-01T15:22:17.876Z</time>
      </trkpt>
      <trkpt lat="46.35734" lon="6.69018">
        <ele>1060.950617</ele>
        <time>2022-08-01T15:22:25.899Z</time>
      </trkpt>
      <trkpt lat="46.35726" lon="6.6901">
        <ele>1060.396043</ele>
        <time>2022-08-01T15:22:34.955Z</time>
      </trkpt>
      <trkpt lat="46.35718" lon="6.69002">
        <ele>1059.868475</ele>
        <time>2022-08-01T15:22:41.954Z</time>
      </trkpt>
      <trkpt lat="46.3571" lon="6.68994">
        <ele>1059.365524</ele>
        <time>2022-08-01T15:22:49.928Z</time>
      </trkpt>
      <trkpt lat="46.35703" lon="6.68985">
        <ele>1058.832707</ele>
        <time>2022-08-01T15:22:58.885Z</time>
      </trkpt>
      <trkpt lat="46.35693" lon="6.68969">
        <ele>1058.021245</ele>
        <time>2022-08-01T15:23:28.893Z</time>
      </trkpt>
      <trkpt lat="46.35689" lon="6.68955">
        <ele>1057.470662</ele>
        <time>2022-08-01T15:24:02.944Z</time>
      </trkpt>
      <trkpt lat="46.35684" lon="6.68939">
        <ele>1056.768757</ele>
        <time>2022-08-01T15:25:39.963Z</time>
      </trkpt>
      <trkpt lat="46.35683" lon="6.68924">
        <ele>1056.218559</ele>
        <time>2022-08-01T15:25:45.921Z</time>
      </trkpt>
      <trkpt lat="46.35679" lon="6.68911">
        <ele>1055.671708</ele>
        <time>2022-08-01T15:25:53.908Z</time>
      </trkpt>
      <trkpt lat="46.35676" lon="6.68897">
        <ele>1055.128193</ele>
        <time>2022-08-01T15:26:02.925Z</time>
      </trkpt>
      <trkpt lat="46.35676" lon="6.68879">
        <ele>1054.44505</ele>
        <time>2022-08-01T15:27:30.878Z</time>
      </trkpt>
      <trkpt lat="46.35676" lon="6.68866">
        <ele>1053.936484</ele>
        <time>2022-08-01T15:27:36.864Z</time>
      </trkpt>
      <trkpt lat="46.35675" lon="6.68851">
        <ele>1053.367386</ele>
        <time>2022-08-01T15:27:43.863Z</time>
      </trkpt>
      <trkpt lat="46.35675" lon="6.68836">
        <ele>1052.757432</ele>
        <time>2022-08-01T15:27:51.890Z</time>
      </trkpt>
      <trkpt lat="46.35676" lon="6.68822">
        <ele>1052.09038</ele>
        <time>2022-08-01T15:27:58.938Z</time>
      </trkpt>
      <trkpt lat="46.35675" lon="6.68809">
        <ele>1051.408249</ele>
        <time>2022-08-01T15:28:05.869Z</time>
      </trkpt>
      <trkpt lat="46.35673" lon="6.68794">
        <ele>1050.682684</ele>
        <time>2022-08-01T15:28:12.949Z</time>
      </trkpt>
      <trkpt lat="46.35672" lon="6.68781">
        <ele>1050.013521</ele>
        <time>2022-08-01T15:28:19.907Z</time>
      </trkpt>
      <trkpt lat="46.35672" lon="6.68767">
        <ele>1049.371275</ele>
        <time>2022-08-01T15:28:35.928Z</time>
      </trkpt>
      <trkpt lat="46.3567" lon="6.68753">
        <ele>1048.655202</ele>
        <time>2022-08-01T15:28:41.881Z</time>
      </trkpt>
      <trkpt lat="46.3567" lon="6.6874">
        <ele>1048.012602</ele>
        <time>2022-08-01T15:28:49.895Z</time>
      </trkpt>
      <trkpt lat="46.35672" lon="6.68725">
        <ele>1047.269148</ele>
        <time>2022-08-01T15:28:56.921Z</time>
      </trkpt>
      <trkpt lat="46.35673" lon="6.68712">
        <ele>1046.614937</ele>
        <time>2022-08-01T15:29:02.870Z</time>
      </trkpt>
      <trkpt lat="46.35674" lon="6.68699">
        <ele>1045.970147</ele>
        <time>2022-08-01T15:29:10.914Z</time>
      </trkpt>
      <trkpt lat="46.35671" lon="6.68685">
        <ele>1045.26865</ele>
        <time>2022-08-01T15:29:19.878Z</time>
      </trkpt>
      <trkpt lat="46.35672" lon="6.68671">
        <ele>1044.565959</ele>
        <time>2022-08-01T15:29:26.948Z</time>
      </trkpt>
      <trkpt lat="46.35675" lon="6.68659">
        <ele>1043.924704</ele>
        <time>2022-08-01T15:29:32.963Z</time>
      </trkpt>
      <trkpt lat="46.35676" lon="6.68645">
        <ele>1043.231777</ele>
        <time>2022-08-01T15:29:42.945Z</time>
      </trkpt>
      <trkpt lat="46.35676" lon="6.68631">
        <ele>1042.546041</ele>
        <time>2022-08-01T15:29:57.937Z</time>
      </trkpt>
      <trkpt lat="46.35677" lon="6.68615">
        <ele>1041.774993</ele>
        <time>2022-08-01T15:30:05.959Z</time>
      </trkpt>
      <trkpt lat="46.35679" lon="6.68601">
        <ele>1041.079555</ele>
        <time>2022-08-01T15:30:12.952Z</time>
      </trkpt>
      <trkpt lat="46.35682" lon="6.68587">
        <ele>1040.366533</ele>
        <time>2022-08-01T15:30:19.908Z</time>
      </trkpt>
      <trkpt lat="46.35683" lon="6.68572">
        <ele>1039.660542</ele>
        <time>2022-08-01T15:30:25.879Z</time>
      </trkpt>
      <trkpt lat="46.35683" lon="6.68558">
        <ele>1039.005827</ele>
        <time>2022-08-01T15:30:36.983Z</time>
      </trkpt>
      <trkpt lat="46.35687" lon="6.68546">
        <ele>1038.380107</ele>
        <time>2022-08-01T15:30:44.913Z</time>
      </trkpt>
      <trkpt lat="46.3569" lon="6.68531">
        <ele>1037.68033</ele>
        <time>2022-08-01T15:30:51.921Z</time>
      </trkpt>
      <trkpt lat="46.35694" lon="6.68519">
        <ele>1037.034794</ele>
        <time>2022-08-01T15:30:57.981Z</time>
      </trkpt>
      <trkpt lat="46.35698" lon="6.68506">
        <ele>1036.357408</ele>
        <time>2022-08-01T15:31:05.930Z</time>
      </trkpt>
      <trkpt lat="46.35703" lon="6.68495">
        <ele>1035.720014</ele>
        <time>2022-08-01T15:31:14.971Z</time>
      </trkpt>
      <trkpt lat="46.35709" lon="6.68483">
        <ele>1035.063813</ele>
        <time>2022-08-01T15:31:21.972Z</time>
      </trkpt>
      <trkpt lat="46.35714" lon="6.68472">
        <ele>1034.438279</ele>
        <time>2022-08-01T15:31:29.952Z</time>
      </trkpt>
      <trkpt lat="46.35719" lon="6.6846">
        <ele>1033.777769</ele>
        <time>2022-08-01T15:31:46.926Z</time>
      </trkpt>
      <trkpt lat="46.35717" lon="6.68447">
        <ele>1033.161887</ele>
        <time>2022-08-01T15:31:53.982Z</time>
      </trkpt>
      <trkpt lat="46.35715" lon="6.68434">
        <ele>1032.529546</ele>
        <time>2022-08-01T15:31:59.906Z</time>
      </trkpt>
      <trkpt lat="46.35717" lon="6.68421">
        <ele>1031.901795</ele>
        <time>2022-08-01T15:32:05.946Z</time>
      </trkpt>
      <trkpt lat="46.35719" lon="6.68408">
        <ele>1031.278632</ele>
        <time>2022-08-01T15:32:15.963Z</time>
      </trkpt>
      <trkpt lat="46.35717" lon="6.68395">
        <ele>1030.640288</ele>
        <time>2022-08-01T15:32:23.950Z</time>
      </trkpt>
      <trkpt lat="46.35717" lon="6.68382">
        <ele>1030.025805</ele>
        <time>2022-08-01T15:32:31.929Z</time>
      </trkpt>
      <trkpt lat="46.35716" lon="6.68367">
        <ele>1029.35026</ele>
        <time>2022-08-01T15:32:40.935Z</time>
      </trkpt>
      <trkpt lat="46.35717" lon="6.68354">
        <ele>1028.736052</ele>
        <time>2022-08-01T15:32:49.977Z</time>
      </trkpt>
      <trkpt lat="46.35718" lon="6.6834">
        <ele>1028.051971</ele>
        <time>2022-08-01T15:32:57.952Z</time>
      </trkpt>
      <trkpt lat="46.35717" lon="6.68325">
        <ele>1028.00258</ele>
        <time>2022-08-01T15:33:03.915Z</time>
      </trkpt>
      <trkpt lat="46.35716" lon="6.68312">
        <ele>1028.00258</ele>
        <time>2022-08-01T15:33:09.914Z</time>
      </trkpt>
      <trkpt lat="46.35713" lon="6.68299">
        <ele>1028.00258</ele>
        <time>2022-08-01T15:33:17.955Z</time>
      </trkpt>
      <trkpt lat="46.35711" lon="6.68286">
        <ele>1028.00258</ele>
        <time>2022-08-01T15:33:25.939Z</time>
      </trkpt>
      <trkpt lat="46.3571" lon="6.68273">
        <ele>1028.00258</ele>
        <time>2022-08-01T15:33:32.913Z</time>
      </trkpt>
      <trkpt lat="46.35707" lon="6.6826">
        <ele>1028.00258</ele>
        <time>2022-08-01T15:33:40.953Z</time>
      </trkpt>
      <trkpt lat="46.35704" lon="6.68247">
        <ele>1028.00258</ele>
        <time>2022-08-01T15:33:48.921Z</time>
      </trkpt>
      <trkpt lat="46.35704" lon="6.68232">
        <ele>1028.00258</ele>
        <time>2022-08-01T15:33:56.937Z</time>
      </trkpt>
      <trkpt lat="46.35702" lon="6.68218">
        <ele>1028.00258</ele>
        <time>2022-08-01T15:34:04.948Z</time>
      </trkpt>
      <trkpt lat="46.357" lon="6.68204">
        <ele>1028.00258</ele>
        <time>2022-08-01T15:34:11.957Z</time>
      </trkpt>
      <trkpt lat="46.35699" lon="6.68191">
        <ele>1028.00258</ele>
        <time>2022-08-01T15:34:19.920Z</time>
      </trkpt>
      <trkpt lat="46.35699" lon="6.68177">
        <ele>1028.00258</ele>
        <time>2022-08-01T15:34:28.938Z</time>
      </trkpt>
      <trkpt lat="46.35699" lon="6.68163">
        <ele>1028.00258</ele>
        <time>2022-08-01T15:34:35.943Z</time>
      </trkpt>
      <trkpt lat="46.35697" lon="6.68148">
        <ele>1028.00258</ele>
        <time>2022-08-01T15:34:51.926Z</time>
      </trkpt>
      <trkpt lat="46.35698" lon="6.68135">
        <ele>1028.00258</ele>
        <time>2022-08-01T15:35:00.950Z</time>
      </trkpt>
      <trkpt lat="46.35696" lon="6.68122">
        <ele>1028.00258</ele>
        <time>2022-08-01T15:35:09.926Z</time>
      </trkpt>
      <trkpt lat="46.35695" lon="6.68109">
        <ele>1028.00258</ele>
        <time>2022-08-01T15:35:18.942Z</time>
      </trkpt>
      <trkpt lat="46.35697" lon="6.68096">
        <ele>1028.00258</ele>
        <time>2022-08-01T15:35:27.954Z</time>
      </trkpt>
      <trkpt lat="46.357" lon="6.68083">
        <ele>1028.00258</ele>
        <time>2022-08-01T15:35:34.962Z</time>
      </trkpt>
      <trkpt lat="46.35705" lon="6.68072">
        <ele>1028.00258</ele>
        <time>2022-08-01T15:35:42.907Z</time>
      </trkpt>
      <trkpt lat="46.35708" lon="6.68068">
        <ele>1028.00258</ele>
        <time>2022-08-01T15:36:05.088Z</time>
      </trkpt>
    </trkseg>
  </trk>
</gpx>